Provisional Data: Baldwin Run near Wellsboro Junction, PA


Please select a monitoring station.
Please select start date.
Please select start date.

Toggle Unit: C/F Toggle Unit: C/F
Sample Time Temperature (C) Temperature (F) Specific Conductivity (mS/cm) pH   Turbidity (NTU+) DO (mg/L)
12/11/2021 12:00:00 AM 2.67 36.806 0.067 6.57 4.91 13.07
12/11/2021 12:15:00 AM 2.7 36.86 0.067 6.57 4.82 13.05
12/11/2021 12:30:00 AM 2.73 36.914 0.067 6.57 4.75 13.04
12/11/2021 12:45:00 AM 2.76 36.968 0.067 6.58 4.57 13.03
12/11/2021 1:00:00 AM 2.79 37.022 0.067 6.57 4.9 13.01
12/11/2021 1:15:00 AM 2.82 37.076 0.067 6.57 4.66 12.99
12/11/2021 1:30:00 AM 2.85 37.13 0.067 6.57 4.72 12.97
12/11/2021 1:45:00 AM 2.85 37.13 0.067 6.58 4.85 12.96
12/11/2021 2:00:00 AM 2.87 37.166 0.067 6.58 4.75 12.95
12/11/2021 2:15:00 AM 2.9 37.22 0.067 6.57 4.4 12.94
12/11/2021 2:30:00 AM 2.94 37.292 0.067 6.58 4.37 12.92
12/11/2021 2:45:00 AM 2.98 37.364 0.067 6.58 4.84 12.9
12/11/2021 3:00:00 AM 3.02 37.436 0.067 6.57 4.52 12.89
12/11/2021 3:15:00 AM 3.05 37.49 0.067 6.57 4.65 12.87
12/11/2021 3:30:00 AM 3.09 37.562 0.067 6.59 4.57 12.85
12/11/2021 3:45:00 AM 3.12 37.616 0.067 6.58 4.58 12.84
12/11/2021 4:00:00 AM 3.15 37.67 0.067 6.58 4.21 12.82
12/11/2021 4:15:00 AM 3.19 37.742 0.067 6.58 4.76 12.81
12/11/2021 4:30:00 AM 3.22 37.796 0.066 6.59 6.02 12.78
12/11/2021 4:45:00 AM 3.26 37.868 0.065 6.56 7.52 12.77
12/11/2021 5:00:00 AM 3.28 37.904 0.065 6.59 42.03 12.74
12/11/2021 5:15:00 AM 3.32 37.976 0.066 6.6 65.27 12.72
12/11/2021 5:30:00 AM 3.35 38.03 0.067 6.58 41.02 12.71
12/11/2021 5:45:00 AM 3.38 38.084 0.067 6.59 39.57 12.71
12/11/2021 6:00:00 AM 3.41 38.138 0.068 6.59 31.26 12.7
12/11/2021 6:15:00 AM 3.46 38.228 0.069 6.63 36.8 12.68
12/11/2021 6:30:00 AM 3.5 38.3 0.069 6.59 33.3 12.67
12/11/2021 6:45:00 AM 3.55 38.39 0.069 6.62 51.21 12.66
12/11/2021 7:00:00 AM 3.58 38.444 0.068 6.61 50.02 12.65
12/11/2021 7:15:00 AM 3.6 38.48 0.068 6.62 45.83 12.64
12/11/2021 7:30:00 AM 3.64 38.552 0.068 6.63 46.25 12.64
12/11/2021 7:45:00 AM 3.66 38.588 0.066 6.64 30.11 12.62
12/11/2021 8:00:00 AM 3.69 38.642 0.065 6.61 26.32 12.61
12/11/2021 8:15:00 AM 3.74 38.732 0.065 6.58 40.83 12.59
12/11/2021 8:30:00 AM 3.77 38.786 0.064 6.56 42.96 12.6
12/11/2021 8:45:00 AM 3.8 38.84 0.064 6.53 49.49 12.6
12/11/2021 9:00:00 AM 3.82 38.876 0.064 6.52 43.6 12.59
12/11/2021 9:15:00 AM 3.86 38.948 0.064 6.56 35.59 12.59
12/11/2021 9:30:00 AM 3.92 39.056 0.065 6.55 39.75 12.57
12/11/2021 9:45:00 AM 3.96 39.128 0.065 6.55 40.95 12.56
12/11/2021 10:00:00 AM 4.01 39.218 0.065 6.55 36.29 12.56
12/11/2021 10:15:00 AM 4.07 39.326 0.066 6.57 35.4 12.55
12/11/2021 10:30:00 AM 4.14 39.452 0.066 6.59 37.91 12.51
12/11/2021 10:45:00 AM 4.2 39.56 0.067 6.59 36.29 12.5
12/11/2021 11:00:00 AM 4.26 39.668 0.068 6.61 37.27 12.48
12/11/2021 11:15:00 AM 4.32 39.776 0.068 6.62 34.6 12.43
12/11/2021 11:30:00 AM 4.39 39.902 0.068 6.62 34.68 12.4
12/11/2021 11:45:00 AM 4.44 39.992 0.068 6.64 32.23 12.39
12/11/2021 12:00:00 PM 4.51 40.118 0.068 6.66 33.85 12.39
12/11/2021 12:15:00 PM 4.58 40.244 0.068 6.66 26.06 12.35
12/11/2021 12:30:00 PM 4.64 40.352 0.068 6.68 23.02 12.34
12/11/2021 12:45:00 PM 4.72 40.496 0.068 6.67 23.13 12.31
12/11/2021 1:00:00 PM 4.79 40.622 0.068 6.69 21.32 12.29
12/11/2021 1:15:00 PM 4.85 40.73 0.068 6.71 22.52 12.27
12/11/2021 1:30:00 PM 4.91 40.838 0.068 6.69 19.91 12.24
12/11/2021 1:45:00 PM 4.97 40.946 0.068 6.7 18.64 12.19
12/11/2021 2:00:00 PM 5.03 41.054 0.068 6.71 17.86 12.17
12/11/2021 2:15:00 PM 5.1 41.18 0.068 6.73 15.19 12.14
12/11/2021 2:30:00 PM 5.18 41.324 0.067 6.73 15.84 12.1
12/11/2021 2:45:00 PM 5.25 41.45 0.067 6.7 15.22 12.07
12/11/2021 3:00:00 PM 5.31 41.558 0.067 6.69 15.79 12.04
12/11/2021 3:15:00 PM 5.37 41.666 0.067 6.67 14.68 11.99
12/11/2021 3:30:00 PM 5.43 41.774 0.067 6.68 13.96 11.98
12/11/2021 3:45:00 PM 5.49 41.882 0.067 6.68 14.29 11.95
12/11/2021 4:00:00 PM 5.58 42.044 0.067 6.68 12.89 11.91
12/11/2021 4:15:00 PM 5.67 42.206 0.067 6.66 13.18 11.86
12/11/2021 4:30:00 PM 5.72 42.296 0.067 6.67 12.98 11.83
12/11/2021 4:45:00 PM 5.79 42.422 0.066 6.66 12.33 11.8
12/11/2021 5:00:00 PM 5.82 42.476 0.066 6.66 12.68 11.78
12/11/2021 5:15:00 PM 5.88 42.584 0.066 6.63 12.21 11.76
12/11/2021 5:30:00 PM 5.93 42.674 0.066 6.64 12.8 11.74
12/11/2021 5:45:00 PM 5.96 42.728 0.066 6.63 12.47 11.74
12/11/2021 6:00:00 PM 6.05 42.89 0.066 6.65 12.62 11.72
12/11/2021 6:15:00 PM 6.12 43.016 0.066 6.67 11.4 11.7
12/11/2021 6:30:00 PM 6.14 43.052 0.066 6.67 11.71 11.7
12/11/2021 6:45:00 PM 6.12 43.016 0.066 6.68 11.38 11.7
12/11/2021 7:00:00 PM 6.08 42.944 0.066 6.63 11.44 11.72
12/11/2021 7:15:00 PM 6.02 42.836 0.066 6.65 12.11 11.75
12/11/2021 7:30:00 PM 5.94 42.692 0.066 6.64 11.75 11.78
12/11/2021 7:45:00 PM 5.86 42.548 0.066 6.63 11.16 11.81
12/11/2021 8:00:00 PM 5.78 42.404 0.066 6.62 11.41 11.85
12/11/2021 8:15:00 PM 5.66 42.188 0.066 6.63 18.52 11.89
12/11/2021 8:30:00 PM 5.56 42.008 0.066 6.59 11.4 11.94
12/11/2021 8:45:00 PM 5.45 41.81 0.066 6.61 11.06 11.98
12/11/2021 9:00:00 PM 5.35 41.63 0.065 6.62 10.96 12.03
12/11/2021 9:15:00 PM 5.26 41.468 0.065 6.59 10.46 12.07
12/11/2021 9:30:00 PM 5.19 41.342 0.065 6.6 10.21 12.1
12/11/2021 9:45:00 PM 5.13 41.234 0.065 6.59 9.9 12.12
12/11/2021 10:00:00 PM 5.09 41.162 0.065 6.58 9.74 12.15
12/11/2021 10:15:00 PM 5.05 41.09 0.065 6.6 9.78 12.17
12/11/2021 10:30:00 PM 5 41 0.065 6.6 9.09 12.18
12/11/2021 10:45:00 PM 4.96 40.928 0.065 6.59 10.06 12.21
12/11/2021 11:00:00 PM 4.88 40.784 0.065 6.59 9.53 12.23
12/11/2021 11:15:00 PM 4.82 40.676 0.065 6.6 9.11 12.26
12/11/2021 11:30:00 PM 4.78 40.604 0.065 6.6 9.53 12.28
12/11/2021 11:45:00 PM 4.74 40.532 0.065 6.6 8.72 12.29
12/12/2021 12:00:00 AM 4.7 40.46 0.065 6.6 9.39 12.31
12/12/2021 12:15:00 AM 4.66 40.388 0.065 6.6 10.06 12.32
12/12/2021 12:30:00 AM 4.63 40.334 0.065 6.61 9.24 12.34
12/12/2021 12:45:00 AM 4.59 40.262 0.065 6.61 9 12.36
12/12/2021 1:00:00 AM 4.56 40.208 0.064 6.59 9.55 12.37
12/12/2021 1:15:00 AM 4.52 40.136 0.064 6.58 8.83 12.38
12/12/2021 1:30:00 AM 4.48 40.064 0.064 6.61 9 12.4
12/12/2021 1:45:00 AM 4.43 39.974 0.064 6.59 8.51 12.42
12/12/2021 2:00:00 AM 4.38 39.884 0.064 6.61 8.66 12.44
12/12/2021 2:15:00 AM 4.32 39.776 0.064 6.58 8.46 12.46
12/12/2021 2:30:00 AM 4.28 39.704 0.064 6.59 8.16 12.48
12/12/2021 2:45:00 AM 4.26 39.668 0.064 6.62 7.67 12.5
12/12/2021 3:00:00 AM 4.24 39.632 0.064 6.57 7.74 12.51
12/12/2021 3:15:00 AM 4.2 39.56 0.064 6.58 7.69 12.53
12/12/2021 3:30:00 AM 4.17 39.506 0.064 6.6 8.1 12.54
12/12/2021 3:45:00 AM 4.15 39.47 0.064 6.59 7.72 12.56
12/12/2021 4:00:00 AM 4.13 39.434 0.064 6.61 8.01 12.57
12/12/2021 4:15:00 AM 4.11 39.398 0.064 6.6 7.57 12.57
12/12/2021 4:30:00 AM 4.09 39.362 0.064 6.6 7.38 12.59
12/12/2021 4:45:00 AM 4.03 39.254 0.064 6.6 7.53 12.6
12/12/2021 5:00:00 AM 4 39.2 0.064 6.6 7.33 12.63
12/12/2021 5:15:00 AM 3.98 39.164 0.064 6.6 7.49 12.63
12/12/2021 5:30:00 AM 3.91 39.038 0.064 6.59 7.25 12.65
12/12/2021 5:45:00 AM 3.86 38.948 0.064 6.6 7.55 12.68
12/12/2021 6:00:00 AM 3.81 38.858 0.064 6.58 7.03 12.7
12/12/2021 6:15:00 AM 3.76 38.768 0.064 6.59 7.27 12.71
12/12/2021 6:30:00 AM 3.71 38.678 0.064 6.59 7.19 12.73
12/12/2021 6:45:00 AM 3.66 38.588 0.064 6.59 8.09 12.75
12/12/2021 7:00:00 AM 3.61 38.498 0.064 6.58 6.86 12.77
12/12/2021 7:15:00 AM 3.59 38.462 0.064 6.58 7.32 12.79
12/12/2021 7:30:00 AM 3.56 38.408 0.064 6.59 6.88 12.81
12/12/2021 7:45:00 AM 3.52 38.336 0.063 6.59 6.71 12.84
12/12/2021 8:00:00 AM 3.5 38.3 0.063 6.59 6.63 12.89
12/12/2021 8:15:00 AM 3.52 38.336 0.063 6.62 6.48 12.92
12/12/2021 8:30:00 AM 3.53 38.354 0.063 6.62 6.48 12.93
12/12/2021 8:45:00 AM 3.53 38.354 0.063 6.63 6.57 12.97
12/12/2021 9:00:00 AM 3.54 38.372 0.063 6.64 7.4 12.98
12/12/2021 9:15:00 AM 3.54 38.372 0.063 6.65 6.11 13
12/12/2021 9:30:00 AM 3.54 38.372 0.063 6.66 6.58 13.01
12/12/2021 9:45:00 AM 3.55 38.39 0.063 6.68 6.23 13.02
12/12/2021 10:00:00 AM 3.55 38.39 0.063 6.67 6.12 13.02
12/12/2021 10:15:00 AM 3.55 38.39 0.063 6.68 5.96 13.02
12/12/2021 10:30:00 AM 3.55 38.39 0.063 6.68 6.01 13.04
12/12/2021 10:45:00 AM 3.56 38.408 0.062 6.68 6.22 13.02
12/12/2021 11:00:00 AM 3.57 38.426 0.062 6.68 6.29 13.01
12/12/2021 11:15:00 AM 3.59 38.462 0.062 6.67 6.31 12.99
12/12/2021 11:30:00 AM 3.61 38.498 0.062 6.68 6.1 12.99
12/12/2021 11:45:00 AM 3.64 38.552 0.062 6.68 6.21 12.99
12/12/2021 12:00:00 PM 3.66 38.588 0.062 6.68 6.08 12.96
12/12/2021 12:15:00 PM 3.69 38.642 0.066 6.68 5.82 12.95
12/12/2021 12:30:00 PM 3.73 38.714 0.069 6.69 6.18 12.93
12/12/2021 12:45:00 PM 3.74 38.732 0.063 6.69 5.89 12.92
12/12/2021 1:00:00 PM 3.74 38.732 0.063 6.68 6 12.91
12/12/2021 1:15:00 PM 3.75 38.75 0.064 6.66 5.8 12.9
12/12/2021 1:30:00 PM 3.77 38.786 0.085 6.7 5.7 12.9
12/12/2021 1:45:00 PM 3.78 38.804 0.065 6.67 5.77 12.89
12/12/2021 2:00:00 PM 3.78 38.804 0.063 6.68 6.1 12.89
12/12/2021 2:15:00 PM 3.79 38.822 0.063 6.66 5.97 12.88
12/12/2021 2:30:00 PM 3.79 38.822 0.063 6.67 6.07 12.87
12/12/2021 2:45:00 PM 3.79 38.822 0.062 6.66 5.98 12.86
12/12/2021 3:00:00 PM 3.79 38.822 0.062 6.66 5.87 12.85
12/12/2021 3:15:00 PM 3.79 38.822 0.062 6.64 6 12.85
12/12/2021 3:30:00 PM 3.78 38.804 0.062 6.64 6.43 12.84
12/12/2021 3:45:00 PM 3.77 38.786 0.062 6.64 6.07 12.84
12/12/2021 4:00:00 PM 3.76 38.768 0.062 6.64 6.02 12.83
12/12/2021 4:15:00 PM 3.74 38.732 0.062 6.64 6.12 12.82
12/12/2021 4:30:00 PM 3.72 38.696 0.062 6.59 6.23 12.82
12/12/2021 4:45:00 PM 3.68 38.624 0.062 6.61 6.01 12.8
12/12/2021 5:00:00 PM 3.64 38.552 0.062 6.6 6.38 12.8
12/12/2021 5:15:00 PM 3.59 38.462 0.062 6.58 6.48 12.83
12/12/2021 5:30:00 PM 3.55 38.39 0.062 6.57 6.5 12.83
12/12/2021 5:45:00 PM 3.5 38.3 0.062 6.58 6.1 12.86
12/12/2021 6:00:00 PM 3.46 38.228 0.062 6.57 6.18 12.88
12/12/2021 6:15:00 PM 3.41 38.138 0.062 6.57 6.86 12.9
12/12/2021 6:30:00 PM 3.37 38.066 0.062 6.55 6.72 12.92
12/12/2021 6:45:00 PM 3.32 37.976 0.062 6.58 6.61 12.93
12/12/2021 7:00:00 PM 3.28 37.904 0.062 6.55 6.24 12.95
12/12/2021 7:15:00 PM 3.24 37.832 0.062 6.56 6.29 12.97
12/12/2021 7:30:00 PM 3.2 37.76 0.062 6.55 6.64 12.99
12/12/2021 7:45:00 PM 3.16 37.688 0.062 6.55 6.36 13
12/12/2021 8:00:00 PM 3.13 37.634 0.062 6.54 6.11 13.01
12/12/2021 8:15:00 PM 3.09 37.562 0.062 6.54 6.15 13.02
12/12/2021 8:30:00 PM 3.06 37.508 0.062 6.56 6.31 13.03
12/12/2021 8:45:00 PM 3.03 37.454 0.062 6.56 6.16 13.05
12/12/2021 9:00:00 PM 3 37.4 0.062 6.54 6.1 13.06
12/12/2021 9:15:00 PM 2.97 37.346 0.062 6.55 6.41 13.07
12/12/2021 9:30:00 PM 2.94 37.292 0.062 6.54 5.88 13.09
12/12/2021 9:45:00 PM 2.91 37.238 0.062 6.54 6.16 13.1
12/12/2021 10:00:00 PM 2.89 37.202 0.062 6.56 5.99 13.11
12/12/2021 10:15:00 PM 2.86 37.148 0.062 6.54 6.19 13.12
12/12/2021 10:30:00 PM 2.83 37.094 0.062 6.55 6.03 13.13
12/12/2021 10:45:00 PM 2.81 37.058 0.062 6.54 5.73 13.14
12/12/2021 11:00:00 PM 2.78 37.004 0.062 6.54 5.86 13.15
12/12/2021 11:15:00 PM 2.76 36.968 0.062 6.54 5.92 13.16
12/12/2021 11:30:00 PM 2.74 36.932 0.062 6.54 7.38 13.16
12/12/2021 11:45:00 PM 2.73 36.914 0.062 6.55 6.05 13.17
12/13/2021 12:00:00 AM 2.72 36.896 0.062 6.54 6.02 13.18
12/13/2021 12:15:00 AM 2.71 36.878 0.062 6.56 6 13.18
12/13/2021 12:30:00 AM 2.71 36.878 0.062 6.55 5.99 13.19
12/13/2021 12:45:00 AM 2.71 36.878 0.062 6.55 5.68 13.18
12/13/2021 1:00:00 AM 2.72 36.896 0.061 6.54 5.73 13.19
12/13/2021 1:15:00 AM 2.71 36.878 0.061 6.55 5.8 13.19
12/13/2021 1:30:00 AM 2.7 36.86 0.061 6.55 5.65 13.19
12/13/2021 1:45:00 AM 2.7 36.86 0.061 6.54 5.86 13.2
12/13/2021 2:00:00 AM 2.71 36.878 0.061 6.55 5.84 13.2
12/13/2021 2:15:00 AM 2.72 36.896 0.061 6.56 5.73 13.2
12/13/2021 2:30:00 AM 2.73 36.914 0.061 6.57 5.62 13.19
12/13/2021 2:45:00 AM 2.74 36.932 0.061 6.55 5.76 13.2
12/13/2021 3:00:00 AM 2.75 36.95 0.061 6.54 5.6 13.19
12/13/2021 3:15:00 AM 2.76 36.968 0.061 6.55 5.59 13.19
12/13/2021 3:30:00 AM 2.77 36.986 0.061 6.56 5.56 13.17
12/13/2021 3:45:00 AM 2.79 37.022 0.061 6.53 5.74 13.17
12/13/2021 4:00:00 AM 2.8 37.04 0.061 6.54 5.78 13.16
12/13/2021 4:15:00 AM 2.82 37.076 0.061 6.56 5.68 13.15
12/13/2021 4:30:00 AM 2.84 37.112 0.061 6.54 5.48 13.14
12/13/2021 4:45:00 AM 2.86 37.148 0.061 6.55 5.58 13.14
12/13/2021 5:00:00 AM 2.88 37.184 0.061 6.55 5.64 13.14
12/13/2021 5:15:00 AM 2.89 37.202 0.061 6.54 5.87 13.13
12/13/2021 5:30:00 AM 2.91 37.238 0.061 6.56 5.49 13.12
12/13/2021 5:45:00 AM 2.92 37.256 0.061 6.56 5.52 13.12
12/13/2021 6:00:00 AM 2.94 37.292 0.061 6.54 5.4 13.11
12/13/2021 6:15:00 AM 2.95 37.31 0.061 6.55 5.62 13.11
12/13/2021 6:30:00 AM 2.97 37.346 0.061 6.54 5.22 13.1
12/13/2021 6:45:00 AM 2.98 37.364 0.061 6.56 5.28 13.1
12/13/2021 7:00:00 AM 3 37.4 0.061 6.53 5.47 13.09
12/13/2021 7:15:00 AM 3.01 37.418 0.061 6.54 5.4 13.08
12/13/2021 7:30:00 AM 3.02 37.436 0.061 6.55 5.39 13.08
12/13/2021 7:45:00 AM 3.04 37.472 0.061 6.55 5.44 13.08
12/13/2021 8:00:00 AM 3.06 37.508 0.061 6.57 5.22 13.09
12/13/2021 8:15:00 AM 3.08 37.544 0.061 6.57 5.5 13.11
12/13/2021 8:30:00 AM 3.1 37.58 0.06 6.56 5.2 13.13
12/13/2021 8:45:00 AM 3.12 37.616 0.06 6.59 5.23 13.16
12/13/2021 9:00:00 AM 3.12 37.616 0.06 6.58 5.35 13.17
12/13/2021 9:15:00 AM 3.14 37.652 0.06 6.61 5.33 13.19
12/13/2021 9:30:00 AM 3.16 37.688 0.06 6.61 5.25 13.18
12/13/2021 9:45:00 AM 3.19 37.742 0.06 6.62 5.24 13.17
12/13/2021 10:00:00 AM 3.23 37.814 0.06 6.61 5.35 13.16
12/13/2021 10:15:00 AM 3.26 37.868 0.06 6.61 5.25 13.15
12/13/2021 10:30:00 AM 3.31 37.958 0.06 6.63 5.1 13.13
12/13/2021 10:45:00 AM 3.35 38.03 0.06 6.63 6.98 13.12
12/13/2021 11:00:00 AM 3.39 38.102 0.06 6.63 5.65 13.1
12/13/2021 11:15:00 AM 3.44 38.192 0.06 6.63 5.84 13.07
12/13/2021 11:30:00 AM 3.49 38.282 0.06 6.63 5.75 13.04
12/13/2021 11:45:00 AM 3.55 38.39 0.06 6.63 6.04 13.02
12/13/2021 12:00:00 PM 3.6 38.48 0.06 6.63 5.87 13.01
12/13/2021 12:15:00 PM 3.67 38.606 0.06 6.64 5.73 12.97
12/13/2021 12:30:00 PM 3.73 38.714 0.06 6.62 5.58 12.94
12/13/2021 12:45:00 PM 3.78 38.804 0.06 6.64 5.59 12.91
12/13/2021 1:00:00 PM 3.81 38.858 0.06 6.65 5.59 12.9
12/13/2021 1:15:00 PM 3.84 38.912 0.06 6.61 5.47 12.88
12/13/2021 1:30:00 PM 3.87 38.966 0.06 6.63 5.57 12.86
12/13/2021 1:45:00 PM 3.9 39.02 0.06 6.63 5.72 12.85
12/13/2021 2:00:00 PM 3.92 39.056 0.059 6.62 5.95 12.83
12/13/2021 2:15:00 PM 3.95 39.11 0.059 6.62 5.8 12.82
12/13/2021 2:30:00 PM 3.98 39.164 0.059 6.61 6.06 12.8
12/13/2021 2:45:00 PM 4.01 39.218 0.059 6.61 6.08 12.79
12/13/2021 3:00:00 PM 4.03 39.254 0.059 6.61 5.91 12.77
12/13/2021 3:15:00 PM 4.05 39.29 0.06 6.63 5.95 12.76
12/13/2021 3:30:00 PM 4.06 39.308 0.06 6.6 6.01 12.75
12/13/2021 3:45:00 PM 4.07 39.326 0.06 6.61 5.88 12.73
12/13/2021 4:00:00 PM 4.08 39.344 0.06 6.61 6.15 12.72
12/13/2021 4:15:00 PM 4.07 39.326 0.06 6.58 6.26 12.71
12/13/2021 4:30:00 PM 4.06 39.308 0.06 6.57 5.98 12.7
12/13/2021 4:45:00 PM 4.05 39.29 0.06 6.58 6.07 12.68
12/13/2021 5:00:00 PM 4.03 39.254 0.06 6.55 6.04 12.68
12/13/2021 5:15:00 PM 4 39.2 0.06 6.54 6.07 12.68
12/13/2021 5:30:00 PM 3.97 39.146 0.06 6.56 6.27 12.69
12/13/2021 5:45:00 PM 3.94 39.092 0.06 6.54 6.29 12.7
12/13/2021 6:00:00 PM 3.91 39.038 0.06 6.54 6.57 12.71
12/13/2021 6:15:00 PM 3.88 38.984 0.06 6.53 6.52 12.72
12/13/2021 6:30:00 PM 3.86 38.948 0.06 6.52 6.6 12.74
12/13/2021 6:45:00 PM 3.83 38.894 0.06 6.53 6.53 12.75
12/13/2021 7:00:00 PM 3.8 38.84 0.06 6.53 6.14 12.76
12/13/2021 7:15:00 PM 3.77 38.786 0.06 6.52 6.19 12.77
12/13/2021 7:30:00 PM 3.73 38.714 0.06 6.52 6.52 12.79
12/13/2021 7:45:00 PM 3.7 38.66 0.06 6.51 6.84 12.81
12/13/2021 8:00:00 PM 3.66 38.588 0.06 6.5 5.99 12.82
12/13/2021 8:15:00 PM 3.63 38.534 0.06 6.5 6.03 12.84
12/13/2021 8:30:00 PM 3.59 38.462 0.06 6.5 5.91 12.86
12/13/2021 8:45:00 PM 3.56 38.408 0.06 6.51 6.3 12.88
12/13/2021 9:00:00 PM 3.52 38.336 0.06 6.51 6.24 12.89
12/13/2021 9:15:00 PM 3.49 38.282 0.06 6.5 6.19 12.9
12/13/2021 9:30:00 PM 3.46 38.228 0.06 6.49 6.16 12.91
12/13/2021 9:45:00 PM 3.43 38.174 0.06 6.51 5.89 12.93
12/13/2021 10:00:00 PM 3.4 38.12 0.06 6.51 6.21 12.94
12/13/2021 10:15:00 PM 3.38 38.084 0.06 6.51 5.65 12.95
12/13/2021 10:30:00 PM 3.35 38.03 0.06 6.51 5.92 12.96
12/13/2021 10:45:00 PM 3.33 37.994 0.06 6.48 6.06 12.97
12/13/2021 11:00:00 PM 3.31 37.958 0.06 6.5 6 12.98
12/13/2021 11:15:00 PM 3.29 37.922 0.06 6.48 5.92 12.99
12/13/2021 11:30:00 PM 3.27 37.886 0.06 6.5 5.91 13
12/13/2021 11:45:00 PM 3.25 37.85 0.06 6.5 6.16 13.01
12/14/2021 12:00:00 AM 3.24 37.832 0.06 6.5 5.61 13.01
12/14/2021 12:15:00 AM 3.22 37.796 0.06 6.51 5.83 13.02
12/14/2021 12:30:00 AM 3.2 37.76 0.06 6.5 5.49 13.03
12/14/2021 12:45:00 AM 3.18 37.724 0.06 6.49 5.68 13.04
12/14/2021 1:00:00 AM 3.17 37.706 0.06 6.51 6.03 13.04
12/14/2021 1:15:00 AM 3.15 37.67 0.06 6.52 5.96 13.05
12/14/2021 1:30:00 AM 3.13 37.634 0.06 6.49 5.7 13.06
12/14/2021 1:45:00 AM 3.11 37.598 0.06 6.49 5.54 13.07
12/14/2021 2:00:00 AM 3.1 37.58 0.06 6.5 5.68 13.08
12/14/2021 2:15:00 AM 3.08 37.544 0.06 6.5 5.52 13.09
12/14/2021 2:30:00 AM 3.06 37.508 0.06 6.49 5.61 13.11
12/14/2021 2:45:00 AM 3.04 37.472 0.059 6.5 5.41 13.11
12/14/2021 3:00:00 AM 3.03 37.454 0.059 6.49 5.33 13.12
12/14/2021 3:15:00 AM 3.01 37.418 0.059 6.51 5.57 13.13
12/14/2021 3:30:00 AM 2.99 37.382 0.059 6.51 5.49 13.14
12/14/2021 3:45:00 AM 2.98 37.364 0.059 6.49 5.55 13.15
12/14/2021 4:00:00 AM 2.96 37.328 0.059 6.49 5.46 13.15
12/14/2021 4:15:00 AM 2.95 37.31 0.059 6.5 5.21 13.15
12/14/2021 4:30:00 AM 2.94 37.292 0.059 6.5 5.1 13.17
12/14/2021 4:45:00 AM 2.93 37.274 0.059 6.5 5.14 13.17
12/14/2021 5:00:00 AM 2.91 37.238 0.059 6.5 5.12 13.18
12/14/2021 5:15:00 AM 2.89 37.202 0.059 6.5 5.6 13.18
12/14/2021 5:30:00 AM 2.87 37.166 0.059 6.51 5.31 13.19
12/14/2021 5:45:00 AM 2.86 37.148 0.059 6.49 5.41 13.2
12/14/2021 6:00:00 AM 2.84 37.112 0.059 6.49 5.19 13.22
12/14/2021 6:15:00 AM 2.83 37.094 0.059 6.51 5.21 13.22
12/14/2021 6:30:00 AM 2.82 37.076 0.059 6.51 5.21 13.23
12/14/2021 6:45:00 AM 2.8 37.04 0.059 6.48 5.26 13.24
12/14/2021 7:00:00 AM 2.78 37.004 0.059 6.48 5.24 13.24
12/14/2021 7:15:00 AM 2.77 36.986 0.059 6.52 5.13 13.25
12/14/2021 7:30:00 AM 2.75 36.95 0.059 6.49 5.09 13.27
12/14/2021 7:45:00 AM 2.73 36.914 0.059 6.5 4.98 13.3
12/14/2021 8:00:00 AM 2.73 36.914 0.059 6.51 5.18 13.33
12/14/2021 8:15:00 AM 2.73 36.914 0.059 6.51 5.36 13.26
12/14/2021 8:30:00 AM 2.73 36.914 0.059 6.51 4.99 13.39
12/14/2021 8:45:00 AM 2.74 36.932 0.059 6.53 4.87 13.41
12/14/2021 9:00:00 AM 2.76 36.968 0.059 6.55 5.19 13.44
12/14/2021 9:15:00 AM 2.78 37.004 0.059 6.53 5.21 13.45
12/14/2021 9:30:00 AM 2.8 37.04 0.059 6.58 4.99 13.45
12/14/2021 9:45:00 AM 2.82 37.076 0.059 6.55 5.27 13.46
12/14/2021 10:00:00 AM 2.86 37.148 0.059 6.57 5.01 13.47
12/14/2021 10:15:00 AM 2.93 37.274 0.059 6.58 4.99 13.46
12/14/2021 10:30:00 AM 2.98 37.364 0.058 6.62 4.97 13.44
12/14/2021 10:45:00 AM 3.03 37.454 0.058 6.61 5.19 13.43
12/14/2021 11:00:00 AM 3.11 37.598 0.058 6.61 5.05 13.4
12/14/2021 11:15:00 AM 3.18 37.724 0.058 6.62 5.2 13.36
12/14/2021 11:30:00 AM 3.24 37.832 0.058 6.63 5.21 13.31
12/14/2021 11:45:00 AM 3.3 37.94 0.058 6.62 5 13.28
12/14/2021 12:00:00 PM 3.37 38.066 0.058 6.61 5.35 13.24
12/14/2021 12:15:00 PM 3.45 38.21 0.058 6.62 5.1 13.22
12/14/2021 12:30:00 PM 3.51 38.318 0.058 6.62 5.03 13.17
12/14/2021 12:45:00 PM 3.58 38.444 0.058 6.63 4.97 13.13
12/14/2021 1:00:00 PM 3.63 38.534 0.058 6.61 5.14 13.11
12/14/2021 1:15:00 PM 3.67 38.606 0.058 6.63 5.18 13.09
12/14/2021 1:30:00 PM 3.72 38.696 0.058 6.63 5.29 13.07
12/14/2021 1:45:00 PM 3.76 38.768 0.058 6.62 5.18 13.05
12/14/2021 2:00:00 PM 3.79 38.822 0.058 6.62 5.17 13.03
12/14/2021 2:15:00 PM 3.83 38.894 0.058 6.64 5.28 13.01
12/14/2021 2:30:00 PM 3.87 38.966 0.058 6.62 5.14 12.99
12/14/2021 2:45:00 PM 3.9 39.02 0.058 6.6 5.25 12.99
12/14/2021 3:00:00 PM 3.93 39.074 0.058 6.62 5.4 12.97
12/14/2021 3:15:00 PM 3.95 39.11 0.058 6.59 5.3 12.95
12/14/2021 3:30:00 PM 3.97 39.146 0.058 6.62 5.49 12.94
12/14/2021 3:45:00 PM 3.97 39.146 0.058 6.59 5.51 12.93
12/14/2021 4:00:00 PM 3.97 39.146 0.058 6.58 5.52 12.92
12/14/2021 4:15:00 PM 3.96 39.128 0.058 6.6 5.87 12.9
12/14/2021 4:30:00 PM 3.94 39.092 0.059 6.58 5.59 12.89
12/14/2021 4:45:00 PM 3.92 39.056 0.059 6.53 5.45 12.87
12/14/2021 5:00:00 PM 3.89 39.002 0.059 6.54 5.51 12.87
12/14/2021 5:15:00 PM 3.86 38.948 0.059 6.53 6.1 12.88
12/14/2021 5:30:00 PM 3.83 38.894 0.059 6.55 5.74 12.89
12/14/2021 5:45:00 PM 3.8 38.84 0.059 6.52 5.73 12.9
12/14/2021 6:00:00 PM 3.76 38.768 0.059 6.53 5.66 12.91
12/14/2021 6:15:00 PM 3.73 38.714 0.059 6.53 5.46 12.93
12/14/2021 6:30:00 PM 3.69 38.642 0.059 6.51 5.68 12.95
12/14/2021 6:45:00 PM 3.65 38.57 0.059 6.51 5.8 12.96
12/14/2021 7:00:00 PM 3.62 38.516 0.059 6.53 5.7 12.98
12/14/2021 7:15:00 PM 3.59 38.462 0.059 6.51 5.55 12.99
12/14/2021 7:30:00 PM 3.56 38.408 0.059 6.51 5.98 13.01
12/14/2021 7:45:00 PM 3.53 38.354 0.059 6.51 5.58 13.02
12/14/2021 8:00:00 PM 3.5 38.3 0.059 6.49 5.53 13.03
12/14/2021 8:15:00 PM 3.46 38.228 0.059 6.51 5.54 13.04
12/14/2021 8:30:00 PM 3.43 38.174 0.059 6.53 5.54 13.05
12/14/2021 8:45:00 PM 3.39 38.102 0.059 6.48 5.46 13.07
12/14/2021 9:00:00 PM 3.36 38.048 0.059 6.5 5.47 13.08
12/14/2021 9:15:00 PM 3.33 37.994 0.059 6.5 5.43 13.09
12/14/2021 9:30:00 PM 3.3 37.94 0.059 6.51 5.35 13.11
12/14/2021 9:45:00 PM 3.27 37.886 0.059 6.48 5.48 13.12
12/14/2021 10:00:00 PM 3.24 37.832 0.059 6.51 5.55 13.12
12/14/2021 10:15:00 PM 3.2 37.76 0.059 6.5 5.24 13.13
12/14/2021 10:30:00 PM 3.18 37.724 0.059 6.49 5.35 13.15
12/14/2021 10:45:00 PM 3.16 37.688 0.059 6.51 5.24 13.15
12/14/2021 11:00:00 PM 3.15 37.67 0.059 6.5 5.32 13.16
12/14/2021 11:15:00 PM 3.12 37.616 0.059 6.48 5.31 13.17
12/14/2021 11:30:00 PM 3.1 37.58 0.059 6.51 5.24 13.18
12/14/2021 11:45:00 PM 3.08 37.544 0.059 6.47 5.22 13.19
12/15/2021 12:00:00 AM 3.06 37.508 0.059 6.49 5.12 13.2
12/15/2021 12:15:00 AM 3.04 37.472 0.059 6.48 5.02 13.2
12/15/2021 12:30:00 AM 3.02 37.436 0.059 6.49 5.05 13.21
12/15/2021 12:45:00 AM 3 37.4 0.059 6.49 5.03 13.21
12/15/2021 1:00:00 AM 2.98 37.364 0.059 6.49 5.01 13.23
12/15/2021 1:15:00 AM 2.96 37.328 0.059 6.48 5.23 13.22
12/15/2021 1:30:00 AM 2.94 37.292 0.059 6.48 4.94 13.23
12/15/2021 1:45:00 AM -99999.99 -179968 -99999.99 -99999.99 -99999.99 -99999.99
12/15/2021 2:00:00 AM -99999.99 -179968 -99999.99 -99999.99 -99999.99 -99999.99
12/15/2021 2:15:00 AM -99999.99 -179968 -99999.99 -99999.99 -99999.99 -99999.99
12/15/2021 2:30:00 AM -99999.99 -179968 -99999.99 -99999.99 -99999.99 -99999.99
12/15/2021 2:45:00 AM -99999.99 -179968 -99999.99 -99999.99 -99999.99 -99999.99
12/15/2021 3:00:00 AM -99999.99 -179968 -99999.99 -99999.99 -99999.99 -99999.99
12/15/2021 3:15:00 AM -99999.99 -179968 -99999.99 -99999.99 -99999.99 -99999.99
12/15/2021 3:30:00 AM -99999.99 -179968 -99999.99 -99999.99 -99999.99 -99999.99
12/15/2021 3:45:00 AM -99999.99 -179968 -99999.99 -99999.99 -99999.99 -99999.99
12/15/2021 4:00:00 AM -99999.99 -179968 -99999.99 -99999.99 -99999.99 -99999.99
12/15/2021 4:15:00 AM -99999.99 -179968 -99999.99 -99999.99 -99999.99 -99999.99
12/15/2021 4:30:00 AM -99999.99 -179968 -99999.99 -99999.99 -99999.99 -99999.99
12/15/2021 4:45:00 AM -99999.99 -179968 -99999.99 -99999.99 -99999.99 -99999.99
12/15/2021 5:00:00 AM -99999.99 -179968 -99999.99 -99999.99 -99999.99 -99999.99
12/15/2021 5:15:00 AM -99999.99 -179968 -99999.99 -99999.99 -99999.99 -99999.99
12/15/2021 5:30:00 AM -99999.99 -179968 -99999.99 -99999.99 -99999.99 -99999.99
12/15/2021 5:45:00 AM -99999.99 -179968 -99999.99 -99999.99 -99999.99 -99999.99
12/15/2021 6:00:00 AM -99999.99 -179968 -99999.99 -99999.99 -99999.99 -99999.99
12/15/2021 6:15:00 AM -99999.99 -179968 -99999.99 -99999.99 -99999.99 -99999.99
12/15/2021 6:30:00 AM -99999.99 -179968 -99999.99 -99999.99 -99999.99 -99999.99
12/15/2021 6:45:00 AM -99999.99 -179968 -99999.99 -99999.99 -99999.99 -99999.99
12/15/2021 7:00:00 AM -99999.99 -179968 -99999.99 -99999.99 -99999.99 -99999.99
12/15/2021 7:15:00 AM -99999.99 -179968 -99999.99 -99999.99 -99999.99 -99999.99
12/15/2021 7:30:00 AM -99999.99 -179968 -99999.99 -99999.99 -99999.99 -99999.99
12/15/2021 7:45:00 AM -99999.99 -179968 -99999.99 -99999.99 -99999.99 -99999.99
12/15/2021 8:00:00 AM -99999.99 -179968 -99999.99 -99999.99 -99999.99 -99999.99
12/15/2021 8:15:00 AM -99999.99 -179968 -99999.99 -99999.99 -99999.99 -99999.99
12/15/2021 8:30:00 AM -99999.99 -179968 -99999.99 -99999.99 -99999.99 -99999.99
12/15/2021 8:45:00 AM -99999.99 -179968 -99999.99 -99999.99 -99999.99 -99999.99
12/15/2021 9:00:00 AM 3.07 37.526 0.058 6.66 4.87 13.34
12/15/2021 9:15:00 AM -99999.99 -179968 -99999.99 -99999.99 -99999.99 -99999.99
12/15/2021 9:30:00 AM 3.17 37.706 0.058 6.62 4.87 13.32
12/15/2021 9:45:00 AM 3.23 37.814 0.058 6.63 4.68 13.33
12/15/2021 10:00:00 AM 3.29 37.922 0.058 6.63 4.74 13.33
12/15/2021 10:15:00 AM 3.36 38.048 0.058 6.63 4.81 13.31
12/15/2021 10:30:00 AM 3.4 38.12 0.058 6.61 4.83 13.24
12/15/2021 10:45:00 AM 3.46 38.228 0.058 6.65 5.2 13.25
12/15/2021 11:00:00 AM 3.52 38.336 0.058 6.66 4.88 13.22
12/15/2021 11:15:00 AM 3.55 38.39 0.058 6.67 4.9 13.18
12/15/2021 11:30:00 AM 3.58 38.444 0.058 6.64 4.75 13.14
12/15/2021 11:45:00 AM 3.62 38.516 0.058 6.64 4.64 13.15
12/15/2021 12:00:00 PM 3.68 38.624 0.058 6.67 4.82 13.14
12/15/2021 12:15:00 PM -99999.99 -179968 -99999.99 -99999.99 -99999.99 -99999.99
12/15/2021 12:30:00 PM -99999.99 -179968 -99999.99 -99999.99 -99999.99 -99999.99
12/15/2021 12:45:00 PM 3.8 38.84 0.058 6.69 5.05 13.06
12/15/2021 1:00:00 PM 3.82 38.876 0.058 6.63 4.8 13.01
12/15/2021 1:15:00 PM 3.84 38.912 0.058 6.62 5.45 12.95
12/15/2021 1:30:00 PM 3.86 38.948 0.058 6.63 5.26 12.95
12/15/2021 1:45:00 PM 3.9 39.02 0.058 6.61 5.18 12.96
12/15/2021 2:00:00 PM 3.94 39.092 0.058 6.63 5.13 12.92
12/15/2021 2:15:00 PM 3.97 39.146 0.058 6.63 5.21 12.91
12/15/2021 2:30:00 PM 4.01 39.218 0.058 6.62 5.17 12.91
12/15/2021 2:45:00 PM 4.05 39.29 0.058 6.64 5.21 12.89
12/15/2021 3:00:00 PM 4.09 39.362 0.058 6.65 5.1 12.87
12/15/2021 3:15:00 PM 4.12 39.416 0.058 6.61 4.97 12.81
12/15/2021 3:30:00 PM 4.15 39.47 0.058 6.61 5.05 12.79
12/15/2021 3:45:00 PM 4.18 39.524 0.058 6.61 5.22 12.75
12/15/2021 4:00:00 PM 4.21 39.578 0.058 6.58 5.24 12.73
12/15/2021 4:15:00 PM 4.24 39.632 0.058 6.58 5.29 12.7
12/15/2021 4:30:00 PM 4.26 39.668 0.058 6.6 5.27 12.68
12/15/2021 4:45:00 PM 4.29 39.722 0.058 6.57 5.23 12.65
12/15/2021 5:00:00 PM 4.31 39.758 0.058 6.55 5.66 12.64
12/15/2021 5:15:00 PM 4.34 39.812 0.058 6.57 5.39 12.62
12/15/2021 5:30:00 PM -99999.99 -179968 -99999.99 -99999.99 -99999.99 -99999.99
12/15/2021 5:45:00 PM -99999.99 -179968 -99999.99 -99999.99 -99999.99 -99999.99
12/15/2021 6:00:00 PM -99999.99 -179968 -99999.99 -99999.99 -99999.99 -99999.99
12/15/2021 6:15:00 PM -99999.99 -179968 -99999.99 -99999.99 -99999.99 -99999.99
12/15/2021 6:30:00 PM -99999.99 -179968 -99999.99 -99999.99 -99999.99 -99999.99
12/15/2021 6:45:00 PM -99999.99 -179968 -99999.99 -99999.99 -99999.99 -99999.99
12/15/2021 7:00:00 PM -99999.99 -179968 -99999.99 -99999.99 -99999.99 -99999.99
12/15/2021 7:15:00 PM -99999.99 -179968 -99999.99 -99999.99 -99999.99 -99999.99
12/15/2021 7:30:00 PM -99999.99 -179968 -99999.99 -99999.99 -99999.99 -99999.99
12/15/2021 7:45:00 PM -99999.99 -179968 -99999.99 -99999.99 -99999.99 -99999.99
12/15/2021 8:00:00 PM -99999.99 -179968 -99999.99 -99999.99 -99999.99 -99999.99
12/15/2021 8:15:00 PM -99999.99 -179968 -99999.99 -99999.99 -99999.99 -99999.99
12/15/2021 8:30:00 PM -99999.99 -179968 -99999.99 -99999.99 -99999.99 -99999.99
12/15/2021 8:45:00 PM -99999.99 -179968 -99999.99 -99999.99 -99999.99 -99999.99
12/15/2021 9:00:00 PM -99999.99 -179968 -99999.99 -99999.99 -99999.99 -99999.99
12/15/2021 9:15:00 PM -99999.99 -179968 -99999.99 -99999.99 -99999.99 -99999.99
12/15/2021 9:30:00 PM -99999.99 -179968 -99999.99 -99999.99 -99999.99 -99999.99
12/15/2021 9:45:00 PM -99999.99 -179968 -99999.99 -99999.99 -99999.99 -99999.99
12/15/2021 10:00:00 PM -99999.99 -179968 -99999.99 -99999.99 -99999.99 -99999.99
12/15/2021 10:15:00 PM -99999.99 -179968 -99999.99 -99999.99 -99999.99 -99999.99
12/15/2021 10:30:00 PM -99999.99 -179968 -99999.99 -99999.99 -99999.99 -99999.99
12/15/2021 10:45:00 PM -99999.99 -179968 -99999.99 -99999.99 -99999.99 -99999.99
12/15/2021 11:00:00 PM -99999.99 -179968 -99999.99 -99999.99 -99999.99 -99999.99
12/15/2021 11:15:00 PM -99999.99 -179968 -99999.99 -99999.99 -99999.99 -99999.99
12/15/2021 11:30:00 PM -99999.99 -179968 -99999.99 -99999.99 -99999.99 -99999.99
12/15/2021 11:45:00 PM -99999.99 -179968 -99999.99 -99999.99 -99999.99 -99999.99
12/16/2021 12:00:00 AM -99999.99 -179968 -99999.99 -99999.99 -99999.99 -99999.99
12/16/2021 12:15:00 AM -99999.99 -179968 -99999.99 -99999.99 -99999.99 -99999.99
12/16/2021 12:30:00 AM -99999.99 -179968 -99999.99 -99999.99 -99999.99 -99999.99
12/16/2021 12:45:00 AM -99999.99 -179968 -99999.99 -99999.99 -99999.99 -99999.99
12/16/2021 1:00:00 AM -99999.99 -179968 -99999.99 -99999.99 -99999.99 -99999.99
12/16/2021 1:15:00 AM -99999.99 -179968 -99999.99 -99999.99 -99999.99 -99999.99
12/16/2021 1:30:00 AM -99999.99 -179968 -99999.99 -99999.99 -99999.99 -99999.99
12/16/2021 1:45:00 AM -99999.99 -179968 -99999.99 -99999.99 -99999.99 -99999.99
12/16/2021 2:00:00 AM -99999.99 -179968 -99999.99 -99999.99 -99999.99 -99999.99
12/16/2021 2:15:00 AM -99999.99 -179968 -99999.99 -99999.99 -99999.99 -99999.99
12/16/2021 2:30:00 AM -99999.99 -179968 -99999.99 -99999.99 -99999.99 -99999.99
12/16/2021 2:45:00 AM -99999.99 -179968 -99999.99 -99999.99 -99999.99 -99999.99
12/16/2021 3:00:00 AM -99999.99 -179968 -99999.99 -99999.99 -99999.99 -99999.99
12/16/2021 3:15:00 AM -99999.99 -179968 -99999.99 -99999.99 -99999.99 -99999.99
12/16/2021 3:30:00 AM -99999.99 -179968 -99999.99 -99999.99 -99999.99 -99999.99
12/16/2021 3:45:00 AM -99999.99 -179968 -99999.99 -99999.99 -99999.99 -99999.99
12/16/2021 4:00:00 AM -99999.99 -179968 -99999.99 -99999.99 -99999.99 -99999.99
12/16/2021 4:15:00 AM -99999.99 -179968 -99999.99 -99999.99 -99999.99 -99999.99
12/16/2021 4:30:00 AM -99999.99 -179968 -99999.99 -99999.99 -99999.99 -99999.99
12/16/2021 4:45:00 AM -99999.99 -179968 -99999.99 -99999.99 -99999.99 -99999.99
12/16/2021 5:00:00 AM -99999.99 -179968 -99999.99 -99999.99 -99999.99 -99999.99
12/16/2021 5:15:00 AM -99999.99 -179968 -99999.99 -99999.99 -99999.99 -99999.99
12/16/2021 5:30:00 AM -99999.99 -179968 -99999.99 -99999.99 -99999.99 -99999.99
12/16/2021 5:45:00 AM -99999.99 -179968 -99999.99 -99999.99 -99999.99 -99999.99
12/16/2021 6:00:00 AM -99999.99 -179968 -99999.99 -99999.99 -99999.99 -99999.99
12/16/2021 6:15:00 AM -99999.99 -179968 -99999.99 -99999.99 -99999.99 -99999.99
12/16/2021 6:30:00 AM -99999.99 -179968 -99999.99 -99999.99 -99999.99 -99999.99
12/16/2021 6:45:00 AM -99999.99 -179968 -99999.99 -99999.99 -99999.99 -99999.99
12/16/2021 7:00:00 AM -99999.99 -179968 -99999.99 -99999.99 -99999.99 -99999.99
12/16/2021 7:15:00 AM -99999.99 -179968 -99999.99 -99999.99 -99999.99 -99999.99
12/16/2021 7:30:00 AM -99999.99 -179968 -99999.99 -99999.99 -99999.99 -99999.99
12/16/2021 7:45:00 AM -99999.99 -179968 -99999.99 -99999.99 -99999.99 -99999.99
12/16/2021 8:00:00 AM -99999.99 -179968 -99999.99 -99999.99 -99999.99 -99999.99
12/16/2021 8:15:00 AM -99999.99 -179968 -99999.99 -99999.99 -99999.99 -99999.99
12/16/2021 8:30:00 AM -99999.99 -179968 -99999.99 -99999.99 -99999.99 -99999.99
12/16/2021 8:45:00 AM -99999.99 -179968 -99999.99 -99999.99 -99999.99 -99999.99
12/16/2021 9:00:00 AM -99999.99 -179968 -99999.99 -99999.99 -99999.99 -99999.99
12/16/2021 9:15:00 AM -99999.99 -179968 -99999.99 -99999.99 -99999.99 -99999.99
12/16/2021 9:30:00 AM -99999.99 -179968 -99999.99 -99999.99 -99999.99 -99999.99
12/16/2021 9:45:00 AM -99999.99 -179968 -99999.99 -99999.99 -99999.99 -99999.99
12/16/2021 10:00:00 AM -99999.99 -179968 -99999.99 -99999.99 -99999.99 -99999.99
12/16/2021 10:15:00 AM -99999.99 -179968 -99999.99 -99999.99 -99999.99 -99999.99
12/16/2021 10:30:00 AM -99999.99 -179968 -99999.99 -99999.99 -99999.99 -99999.99
12/16/2021 10:45:00 AM -99999.99 -179968 -99999.99 -99999.99 -99999.99 -99999.99
12/16/2021 11:00:00 AM -99999.99 -179968 -99999.99 -99999.99 -99999.99 -99999.99
12/16/2021 11:15:00 AM 5.75 42.35 0.058 6.76 5.65 12.22
12/16/2021 11:30:00 AM 5.88 42.584 0.057 6.75 5.8 12.25
12/16/2021 11:45:00 AM 6.04 42.872 0.057 6.77 5.56 12.22
12/16/2021 12:00:00 PM 6.13 43.034 0.057 6.78 5.55 12.17
12/16/2021 12:15:00 PM 6.21 43.178 0.057 6.77 5.76 12.12
12/16/2021 12:30:00 PM 6.28 43.304 0.057 6.77 5.65 12.11
12/16/2021 12:45:00 PM 6.35 43.43 0.057 6.78 5.32 12.08
12/16/2021 1:00:00 PM 6.43 43.574 0.057 6.78 6.03 12.05
12/16/2021 1:15:00 PM 6.5 43.7 0.057 6.77 6.01 12.01
12/16/2021 1:30:00 PM 6.55 43.79 0.057 6.78 5.84 11.98
12/16/2021 1:45:00 PM 6.61 43.898 0.057 6.78 6.28 11.96
12/16/2021 2:00:00 PM 6.68 44.024 0.057 6.78 6.08 11.93
12/16/2021 2:15:00 PM 6.74 44.132 0.057 6.77 5.71 11.87
12/16/2021 2:30:00 PM 6.78 44.204 0.058 6.76 5.77 11.84
12/16/2021 2:45:00 PM 6.82 44.276 0.058 6.73 5.78 11.81
12/16/2021 3:00:00 PM 6.85 44.33 0.058 6.74 6.42 11.77
12/16/2021 3:15:00 PM 6.89 44.402 0.058 6.72 6.36 11.74
12/16/2021 3:30:00 PM 6.92 44.456 0.058 6.71 5.98 11.73
12/16/2021 3:45:00 PM 6.95 44.51 0.058 6.7 5.98 11.68
12/16/2021 4:00:00 PM 6.97 44.546 0.058 6.7 6.53 11.65
12/16/2021 4:15:00 PM 6.98 44.564 0.058 6.68 6.21 11.61
12/16/2021 4:30:00 PM 7 44.6 0.058 6.67 6.58 11.59
12/16/2021 4:45:00 PM 7.04 44.672 0.058 6.68 6.59 11.57
12/16/2021 5:00:00 PM 7.09 44.762 0.058 6.67 6.67 11.54
12/16/2021 5:15:00 PM -99999.99 -179968 -99999.99 -99999.99 -99999.99 -99999.99
12/16/2021 5:30:00 PM -99999.99 -179968 -99999.99 -99999.99 -99999.99 -99999.99
12/16/2021 5:45:00 PM -99999.99 -179968 -99999.99 -99999.99 -99999.99 -99999.99
12/16/2021 6:00:00 PM -99999.99 -179968 -99999.99 -99999.99 -99999.99 -99999.99
12/16/2021 6:15:00 PM -99999.99 -179968 -99999.99 -99999.99 -99999.99 -99999.99
12/16/2021 6:30:00 PM -99999.99 -179968 -99999.99 -99999.99 -99999.99 -99999.99
12/16/2021 6:45:00 PM -99999.99 -179968 -99999.99 -99999.99 -99999.99 -99999.99
12/16/2021 7:00:00 PM -99999.99 -179968 -99999.99 -99999.99 -99999.99 -99999.99
12/16/2021 7:15:00 PM -99999.99 -179968 -99999.99 -99999.99 -99999.99 -99999.99
12/16/2021 7:30:00 PM -99999.99 -179968 -99999.99 -99999.99 -99999.99 -99999.99
12/16/2021 7:45:00 PM -99999.99 -179968 -99999.99 -99999.99 -99999.99 -99999.99
12/16/2021 8:00:00 PM -99999.99 -179968 -99999.99 -99999.99 -99999.99 -99999.99
12/16/2021 8:15:00 PM -99999.99 -179968 -99999.99 -99999.99 -99999.99 -99999.99
12/16/2021 8:30:00 PM -99999.99 -179968 -99999.99 -99999.99 -99999.99 -99999.99
12/16/2021 8:45:00 PM -99999.99 -179968 -99999.99 -99999.99 -99999.99 -99999.99
12/16/2021 9:00:00 PM -99999.99 -179968 -99999.99 -99999.99 -99999.99 -99999.99
12/16/2021 9:15:00 PM -99999.99 -179968 -99999.99 -99999.99 -99999.99 -99999.99
12/16/2021 9:30:00 PM -99999.99 -179968 -99999.99 -99999.99 -99999.99 -99999.99
12/16/2021 9:45:00 PM -99999.99 -179968 -99999.99 -99999.99 -99999.99 -99999.99
12/16/2021 10:00:00 PM -99999.99 -179968 -99999.99 -99999.99 -99999.99 -99999.99
12/16/2021 10:15:00 PM -99999.99 -179968 -99999.99 -99999.99 -99999.99 -99999.99
12/16/2021 10:30:00 PM -99999.99 -179968 -99999.99 -99999.99 -99999.99 -99999.99
12/16/2021 10:45:00 PM -99999.99 -179968 -99999.99 -99999.99 -99999.99 -99999.99
12/16/2021 11:00:00 PM -99999.99 -179968 -99999.99 -99999.99 -99999.99 -99999.99
12/16/2021 11:15:00 PM -99999.99 -179968 -99999.99 -99999.99 -99999.99 -99999.99
12/16/2021 11:30:00 PM -99999.99 -179968 -99999.99 -99999.99 -99999.99 -99999.99
12/16/2021 11:45:00 PM -99999.99 -179968 -99999.99 -99999.99 -99999.99 -99999.99
12/17/2021 12:00:00 AM -99999.99 -179968 -99999.99 -99999.99 -99999.99 -99999.99
12/17/2021 12:15:00 AM -99999.99 -179968 -99999.99 -99999.99 -99999.99 -99999.99
12/17/2021 12:30:00 AM -99999.99 -179968 -99999.99 -99999.99 -99999.99 -99999.99
12/17/2021 12:45:00 AM -99999.99 -179968 -99999.99 -99999.99 -99999.99 -99999.99
12/17/2021 1:00:00 AM -99999.99 -179968 -99999.99 -99999.99 -99999.99 -99999.99
12/17/2021 1:15:00 AM -99999.99 -179968 -99999.99 -99999.99 -99999.99 -99999.99
12/17/2021 1:30:00 AM -99999.99 -179968 -99999.99 -99999.99 -99999.99 -99999.99
12/17/2021 1:45:00 AM -99999.99 -179968 -99999.99 -99999.99 -99999.99 -99999.99
12/17/2021 2:00:00 AM -99999.99 -179968 -99999.99 -99999.99 -99999.99 -99999.99
12/17/2021 2:15:00 AM -99999.99 -179968 -99999.99 -99999.99 -99999.99 -99999.99
12/17/2021 2:30:00 AM -99999.99 -179968 -99999.99 -99999.99 -99999.99 -99999.99
12/17/2021 2:45:00 AM -99999.99 -179968 -99999.99 -99999.99 -99999.99 -99999.99
12/17/2021 3:00:00 AM -99999.99 -179968 -99999.99 -99999.99 -99999.99 -99999.99
12/17/2021 3:15:00 AM -99999.99 -179968 -99999.99 -99999.99 -99999.99 -99999.99
12/17/2021 3:30:00 AM -99999.99 -179968 -99999.99 -99999.99 -99999.99 -99999.99
12/17/2021 3:45:00 AM -99999.99 -179968 -99999.99 -99999.99 -99999.99 -99999.99
12/17/2021 4:00:00 AM -99999.99 -179968 -99999.99 -99999.99 -99999.99 -99999.99
12/17/2021 4:15:00 AM -99999.99 -179968 -99999.99 -99999.99 -99999.99 -99999.99
12/17/2021 4:30:00 AM -99999.99 -179968 -99999.99 -99999.99 -99999.99 -99999.99
12/17/2021 4:45:00 AM -99999.99 -179968 -99999.99 -99999.99 -99999.99 -99999.99
12/17/2021 5:00:00 AM -99999.99 -179968 -99999.99 -99999.99 -99999.99 -99999.99
12/17/2021 5:15:00 AM -99999.99 -179968 -99999.99 -99999.99 -99999.99 -99999.99
12/17/2021 5:30:00 AM -99999.99 -179968 -99999.99 -99999.99 -99999.99 -99999.99
12/17/2021 5:45:00 AM -99999.99 -179968 -99999.99 -99999.99 -99999.99 -99999.99
12/17/2021 6:00:00 AM -99999.99 -179968 -99999.99 -99999.99 -99999.99 -99999.99
12/17/2021 6:15:00 AM -99999.99 -179968 -99999.99 -99999.99 -99999.99 -99999.99
12/17/2021 6:30:00 AM -99999.99 -179968 -99999.99 -99999.99 -99999.99 -99999.99
12/17/2021 6:45:00 AM -99999.99 -179968 -99999.99 -99999.99 -99999.99 -99999.99
12/17/2021 7:00:00 AM -99999.99 -179968 -99999.99 -99999.99 -99999.99 -99999.99
12/17/2021 7:15:00 AM -99999.99 -179968 -99999.99 -99999.99 -99999.99 -99999.99
12/17/2021 7:30:00 AM -99999.99 -179968 -99999.99 -99999.99 -99999.99 -99999.99
12/17/2021 7:45:00 AM -99999.99 -179968 -99999.99 -99999.99 -99999.99 -99999.99
12/17/2021 8:00:00 AM -99999.99 -179968 -99999.99 -99999.99 -99999.99 -99999.99
12/17/2021 8:15:00 AM -99999.99 -179968 -99999.99 -99999.99 -99999.99 -99999.99
12/17/2021 8:30:00 AM -99999.99 -179968 -99999.99 -99999.99 -99999.99 -99999.99
12/17/2021 8:45:00 AM -99999.99 -179968 -99999.99 -99999.99 -99999.99 -99999.99
12/17/2021 9:00:00 AM -99999.99 -179968 -99999.99 -99999.99 -99999.99 -99999.99
12/17/2021 9:15:00 AM -99999.99 -179968 -99999.99 -99999.99 -99999.99 -99999.99
12/17/2021 9:30:00 AM -99999.99 -179968 -99999.99 -99999.99 -99999.99 -99999.99
12/17/2021 9:45:00 AM -99999.99 -179968 -99999.99 -99999.99 -99999.99 -99999.99
12/17/2021 10:00:00 AM -99999.99 -179968 -99999.99 -99999.99 -99999.99 -99999.99
12/17/2021 10:15:00 AM -99999.99 -179968 -99999.99 -99999.99 -99999.99 -99999.99
12/17/2021 10:30:00 AM -99999.99 -179968 -99999.99 -99999.99 -99999.99 -99999.99
12/17/2021 10:45:00 AM -99999.99 -179968 -99999.99 -99999.99 -99999.99 -99999.99
12/17/2021 11:00:00 AM -99999.99 -179968 -99999.99 -99999.99 -99999.99 -99999.99
12/17/2021 11:15:00 AM -99999.99 -179968 -99999.99 -99999.99 -99999.99 -99999.99
12/17/2021 11:30:00 AM -99999.99 -179968 -99999.99 -99999.99 -99999.99 -99999.99
12/17/2021 11:45:00 AM -99999.99 -179968 -99999.99 -99999.99 -99999.99 -99999.99
12/17/2021 12:00:00 PM -99999.99 -179968 -99999.99 -99999.99 -99999.99 -99999.99
12/17/2021 12:15:00 PM -99999.99 -179968 -99999.99 -99999.99 -99999.99 -99999.99
12/17/2021 12:30:00 PM -99999.99 -179968 -99999.99 -99999.99 -99999.99 -99999.99
12/17/2021 12:45:00 PM -99999.99 -179968 -99999.99 -99999.99 -99999.99 -99999.99
12/17/2021 1:00:00 PM -99999.99 -179968 -99999.99 -99999.99 -99999.99 -99999.99
12/17/2021 1:15:00 PM -99999.99 -179968 -99999.99 -99999.99 -99999.99 -99999.99
12/17/2021 1:30:00 PM -99999.99 -179968 -99999.99 -99999.99 -99999.99 -99999.99
12/17/2021 1:45:00 PM -99999.99 -179968 -99999.99 -99999.99 -99999.99 -99999.99
12/17/2021 2:00:00 PM -99999.99 -179968 -99999.99 -99999.99 -99999.99 -99999.99
12/17/2021 2:15:00 PM -99999.99 -179968 -99999.99 -99999.99 -99999.99 -99999.99
12/17/2021 2:30:00 PM -99999.99 -179968 -99999.99 -99999.99 -99999.99 -99999.99
12/17/2021 2:45:00 PM -99999.99 -179968 -99999.99 -99999.99 -99999.99 -99999.99
12/17/2021 3:00:00 PM -99999.99 -179968 -99999.99 -99999.99 -99999.99 -99999.99
12/17/2021 3:15:00 PM -99999.99 -179968 -99999.99 -99999.99 -99999.99 -99999.99
12/17/2021 3:30:00 PM -99999.99 -179968 -99999.99 -99999.99 -99999.99 -99999.99
12/17/2021 3:45:00 PM -99999.99 -179968 -99999.99 -99999.99 -99999.99 -99999.99
12/17/2021 4:00:00 PM -99999.99 -179968 -99999.99 -99999.99 -99999.99 -99999.99
12/17/2021 4:15:00 PM -99999.99 -179968 -99999.99 -99999.99 -99999.99 -99999.99
12/17/2021 4:30:00 PM -99999.99 -179968 -99999.99 -99999.99 -99999.99 -99999.99
12/17/2021 4:45:00 PM -99999.99 -179968 -99999.99 -99999.99 -99999.99 -99999.99
12/17/2021 5:00:00 PM -99999.99 -179968 -99999.99 -99999.99 -99999.99 -99999.99
12/17/2021 5:15:00 PM -99999.99 -179968 -99999.99 -99999.99 -99999.99 -99999.99
12/17/2021 5:30:00 PM -99999.99 -179968 -99999.99 -99999.99 -99999.99 -99999.99
12/17/2021 5:45:00 PM -99999.99 -179968 -99999.99 -99999.99 -99999.99 -99999.99
12/17/2021 6:00:00 PM -99999.99 -179968 -99999.99 -99999.99 -99999.99 -99999.99
12/17/2021 6:15:00 PM -99999.99 -179968 -99999.99 -99999.99 -99999.99 -99999.99
12/17/2021 6:30:00 PM -99999.99 -179968 -99999.99 -99999.99 -99999.99 -99999.99
12/17/2021 6:45:00 PM -99999.99 -179968 -99999.99 -99999.99 -99999.99 -99999.99
12/17/2021 7:00:00 PM -99999.99 -179968 -99999.99 -99999.99 -99999.99 -99999.99
12/17/2021 7:15:00 PM -99999.99 -179968 -99999.99 -99999.99 -99999.99 -99999.99
12/17/2021 7:30:00 PM -99999.99 -179968 -99999.99 -99999.99 -99999.99 -99999.99
12/17/2021 7:45:00 PM -99999.99 -179968 -99999.99 -99999.99 -99999.99 -99999.99
12/17/2021 8:00:00 PM -99999.99 -179968 -99999.99 -99999.99 -99999.99 -99999.99
12/17/2021 8:15:00 PM -99999.99 -179968 -99999.99 -99999.99 -99999.99 -99999.99
12/17/2021 8:30:00 PM -99999.99 -179968 -99999.99 -99999.99 -99999.99 -99999.99
12/17/2021 8:45:00 PM -99999.99 -179968 -99999.99 -99999.99 -99999.99 -99999.99
12/17/2021 9:00:00 PM -99999.99 -179968 -99999.99 -99999.99 -99999.99 -99999.99
12/17/2021 9:15:00 PM -99999.99 -179968 -99999.99 -99999.99 -99999.99 -99999.99
12/17/2021 9:30:00 PM -99999.99 -179968 -99999.99 -99999.99 -99999.99 -99999.99
12/17/2021 9:45:00 PM -99999.99 -179968 -99999.99 -99999.99 -99999.99 -99999.99
12/17/2021 10:00:00 PM -99999.99 -179968 -99999.99 -99999.99 -99999.99 -99999.99
12/17/2021 10:15:00 PM -99999.99 -179968 -99999.99 -99999.99 -99999.99 -99999.99
12/17/2021 10:30:00 PM -99999.99 -179968 -99999.99 -99999.99 -99999.99 -99999.99
12/17/2021 10:45:00 PM -99999.99 -179968 -99999.99 -99999.99 -99999.99 -99999.99
12/17/2021 11:00:00 PM -99999.99 -179968 -99999.99 -99999.99 -99999.99 -99999.99
12/17/2021 11:15:00 PM -99999.99 -179968 -99999.99 -99999.99 -99999.99 -99999.99
12/17/2021 11:30:00 PM -99999.99 -179968 -99999.99 -99999.99 -99999.99 -99999.99
12/17/2021 11:45:00 PM -99999.99 -179968 -99999.99 -99999.99 -99999.99 -99999.99
12/18/2021 12:00:00 AM -99999.99 -179968 -99999.99 -99999.99 -99999.99 -99999.99
12/18/2021 12:15:00 AM -99999.99 -179968 -99999.99 -99999.99 -99999.99 -99999.99
12/18/2021 12:30:00 AM -99999.99 -179968 -99999.99 -99999.99 -99999.99 -99999.99
12/18/2021 12:45:00 AM -99999.99 -179968 -99999.99 -99999.99 -99999.99 -99999.99
12/18/2021 1:00:00 AM -99999.99 -179968 -99999.99 -99999.99 -99999.99 -99999.99
12/18/2021 1:15:00 AM -99999.99 -179968 -99999.99 -99999.99 -99999.99 -99999.99
12/18/2021 1:30:00 AM -99999.99 -179968 -99999.99 -99999.99 -99999.99 -99999.99
12/18/2021 1:45:00 AM -99999.99 -179968 -99999.99 -99999.99 -99999.99 -99999.99
12/18/2021 2:00:00 AM -99999.99 -179968 -99999.99 -99999.99 -99999.99 -99999.99
12/18/2021 2:15:00 AM -99999.99 -179968 -99999.99 -99999.99 -99999.99 -99999.99
12/18/2021 2:30:00 AM -99999.99 -179968 -99999.99 -99999.99 -99999.99 -99999.99
12/18/2021 2:45:00 AM -99999.99 -179968 -99999.99 -99999.99 -99999.99 -99999.99
12/18/2021 3:00:00 AM -99999.99 -179968 -99999.99 -99999.99 -99999.99 -99999.99
12/18/2021 3:15:00 AM -99999.99 -179968 -99999.99 -99999.99 -99999.99 -99999.99
12/18/2021 3:30:00 AM -99999.99 -179968 -99999.99 -99999.99 -99999.99 -99999.99
12/18/2021 3:45:00 AM -99999.99 -179968 -99999.99 -99999.99 -99999.99 -99999.99
12/18/2021 4:00:00 AM -99999.99 -179968 -99999.99 -99999.99 -99999.99 -99999.99
12/18/2021 4:15:00 AM -99999.99 -179968 -99999.99 -99999.99 -99999.99 -99999.99
12/18/2021 4:30:00 AM -99999.99 -179968 -99999.99 -99999.99 -99999.99 -99999.99
12/18/2021 4:45:00 AM -99999.99 -179968 -99999.99 -99999.99 -99999.99 -99999.99
12/18/2021 5:00:00 AM -99999.99 -179968 -99999.99 -99999.99 -99999.99 -99999.99
12/18/2021 5:15:00 AM -99999.99 -179968 -99999.99 -99999.99 -99999.99 -99999.99
12/18/2021 5:30:00 AM -99999.99 -179968 -99999.99 -99999.99 -99999.99 -99999.99
12/18/2021 5:45:00 AM -99999.99 -179968 -99999.99 -99999.99 -99999.99 -99999.99
12/18/2021 6:00:00 AM -99999.99 -179968 -99999.99 -99999.99 -99999.99 -99999.99
12/18/2021 6:15:00 AM -99999.99 -179968 -99999.99 -99999.99 -99999.99 -99999.99
12/18/2021 6:30:00 AM -99999.99 -179968 -99999.99 -99999.99 -99999.99 -99999.99
12/18/2021 6:45:00 AM -99999.99 -179968 -99999.99 -99999.99 -99999.99 -99999.99
12/18/2021 7:00:00 AM -99999.99 -179968 -99999.99 -99999.99 -99999.99 -99999.99
12/18/2021 7:15:00 AM -99999.99 -179968 -99999.99 -99999.99 -99999.99 -99999.99
12/18/2021 7:30:00 AM -99999.99 -179968 -99999.99 -99999.99 -99999.99 -99999.99
12/18/2021 7:45:00 AM -99999.99 -179968 -99999.99 -99999.99 -99999.99 -99999.99
12/18/2021 8:00:00 AM -99999.99 -179968 -99999.99 -99999.99 -99999.99 -99999.99
12/18/2021 8:15:00 AM -99999.99 -179968 -99999.99 -99999.99 -99999.99 -99999.99
12/18/2021 8:30:00 AM -99999.99 -179968 -99999.99 -99999.99 -99999.99 -99999.99
12/18/2021 8:45:00 AM -99999.99 -179968 -99999.99 -99999.99 -99999.99 -99999.99
12/18/2021 9:00:00 AM -99999.99 -179968 -99999.99 -99999.99 -99999.99 -99999.99
12/18/2021 9:15:00 AM -99999.99 -179968 -99999.99 -99999.99 -99999.99 -99999.99
12/18/2021 9:30:00 AM -99999.99 -179968 -99999.99 -99999.99 -99999.99 -99999.99
12/18/2021 9:45:00 AM -99999.99 -179968 -99999.99 -99999.99 -99999.99 -99999.99
12/18/2021 10:00:00 AM -99999.99 -179968 -99999.99 -99999.99 -99999.99 -99999.99
12/18/2021 10:15:00 AM -99999.99 -179968 -99999.99 -99999.99 -99999.99 -99999.99
12/18/2021 10:30:00 AM -99999.99 -179968 -99999.99 -99999.99 -99999.99 -99999.99
12/18/2021 10:45:00 AM -99999.99 -179968 -99999.99 -99999.99 -99999.99 -99999.99
12/18/2021 11:00:00 AM -99999.99 -179968 -99999.99 -99999.99 -99999.99 -99999.99
12/18/2021 11:15:00 AM -99999.99 -179968 -99999.99 -99999.99 -99999.99 -99999.99
12/18/2021 11:30:00 AM -99999.99 -179968 -99999.99 -99999.99 -99999.99 -99999.99
12/18/2021 11:45:00 AM -99999.99 -179968 -99999.99 -99999.99 -99999.99 -99999.99
12/18/2021 12:00:00 PM -99999.99 -179968 -99999.99 -99999.99 -99999.99 -99999.99
12/18/2021 12:15:00 PM -99999.99 -179968 -99999.99 -99999.99 -99999.99 -99999.99
12/18/2021 12:30:00 PM -99999.99 -179968 -99999.99 -99999.99 -99999.99 -99999.99
12/18/2021 12:45:00 PM -99999.99 -179968 -99999.99 -99999.99 -99999.99 -99999.99
12/18/2021 1:00:00 PM -99999.99 -179968 -99999.99 -99999.99 -99999.99 -99999.99
12/18/2021 1:15:00 PM -99999.99 -179968 -99999.99 -99999.99 -99999.99 -99999.99
12/18/2021 1:30:00 PM -99999.99 -179968 -99999.99 -99999.99 -99999.99 -99999.99
12/18/2021 1:45:00 PM -99999.99 -179968 -99999.99 -99999.99 -99999.99 -99999.99
12/18/2021 2:00:00 PM -99999.99 -179968 -99999.99 -99999.99 -99999.99 -99999.99
12/18/2021 2:15:00 PM -99999.99 -179968 -99999.99 -99999.99 -99999.99 -99999.99
12/18/2021 2:30:00 PM -99999.99 -179968 -99999.99 -99999.99 -99999.99 -99999.99
12/18/2021 2:45:00 PM -99999.99 -179968 -99999.99 -99999.99 -99999.99 -99999.99
12/18/2021 3:00:00 PM -99999.99 -179968 -99999.99 -99999.99 -99999.99 -99999.99
12/18/2021 3:15:00 PM -99999.99 -179968 -99999.99 -99999.99 -99999.99 -99999.99
12/18/2021 3:30:00 PM -99999.99 -179968 -99999.99 -99999.99 -99999.99 -99999.99
12/18/2021 3:45:00 PM -99999.99 -179968 -99999.99 -99999.99 -99999.99 -99999.99
12/18/2021 4:00:00 PM -99999.99 -179968 -99999.99 -99999.99 -99999.99 -99999.99
12/18/2021 4:15:00 PM -99999.99 -179968 -99999.99 -99999.99 -99999.99 -99999.99
12/18/2021 4:30:00 PM -99999.99 -179968 -99999.99 -99999.99 -99999.99 -99999.99
12/18/2021 4:45:00 PM -99999.99 -179968 -99999.99 -99999.99 -99999.99 -99999.99
12/18/2021 5:00:00 PM -99999.99 -179968 -99999.99 -99999.99 -99999.99 -99999.99
12/18/2021 5:15:00 PM -99999.99 -179968 -99999.99 -99999.99 -99999.99 -99999.99
12/18/2021 5:30:00 PM -99999.99 -179968 -99999.99 -99999.99 -99999.99 -99999.99
12/18/2021 5:45:00 PM -99999.99 -179968 -99999.99 -99999.99 -99999.99 -99999.99
12/18/2021 6:00:00 PM -99999.99 -179968 -99999.99 -99999.99 -99999.99 -99999.99
12/18/2021 6:15:00 PM -99999.99 -179968 -99999.99 -99999.99 -99999.99 -99999.99
12/18/2021 6:30:00 PM -99999.99 -179968 -99999.99 -99999.99 -99999.99 -99999.99
12/18/2021 6:45:00 PM -99999.99 -179968 -99999.99 -99999.99 -99999.99 -99999.99
12/18/2021 7:00:00 PM -99999.99 -179968 -99999.99 -99999.99 -99999.99 -99999.99
12/18/2021 7:15:00 PM -99999.99 -179968 -99999.99 -99999.99 -99999.99 -99999.99
12/18/2021 7:30:00 PM -99999.99 -179968 -99999.99 -99999.99 -99999.99 -99999.99
12/18/2021 7:45:00 PM -99999.99 -179968 -99999.99 -99999.99 -99999.99 -99999.99
12/18/2021 8:00:00 PM -99999.99 -179968 -99999.99 -99999.99 -99999.99 -99999.99
12/18/2021 8:15:00 PM -99999.99 -179968 -99999.99 -99999.99 -99999.99 -99999.99
12/18/2021 8:30:00 PM -99999.99 -179968 -99999.99 -99999.99 -99999.99 -99999.99
12/18/2021 8:45:00 PM -99999.99 -179968 -99999.99 -99999.99 -99999.99 -99999.99
12/18/2021 9:00:00 PM -99999.99 -179968 -99999.99 -99999.99 -99999.99 -99999.99
12/18/2021 9:15:00 PM -99999.99 -179968 -99999.99 -99999.99 -99999.99 -99999.99
12/18/2021 9:30:00 PM -99999.99 -179968 -99999.99 -99999.99 -99999.99 -99999.99
12/18/2021 9:45:00 PM -99999.99 -179968 -99999.99 -99999.99 -99999.99 -99999.99
12/18/2021 10:00:00 PM -99999.99 -179968 -99999.99 -99999.99 -99999.99 -99999.99
12/18/2021 10:15:00 PM -99999.99 -179968 -99999.99 -99999.99 -99999.99 -99999.99
12/18/2021 10:30:00 PM -99999.99 -179968 -99999.99 -99999.99 -99999.99 -99999.99
12/18/2021 10:45:00 PM -99999.99 -179968 -99999.99 -99999.99 -99999.99 -99999.99
12/18/2021 11:00:00 PM -99999.99 -179968 -99999.99 -99999.99 -99999.99 -99999.99
12/18/2021 11:15:00 PM -99999.99 -179968 -99999.99 -99999.99 -99999.99 -99999.99
12/18/2021 11:30:00 PM -99999.99 -179968 -99999.99 -99999.99 -99999.99 -99999.99
12/18/2021 11:45:00 PM -99999.99 -179968 -99999.99 -99999.99 -99999.99 -99999.99
12/19/2021 12:00:00 AM -99999.99 -179968 -99999.99 -99999.99 -99999.99 -99999.99
12/19/2021 12:15:00 AM -99999.99 -179968 -99999.99 -99999.99 -99999.99 -99999.99
12/19/2021 12:30:00 AM -99999.99 -179968 -99999.99 -99999.99 -99999.99 -99999.99
12/19/2021 12:45:00 AM -99999.99 -179968 -99999.99 -99999.99 -99999.99 -99999.99
12/19/2021 1:00:00 AM -99999.99 -179968 -99999.99 -99999.99 -99999.99 -99999.99
12/19/2021 1:15:00 AM -99999.99 -179968 -99999.99 -99999.99 -99999.99 -99999.99
12/19/2021 1:30:00 AM -99999.99 -179968 -99999.99 -99999.99 -99999.99 -99999.99
12/19/2021 1:45:00 AM -99999.99 -179968 -99999.99 -99999.99 -99999.99 -99999.99
12/19/2021 2:00:00 AM -99999.99 -179968 -99999.99 -99999.99 -99999.99 -99999.99
12/19/2021 2:15:00 AM -99999.99 -179968 -99999.99 -99999.99 -99999.99 -99999.99
12/19/2021 2:30:00 AM -99999.99 -179968 -99999.99 -99999.99 -99999.99 -99999.99
12/19/2021 2:45:00 AM -99999.99 -179968 -99999.99 -99999.99 -99999.99 -99999.99
12/19/2021 3:00:00 AM -99999.99 -179968 -99999.99 -99999.99 -99999.99 -99999.99
12/19/2021 3:15:00 AM -99999.99 -179968 -99999.99 -99999.99 -99999.99 -99999.99
12/19/2021 3:30:00 AM -99999.99 -179968 -99999.99 -99999.99 -99999.99 -99999.99
12/19/2021 3:45:00 AM -99999.99 -179968 -99999.99 -99999.99 -99999.99 -99999.99
12/19/2021 4:00:00 AM -99999.99 -179968 -99999.99 -99999.99 -99999.99 -99999.99
12/19/2021 4:15:00 AM -99999.99 -179968 -99999.99 -99999.99 -99999.99 -99999.99
12/19/2021 4:30:00 AM -99999.99 -179968 -99999.99 -99999.99 -99999.99 -99999.99
12/19/2021 4:45:00 AM -99999.99 -179968 -99999.99 -99999.99 -99999.99 -99999.99
12/19/2021 5:00:00 AM -99999.99 -179968 -99999.99 -99999.99 -99999.99 -99999.99
12/19/2021 5:15:00 AM -99999.99 -179968 -99999.99 -99999.99 -99999.99 -99999.99
12/19/2021 5:30:00 AM -99999.99 -179968 -99999.99 -99999.99 -99999.99 -99999.99
12/19/2021 5:45:00 AM -99999.99 -179968 -99999.99 -99999.99 -99999.99 -99999.99
12/19/2021 6:00:00 AM -99999.99 -179968 -99999.99 -99999.99 -99999.99 -99999.99
12/19/2021 6:15:00 AM -99999.99 -179968 -99999.99 -99999.99 -99999.99 -99999.99
12/19/2021 6:30:00 AM -99999.99 -179968 -99999.99 -99999.99 -99999.99 -99999.99
12/19/2021 6:45:00 AM -99999.99 -179968 -99999.99 -99999.99 -99999.99 -99999.99
12/19/2021 7:00:00 AM -99999.99 -179968 -99999.99 -99999.99 -99999.99 -99999.99
12/19/2021 7:15:00 AM -99999.99 -179968 -99999.99 -99999.99 -99999.99 -99999.99
12/19/2021 7:30:00 AM -99999.99 -179968 -99999.99 -99999.99 -99999.99 -99999.99
12/19/2021 7:45:00 AM -99999.99 -179968 -99999.99 -99999.99 -99999.99 -99999.99
12/19/2021 8:00:00 AM -99999.99 -179968 -99999.99 -99999.99 -99999.99 -99999.99
12/19/2021 8:15:00 AM -99999.99 -179968 -99999.99 -99999.99 -99999.99 -99999.99
12/19/2021 8:30:00 AM -99999.99 -179968 -99999.99 -99999.99 -99999.99 -99999.99
12/19/2021 8:45:00 AM -99999.99 -179968 -99999.99 -99999.99 -99999.99 -99999.99
12/19/2021 9:00:00 AM -99999.99 -179968 -99999.99 -99999.99 -99999.99 -99999.99
12/19/2021 9:15:00 AM -99999.99 -179968 -99999.99 -99999.99 -99999.99 -99999.99
12/19/2021 9:30:00 AM -99999.99 -179968 -99999.99 -99999.99 -99999.99 -99999.99
12/19/2021 9:45:00 AM -99999.99 -179968 -99999.99 -99999.99 -99999.99 -99999.99
12/19/2021 10:00:00 AM -99999.99 -179968 -99999.99 -99999.99 -99999.99 -99999.99
12/19/2021 10:15:00 AM -99999.99 -179968 -99999.99 -99999.99 -99999.99 -99999.99
12/19/2021 10:30:00 AM 3.14 37.652 0.059 6.75 6.27 13.27
12/19/2021 10:45:00 AM 3.15 37.67 0.059 6.77 6.09 13.29
12/19/2021 11:00:00 AM 3.16 37.688 0.059 6.77 5.81 13.29
12/19/2021 11:15:00 AM 3.16 37.688 0.059 6.77 5.87 13.3
12/19/2021 11:30:00 AM 3.15 37.67 0.059 6.77 5.97 13.29
12/19/2021 11:45:00 AM 3.1 37.58 0.059 6.76 5.6 13.3
12/19/2021 12:00:00 PM 3.11 37.598 0.059 6.78 5.73 13.32
12/19/2021 12:15:00 PM 3.13 37.634 0.059 6.76 5.8 13.32
12/19/2021 12:30:00 PM 3.16 37.688 0.059 6.78 5.51 13.31
12/19/2021 12:45:00 PM 3.19 37.742 0.059 6.79 5.46 13.31
12/19/2021 1:00:00 PM 3.19 37.742 0.059 6.79 5.58 13.29
12/19/2021 1:15:00 PM 3.18 37.724 0.059 6.78 5.51 13.29
12/19/2021 1:30:00 PM 3.15 37.67 0.059 6.78 5.69 13.29
12/19/2021 1:45:00 PM 3.14 37.652 0.059 6.76 5.69 13.29
12/19/2021 2:00:00 PM 3.14 37.652 0.059 6.77 5.83 13.28
12/19/2021 2:15:00 PM 3.13 37.634 0.059 6.77 5.67 13.29
12/19/2021 2:30:00 PM 3.12 37.616 0.059 6.77 5.68 13.29
12/19/2021 2:45:00 PM 3.1 37.58 0.059 6.77 5.64 13.3
12/19/2021 3:00:00 PM 3.06 37.508 0.059 6.76 5.66 13.29
12/19/2021 3:15:00 PM 3.02 37.436 0.059 6.76 5.97 13.3
12/19/2021 3:30:00 PM 2.97 37.346 0.059 6.71 5.85 13.27
12/19/2021 3:45:00 PM 2.95 37.31 0.059 6.73 5.8 13.28
12/19/2021 4:00:00 PM 2.91 37.238 0.059 6.71 5.75 13.24
12/19/2021 4:15:00 PM 2.86 37.148 0.059 6.68 5.73 13.23
12/19/2021 4:30:00 PM 2.82 37.076 0.059 6.67 5.65 13.21
12/19/2021 4:45:00 PM 2.77 36.986 0.059 6.66 5.89 13.19
12/19/2021 5:00:00 PM 2.73 36.914 0.06 6.64 5.75 13.2
12/19/2021 5:15:00 PM 2.7 36.86 0.06 6.63 6 13.2
12/19/2021 5:30:00 PM 2.68 36.824 0.06 6.62 6.03 13.21
12/19/2021 5:45:00 PM 2.63 36.734 0.06 6.63 6.08 13.23
12/19/2021 6:00:00 PM 2.58 36.644 0.06 6.62 5.65 13.25
12/19/2021 6:15:00 PM 2.54 36.572 0.06 6.62 5.6 13.26
12/19/2021 6:30:00 PM -99999.99 -179968 -99999.99 -99999.99 -99999.99 -99999.99
12/19/2021 6:45:00 PM -99999.99 -179968 -99999.99 -99999.99 -99999.99 -99999.99
12/19/2021 7:00:00 PM -99999.99 -179968 -99999.99 -99999.99 -99999.99 -99999.99
12/19/2021 7:15:00 PM -99999.99 -179968 -99999.99 -99999.99 -99999.99 -99999.99
12/19/2021 7:30:00 PM -99999.99 -179968 -99999.99 -99999.99 -99999.99 -99999.99
12/19/2021 7:45:00 PM -99999.99 -179968 -99999.99 -99999.99 -99999.99 -99999.99
12/19/2021 8:00:00 PM -99999.99 -179968 -99999.99 -99999.99 -99999.99 -99999.99
12/19/2021 8:15:00 PM -99999.99 -179968 -99999.99 -99999.99 -99999.99 -99999.99
12/19/2021 8:30:00 PM -99999.99 -179968 -99999.99 -99999.99 -99999.99 -99999.99
12/19/2021 8:45:00 PM -99999.99 -179968 -99999.99 -99999.99 -99999.99 -99999.99
12/19/2021 9:00:00 PM -99999.99 -179968 -99999.99 -99999.99 -99999.99 -99999.99
12/19/2021 9:15:00 PM -99999.99 -179968 -99999.99 -99999.99 -99999.99 -99999.99
12/19/2021 9:30:00 PM -99999.99 -179968 -99999.99 -99999.99 -99999.99 -99999.99
12/19/2021 9:45:00 PM -99999.99 -179968 -99999.99 -99999.99 -99999.99 -99999.99
12/19/2021 10:00:00 PM -99999.99 -179968 -99999.99 -99999.99 -99999.99 -99999.99
12/19/2021 10:15:00 PM -99999.99 -179968 -99999.99 -99999.99 -99999.99 -99999.99
12/19/2021 10:30:00 PM -99999.99 -179968 -99999.99 -99999.99 -99999.99 -99999.99
12/19/2021 10:45:00 PM -99999.99 -179968 -99999.99 -99999.99 -99999.99 -99999.99
12/19/2021 11:00:00 PM -99999.99 -179968 -99999.99 -99999.99 -99999.99 -99999.99
12/19/2021 11:15:00 PM -99999.99 -179968 -99999.99 -99999.99 -99999.99 -99999.99
12/19/2021 11:30:00 PM -99999.99 -179968 -99999.99 -99999.99 -99999.99 -99999.99
12/19/2021 11:45:00 PM -99999.99 -179968 -99999.99 -99999.99 -99999.99 -99999.99
12/20/2021 12:00:00 AM -99999.99 -179968 -99999.99 -99999.99 -99999.99 -99999.99
12/20/2021 12:15:00 AM -99999.99 -179968 -99999.99 -99999.99 -99999.99 -99999.99
12/20/2021 12:30:00 AM -99999.99 -179968 -99999.99 -99999.99 -99999.99 -99999.99
12/20/2021 12:45:00 AM -99999.99 -179968 -99999.99 -99999.99 -99999.99 -99999.99
12/20/2021 1:00:00 AM -99999.99 -179968 -99999.99 -99999.99 -99999.99 -99999.99
12/20/2021 1:15:00 AM -99999.99 -179968 -99999.99 -99999.99 -99999.99 -99999.99
12/20/2021 1:30:00 AM -99999.99 -179968 -99999.99 -99999.99 -99999.99 -99999.99
12/20/2021 1:45:00 AM -99999.99 -179968 -99999.99 -99999.99 -99999.99 -99999.99
12/20/2021 2:00:00 AM -99999.99 -179968 -99999.99 -99999.99 -99999.99 -99999.99
12/20/2021 2:15:00 AM -99999.99 -179968 -99999.99 -99999.99 -99999.99 -99999.99
12/20/2021 2:30:00 AM -99999.99 -179968 -99999.99 -99999.99 -99999.99 -99999.99
12/20/2021 2:45:00 AM -99999.99 -179968 -99999.99 -99999.99 -99999.99 -99999.99
12/20/2021 3:00:00 AM -99999.99 -179968 -99999.99 -99999.99 -99999.99 -99999.99
12/20/2021 3:15:00 AM -99999.99 -179968 -99999.99 -99999.99 -99999.99 -99999.99
12/20/2021 3:30:00 AM -99999.99 -179968 -99999.99 -99999.99 -99999.99 -99999.99
12/20/2021 3:45:00 AM -99999.99 -179968 -99999.99 -99999.99 -99999.99 -99999.99
12/20/2021 4:00:00 AM -99999.99 -179968 -99999.99 -99999.99 -99999.99 -99999.99
12/20/2021 4:15:00 AM -99999.99 -179968 -99999.99 -99999.99 -99999.99 -99999.99
12/20/2021 4:30:00 AM -99999.99 -179968 -99999.99 -99999.99 -99999.99 -99999.99
12/20/2021 4:45:00 AM -99999.99 -179968 -99999.99 -99999.99 -99999.99 -99999.99
12/20/2021 5:00:00 AM -99999.99 -179968 -99999.99 -99999.99 -99999.99 -99999.99
12/20/2021 5:15:00 AM -99999.99 -179968 -99999.99 -99999.99 -99999.99 -99999.99
12/20/2021 5:30:00 AM -99999.99 -179968 -99999.99 -99999.99 -99999.99 -99999.99
12/20/2021 5:45:00 AM -99999.99 -179968 -99999.99 -99999.99 -99999.99 -99999.99
12/20/2021 6:00:00 AM -99999.99 -179968 -99999.99 -99999.99 -99999.99 -99999.99
12/20/2021 6:15:00 AM -99999.99 -179968 -99999.99 -99999.99 -99999.99 -99999.99
12/20/2021 6:30:00 AM -99999.99 -179968 -99999.99 -99999.99 -99999.99 -99999.99
12/20/2021 6:45:00 AM -99999.99 -179968 -99999.99 -99999.99 -99999.99 -99999.99
12/20/2021 7:00:00 AM -99999.99 -179968 -99999.99 -99999.99 -99999.99 -99999.99
12/20/2021 7:15:00 AM -99999.99 -179968 -99999.99 -99999.99 -99999.99 -99999.99
12/20/2021 7:30:00 AM -99999.99 -179968 -99999.99 -99999.99 -99999.99 -99999.99
12/20/2021 7:45:00 AM -99999.99 -179968 -99999.99 -99999.99 -99999.99 -99999.99
12/20/2021 8:00:00 AM -99999.99 -179968 -99999.99 -99999.99 -99999.99 -99999.99
12/20/2021 8:15:00 AM -99999.99 -179968 -99999.99 -99999.99 -99999.99 -99999.99
12/20/2021 8:30:00 AM -99999.99 -179968 -99999.99 -99999.99 -99999.99 -99999.99
12/20/2021 8:45:00 AM -99999.99 -179968 -99999.99 -99999.99 -99999.99 -99999.99
12/20/2021 9:00:00 AM -99999.99 -179968 -99999.99 -99999.99 -99999.99 -99999.99
12/20/2021 9:15:00 AM -99999.99 -179968 -99999.99 -99999.99 -99999.99 -99999.99
12/20/2021 9:30:00 AM 0.33 32.594 0.06 6.74 4.75 14.44
12/20/2021 9:45:00 AM 0.36 32.648 0.06 6.74 4.32 14.43
12/20/2021 10:00:00 AM 0.39 32.702 0.06 6.76 4.4 14.42
12/20/2021 10:15:00 AM 0.44 32.792 0.06 6.73 4.26 14.4
12/20/2021 10:30:00 AM 0.49 32.882 0.06 6.7 4.41 14.38
12/20/2021 10:45:00 AM -99999.99 -179968 -99999.99 -99999.99 -99999.99 -99999.99
12/20/2021 11:00:00 AM 0.57 33.026 0.06 6.73 4.34 14.34
12/20/2021 11:15:00 AM -99999.99 -179968 -99999.99 -99999.99 -99999.99 -99999.99
12/20/2021 11:30:00 AM -99999.99 -179968 -99999.99 -99999.99 -99999.99 -99999.99
12/20/2021 11:45:00 AM -99999.99 -179968 -99999.99 -99999.99 -99999.99 -99999.99
12/20/2021 12:00:00 PM -99999.99 -179968 -99999.99 -99999.99 -99999.99 -99999.99
12/20/2021 12:15:00 PM -99999.99 -179968 -99999.99 -99999.99 -99999.99 -99999.99
12/20/2021 12:30:00 PM -99999.99 -179968 -99999.99 -99999.99 -99999.99 -99999.99
12/20/2021 12:45:00 PM -99999.99 -179968 -99999.99 -99999.99 -99999.99 -99999.99
12/20/2021 1:00:00 PM -99999.99 -179968 -99999.99 -99999.99 -99999.99 -99999.99
12/20/2021 1:15:00 PM -99999.99 -179968 -99999.99 -99999.99 -99999.99 -99999.99
12/20/2021 1:30:00 PM -99999.99 -179968 -99999.99 -99999.99 -99999.99 -99999.99
12/20/2021 1:45:00 PM -99999.99 -179968 -99999.99 -99999.99 -99999.99 -99999.99
12/20/2021 2:00:00 PM -99999.99 -179968 -99999.99 -99999.99 -99999.99 -99999.99
12/20/2021 2:15:00 PM -99999.99 -179968 -99999.99 -99999.99 -99999.99 -99999.99
12/20/2021 2:30:00 PM -99999.99 -179968 -99999.99 -99999.99 -99999.99 -99999.99
12/20/2021 2:45:00 PM -99999.99 -179968 -99999.99 -99999.99 -99999.99 -99999.99
12/20/2021 3:00:00 PM -99999.99 -179968 -99999.99 -99999.99 -99999.99 -99999.99
12/20/2021 3:15:00 PM -99999.99 -179968 -99999.99 -99999.99 -99999.99 -99999.99
12/20/2021 3:30:00 PM -99999.99 -179968 -99999.99 -99999.99 -99999.99 -99999.99
12/20/2021 3:45:00 PM -99999.99 -179968 -99999.99 -99999.99 -99999.99 -99999.99
12/20/2021 4:00:00 PM -99999.99 -179968 -99999.99 -99999.99 -99999.99 -99999.99
12/20/2021 4:15:00 PM -99999.99 -179968 -99999.99 -99999.99 -99999.99 -99999.99
12/20/2021 4:30:00 PM -99999.99 -179968 -99999.99 -99999.99 -99999.99 -99999.99
12/20/2021 4:45:00 PM -99999.99 -179968 -99999.99 -99999.99 -99999.99 -99999.99
12/20/2021 5:00:00 PM -99999.99 -179968 -99999.99 -99999.99 -99999.99 -99999.99
12/20/2021 5:15:00 PM -99999.99 -179968 -99999.99 -99999.99 -99999.99 -99999.99
12/20/2021 5:30:00 PM -99999.99 -179968 -99999.99 -99999.99 -99999.99 -99999.99
12/20/2021 5:45:00 PM -99999.99 -179968 -99999.99 -99999.99 -99999.99 -99999.99
12/20/2021 6:00:00 PM -99999.99 -179968 -99999.99 -99999.99 -99999.99 -99999.99
12/20/2021 6:15:00 PM -99999.99 -179968 -99999.99 -99999.99 -99999.99 -99999.99
12/20/2021 6:30:00 PM -99999.99 -179968 -99999.99 -99999.99 -99999.99 -99999.99
12/20/2021 6:45:00 PM -99999.99 -179968 -99999.99 -99999.99 -99999.99 -99999.99
12/20/2021 7:00:00 PM -99999.99 -179968 -99999.99 -99999.99 -99999.99 -99999.99
12/20/2021 7:15:00 PM -99999.99 -179968 -99999.99 -99999.99 -99999.99 -99999.99
12/20/2021 7:30:00 PM -99999.99 -179968 -99999.99 -99999.99 -99999.99 -99999.99
12/20/2021 7:45:00 PM -99999.99 -179968 -99999.99 -99999.99 -99999.99 -99999.99
12/20/2021 8:00:00 PM -99999.99 -179968 -99999.99 -99999.99 -99999.99 -99999.99
12/20/2021 8:15:00 PM -99999.99 -179968 -99999.99 -99999.99 -99999.99 -99999.99
12/20/2021 8:30:00 PM -99999.99 -179968 -99999.99 -99999.99 -99999.99 -99999.99
12/20/2021 8:45:00 PM -99999.99 -179968 -99999.99 -99999.99 -99999.99 -99999.99
12/20/2021 9:00:00 PM -99999.99 -179968 -99999.99 -99999.99 -99999.99 -99999.99
12/20/2021 9:15:00 PM -99999.99 -179968 -99999.99 -99999.99 -99999.99 -99999.99
12/20/2021 9:30:00 PM -99999.99 -179968 -99999.99 -99999.99 -99999.99 -99999.99
12/20/2021 9:45:00 PM -99999.99 -179968 -99999.99 -99999.99 -99999.99 -99999.99
12/20/2021 10:00:00 PM -99999.99 -179968 -99999.99 -99999.99 -99999.99 -99999.99
12/20/2021 10:15:00 PM -99999.99 -179968 -99999.99 -99999.99 -99999.99 -99999.99
12/20/2021 10:30:00 PM -99999.99 -179968 -99999.99 -99999.99 -99999.99 -99999.99
12/20/2021 10:45:00 PM -99999.99 -179968 -99999.99 -99999.99 -99999.99 -99999.99
12/20/2021 11:00:00 PM -99999.99 -179968 -99999.99 -99999.99 -99999.99 -99999.99
12/20/2021 11:15:00 PM -99999.99 -179968 -99999.99 -99999.99 -99999.99 -99999.99
12/20/2021 11:30:00 PM -99999.99 -179968 -99999.99 -99999.99 -99999.99 -99999.99
12/20/2021 11:45:00 PM -99999.99 -179968 -99999.99 -99999.99 -99999.99 -99999.99
12/21/2021 12:00:00 AM -99999.99 -179968 -99999.99 -99999.99 -99999.99 -99999.99
12/21/2021 12:15:00 AM -99999.99 -179968 -99999.99 -99999.99 -99999.99 -99999.99
12/21/2021 12:30:00 AM -99999.99 -179968 -99999.99 -99999.99 -99999.99 -99999.99
12/21/2021 12:45:00 AM -99999.99 -179968 -99999.99 -99999.99 -99999.99 -99999.99
12/21/2021 1:00:00 AM -99999.99 -179968 -99999.99 -99999.99 -99999.99 -99999.99
12/21/2021 1:15:00 AM -99999.99 -179968 -99999.99 -99999.99 -99999.99 -99999.99
12/21/2021 1:30:00 AM -99999.99 -179968 -99999.99 -99999.99 -99999.99 -99999.99
12/21/2021 1:45:00 AM -99999.99 -179968 -99999.99 -99999.99 -99999.99 -99999.99
12/21/2021 2:00:00 AM -99999.99 -179968 -99999.99 -99999.99 -99999.99 -99999.99
12/21/2021 2:15:00 AM -99999.99 -179968 -99999.99 -99999.99 -99999.99 -99999.99
12/21/2021 2:30:00 AM -99999.99 -179968 -99999.99 -99999.99 -99999.99 -99999.99
12/21/2021 2:45:00 AM -99999.99 -179968 -99999.99 -99999.99 -99999.99 -99999.99
12/21/2021 3:00:00 AM -99999.99 -179968 -99999.99 -99999.99 -99999.99 -99999.99
12/21/2021 3:15:00 AM -99999.99 -179968 -99999.99 -99999.99 -99999.99 -99999.99
12/21/2021 3:30:00 AM -99999.99 -179968 -99999.99 -99999.99 -99999.99 -99999.99
12/21/2021 3:45:00 AM -99999.99 -179968 -99999.99 -99999.99 -99999.99 -99999.99
12/21/2021 4:00:00 AM -99999.99 -179968 -99999.99 -99999.99 -99999.99 -99999.99
12/21/2021 4:15:00 AM -99999.99 -179968 -99999.99 -99999.99 -99999.99 -99999.99
12/21/2021 4:30:00 AM -99999.99 -179968 -99999.99 -99999.99 -99999.99 -99999.99
12/21/2021 4:45:00 AM -99999.99 -179968 -99999.99 -99999.99 -99999.99 -99999.99
12/21/2021 5:00:00 AM -99999.99 -179968 -99999.99 -99999.99 -99999.99 -99999.99
12/21/2021 5:15:00 AM -99999.99 -179968 -99999.99 -99999.99 -99999.99 -99999.99
12/21/2021 5:30:00 AM -99999.99 -179968 -99999.99 -99999.99 -99999.99 -99999.99
12/21/2021 5:45:00 AM -99999.99 -179968 -99999.99 -99999.99 -99999.99 -99999.99
12/21/2021 6:00:00 AM -99999.99 -179968 -99999.99 -99999.99 -99999.99 -99999.99
12/21/2021 8:45:00 AM -99999.99 -179968 -99999.99 -99999.99 -99999.99 -99999.99
12/21/2021 9:00:00 AM -99999.99 -179968 -99999.99 -99999.99 -99999.99 -99999.99
12/21/2021 9:15:00 AM 1.28 34.304 0.06 6.72 4.26 13.97
12/21/2021 9:30:00 AM 1.33 34.394 0.06 6.69 4.57 13.97
12/21/2021 9:45:00 AM 1.39 34.502 0.06 6.69 4.36 13.95
12/21/2021 10:00:00 AM 1.45 34.61 0.06 6.69 4.31 13.92
12/21/2021 10:15:00 AM 1.52 34.736 0.06 6.71 4.4 13.9
12/21/2021 10:30:00 AM 1.6 34.88 0.06 6.71 4.5 13.87
12/21/2021 10:45:00 AM 1.68 35.024 0.06 6.71 4.21 13.84
12/21/2021 11:00:00 AM 1.76 35.168 0.06 6.72 4.47 13.81
12/21/2021 11:15:00 AM 1.85 35.33 0.059 6.74 4.68 13.78
12/21/2021 11:30:00 AM 1.93 35.474 0.059 6.71 4.6 13.75
12/21/2021 11:45:00 AM 1.99 35.582 0.059 6.73 4.67 13.72
12/21/2021 12:00:00 PM 2.05 35.69 0.059 6.74 4.5 13.68
12/21/2021 12:15:00 PM 2.1 35.78 0.059 6.74 4.69 13.66
12/21/2021 12:30:00 PM 2.16 35.888 0.059 6.74 4.77 13.63
12/21/2021 12:45:00 PM 2.22 35.996 0.059 6.76 4.84 13.61
12/21/2021 1:00:00 PM 2.2 35.96 0.059 6.72 4.69 13.56
12/21/2021 1:15:00 PM 2.17 35.906 0.059 6.72 4.98 13.52
12/21/2021 1:30:00 PM 2.16 35.888 0.06 6.7 4.9 13.49
12/21/2021 1:45:00 PM 2.16 35.888 0.06 6.71 4.87 13.48
12/21/2021 2:00:00 PM 2.17 35.906 0.06 6.68 5.17 13.46
12/21/2021 2:15:00 PM 2.19 35.942 0.06 6.68 4.94 13.44
12/21/2021 2:30:00 PM 2.2 35.96 0.06 6.66 5.16 13.43
12/21/2021 2:45:00 PM 2.21 35.978 0.06 6.68 5.09 13.4
12/21/2021 3:00:00 PM 2.22 35.996 0.06 6.66 5.25 13.39
12/21/2021 3:15:00 PM 2.23 36.014 0.06 6.66 5.13 13.38
12/21/2021 3:30:00 PM 2.24 36.032 0.06 6.67 4.83 13.36
12/21/2021 3:45:00 PM 2.26 36.068 0.06 6.63 5.3 13.36
12/21/2021 4:00:00 PM 2.27 36.086 0.06 6.66 5.19 13.34
12/21/2021 4:15:00 PM 2.27 36.086 0.06 6.64 5.38 13.32
12/21/2021 4:30:00 PM 2.26 36.068 0.06 6.63 5.38 13.29
12/21/2021 4:45:00 PM -99999.99 -179968 -99999.99 -99999.99 -99999.99 -99999.99
12/21/2021 5:00:00 PM -99999.99 -179968 -99999.99 -99999.99 -99999.99 -99999.99
12/21/2021 5:15:00 PM -99999.99 -179968 -99999.99 -99999.99 -99999.99 -99999.99
12/21/2021 5:30:00 PM -99999.99 -179968 -99999.99 -99999.99 -99999.99 -99999.99
12/21/2021 5:45:00 PM -99999.99 -179968 -99999.99 -99999.99 -99999.99 -99999.99
12/21/2021 6:00:00 PM -99999.99 -179968 -99999.99 -99999.99 -99999.99 -99999.99
12/21/2021 6:15:00 PM -99999.99 -179968 -99999.99 -99999.99 -99999.99 -99999.99
12/21/2021 6:30:00 PM -99999.99 -179968 -99999.99 -99999.99 -99999.99 -99999.99
12/21/2021 6:45:00 PM -99999.99 -179968 -99999.99 -99999.99 -99999.99 -99999.99
12/21/2021 7:00:00 PM -99999.99 -179968 -99999.99 -99999.99 -99999.99 -99999.99
12/21/2021 7:15:00 PM -99999.99 -179968 -99999.99 -99999.99 -99999.99 -99999.99
12/21/2021 7:30:00 PM -99999.99 -179968 -99999.99 -99999.99 -99999.99 -99999.99
12/21/2021 7:45:00 PM -99999.99 -179968 -99999.99 -99999.99 -99999.99 -99999.99
12/21/2021 8:00:00 PM -99999.99 -179968 -99999.99 -99999.99 -99999.99 -99999.99
12/21/2021 8:15:00 PM -99999.99 -179968 -99999.99 -99999.99 -99999.99 -99999.99
12/21/2021 8:30:00 PM -99999.99 -179968 -99999.99 -99999.99 -99999.99 -99999.99
12/21/2021 8:45:00 PM -99999.99 -179968 -99999.99 -99999.99 -99999.99 -99999.99
12/21/2021 9:00:00 PM -99999.99 -179968 -99999.99 -99999.99 -99999.99 -99999.99
12/21/2021 9:15:00 PM -99999.99 -179968 -99999.99 -99999.99 -99999.99 -99999.99
12/21/2021 9:30:00 PM -99999.99 -179968 -99999.99 -99999.99 -99999.99 -99999.99
12/21/2021 9:45:00 PM -99999.99 -179968 -99999.99 -99999.99 -99999.99 -99999.99
12/21/2021 10:00:00 PM -99999.99 -179968 -99999.99 -99999.99 -99999.99 -99999.99
12/21/2021 10:15:00 PM -99999.99 -179968 -99999.99 -99999.99 -99999.99 -99999.99
12/21/2021 10:30:00 PM -99999.99 -179968 -99999.99 -99999.99 -99999.99 -99999.99
12/21/2021 10:45:00 PM -99999.99 -179968 -99999.99 -99999.99 -99999.99 -99999.99
12/21/2021 11:00:00 PM -99999.99 -179968 -99999.99 -99999.99 -99999.99 -99999.99
12/21/2021 11:15:00 PM -99999.99 -179968 -99999.99 -99999.99 -99999.99 -99999.99
12/21/2021 11:30:00 PM -99999.99 -179968 -99999.99 -99999.99 -99999.99 -99999.99
12/21/2021 11:45:00 PM -99999.99 -179968 -99999.99 -99999.99 -99999.99 -99999.99
12/22/2021 12:00:00 AM -99999.99 -179968 -99999.99 -99999.99 -99999.99 -99999.99
12/22/2021 12:15:00 AM -99999.99 -179968 -99999.99 -99999.99 -99999.99 -99999.99
12/22/2021 12:30:00 AM -99999.99 -179968 -99999.99 -99999.99 -99999.99 -99999.99
12/22/2021 12:45:00 AM -99999.99 -179968 -99999.99 -99999.99 -99999.99 -99999.99
12/22/2021 1:00:00 AM -99999.99 -179968 -99999.99 -99999.99 -99999.99 -99999.99
12/22/2021 1:15:00 AM -99999.99 -179968 -99999.99 -99999.99 -99999.99 -99999.99
12/22/2021 1:30:00 AM -99999.99 -179968 -99999.99 -99999.99 -99999.99 -99999.99
12/22/2021 1:45:00 AM -99999.99 -179968 -99999.99 -99999.99 -99999.99 -99999.99
12/22/2021 2:00:00 AM -99999.99 -179968 -99999.99 -99999.99 -99999.99 -99999.99
12/22/2021 2:15:00 AM -99999.99 -179968 -99999.99 -99999.99 -99999.99 -99999.99
12/22/2021 2:30:00 AM -99999.99 -179968 -99999.99 -99999.99 -99999.99 -99999.99
12/22/2021 2:45:00 AM -99999.99 -179968 -99999.99 -99999.99 -99999.99 -99999.99
12/22/2021 3:00:00 AM -99999.99 -179968 -99999.99 -99999.99 -99999.99 -99999.99
12/22/2021 3:15:00 AM -99999.99 -179968 -99999.99 -99999.99 -99999.99 -99999.99
12/22/2021 3:30:00 AM -99999.99 -179968 -99999.99 -99999.99 -99999.99 -99999.99
12/22/2021 3:45:00 AM -99999.99 -179968 -99999.99 -99999.99 -99999.99 -99999.99
12/22/2021 4:00:00 AM -99999.99 -179968 -99999.99 -99999.99 -99999.99 -99999.99
12/22/2021 4:15:00 AM -99999.99 -179968 -99999.99 -99999.99 -99999.99 -99999.99
12/22/2021 4:30:00 AM -99999.99 -179968 -99999.99 -99999.99 -99999.99 -99999.99
12/22/2021 4:45:00 AM -99999.99 -179968 -99999.99 -99999.99 -99999.99 -99999.99
12/22/2021 5:00:00 AM -99999.99 -179968 -99999.99 -99999.99 -99999.99 -99999.99
12/22/2021 5:15:00 AM -99999.99 -179968 -99999.99 -99999.99 -99999.99 -99999.99
12/22/2021 5:30:00 AM -99999.99 -179968 -99999.99 -99999.99 -99999.99 -99999.99
12/22/2021 5:45:00 AM -99999.99 -179968 -99999.99 -99999.99 -99999.99 -99999.99
12/22/2021 6:00:00 AM -99999.99 -179968 -99999.99 -99999.99 -99999.99 -99999.99
12/22/2021 6:15:00 AM -99999.99 -179968 -99999.99 -99999.99 -99999.99 -99999.99
12/22/2021 6:30:00 AM -99999.99 -179968 -99999.99 -99999.99 -99999.99 -99999.99
12/22/2021 6:45:00 AM -99999.99 -179968 -99999.99 -99999.99 -99999.99 -99999.99
12/22/2021 7:00:00 AM -99999.99 -179968 -99999.99 -99999.99 -99999.99 -99999.99
12/22/2021 7:15:00 AM -99999.99 -179968 -99999.99 -99999.99 -99999.99 -99999.99
12/22/2021 7:30:00 AM -99999.99 -179968 -99999.99 -99999.99 -99999.99 -99999.99
12/22/2021 7:45:00 AM -99999.99 -179968 -99999.99 -99999.99 -99999.99 -99999.99
12/22/2021 8:00:00 AM -99999.99 -179968 -99999.99 -99999.99 -99999.99 -99999.99
12/22/2021 8:15:00 AM -99999.99 -179968 -99999.99 -99999.99 -99999.99 -99999.99
12/22/2021 8:30:00 AM -99999.99 -179968 -99999.99 -99999.99 -99999.99 -99999.99
12/22/2021 8:45:00 AM -99999.99 -179968 -99999.99 -99999.99 -99999.99 -99999.99
12/22/2021 9:00:00 AM -99999.99 -179968 -99999.99 -99999.99 -99999.99 -99999.99
12/22/2021 9:15:00 AM -99999.99 -179968 -99999.99 -99999.99 -99999.99 -99999.99
12/22/2021 9:30:00 AM -99999.99 -179968 -99999.99 -99999.99 -99999.99 -99999.99
12/22/2021 9:45:00 AM -99999.99 -179968 -99999.99 -99999.99 -99999.99 -99999.99
12/22/2021 10:00:00 AM 2 35.6 0.06 6.71 4.6 13.5
12/22/2021 10:15:00 AM 2.05 35.69 0.06 6.72 5.34 13.49
12/22/2021 10:30:00 AM 2.1 35.78 0.06 6.72 4.66 13.49
12/22/2021 10:45:00 AM 2.1 35.78 0.06 6.7 4.92 13.42
12/22/2021 11:00:00 AM 2.11 35.798 0.06 6.71 4.8 13.44
12/22/2021 11:15:00 AM 2.12 35.816 0.06 6.72 4.75 13.45
12/22/2021 11:30:00 AM 2.12 35.816 0.06 6.72 4.73 13.45
12/22/2021 11:45:00 AM 2.16 35.888 0.06 6.71 4.63 13.47
12/22/2021 12:00:00 PM 2.24 36.032 0.06 6.73 4.79 13.46
12/22/2021 12:15:00 PM 2.24 36.032 0.099 6.68 4.64 13.39
12/22/2021 12:30:00 PM 2.23 36.014 0.066 6.72 4.67 13.42
12/22/2021 12:45:00 PM 2.22 35.996 0.061 6.73 4.79 13.43
12/22/2021 1:00:00 PM 2.21 35.978 0.06 6.74 4.88 13.45
12/22/2021 1:15:00 PM 2.22 35.996 0.1 6.68 4.61 13.46
12/22/2021 1:30:00 PM 2.22 35.996 0.067 6.76 4.89 13.46
12/22/2021 1:45:00 PM 2.2 35.96 0.062 6.74 5.02 13.47
12/22/2021 2:00:00 PM 2.16 35.888 0.061 6.73 4.95 13.46
12/22/2021 2:15:00 PM 2.09 35.762 0.06 6.71 4.88 13.46
12/22/2021 2:30:00 PM 2.04 35.672 0.06 6.71 4.75 13.5
12/22/2021 2:45:00 PM 2.01 35.618 0.06 6.69 5.05 13.49
12/22/2021 3:00:00 PM 1.97 35.546 0.06 6.69 4.91 13.49
12/22/2021 3:15:00 PM 1.92 35.456 0.06 6.66 4.84 13.48
12/22/2021 3:30:00 PM 1.87 35.366 0.06 6.65 4.71 13.46
12/22/2021 3:45:00 PM 1.84 35.312 0.06 6.65 4.86 13.45
12/22/2021 4:00:00 PM 1.81 35.258 0.06 6.62 4.98 13.44
12/22/2021 4:15:00 PM 1.79 35.222 0.06 6.61 4.84 13.44
12/22/2021 4:30:00 PM 1.76 35.168 0.06 6.61 5.12 13.44
12/22/2021 4:45:00 PM -99999.99 -179968 -99999.99 -99999.99 -99999.99 -99999.99
12/22/2021 5:00:00 PM -99999.99 -179968 -99999.99 -99999.99 -99999.99 -99999.99
12/22/2021 5:15:00 PM -99999.99 -179968 -99999.99 -99999.99 -99999.99 -99999.99
12/22/2021 5:30:00 PM -99999.99 -179968 -99999.99 -99999.99 -99999.99 -99999.99
12/22/2021 5:45:00 PM -99999.99 -179968 -99999.99 -99999.99 -99999.99 -99999.99
12/22/2021 6:00:00 PM -99999.99 -179968 -99999.99 -99999.99 -99999.99 -99999.99
12/22/2021 6:15:00 PM -99999.99 -179968 -99999.99 -99999.99 -99999.99 -99999.99
12/22/2021 6:30:00 PM -99999.99 -179968 -99999.99 -99999.99 -99999.99 -99999.99
12/22/2021 6:45:00 PM -99999.99 -179968 -99999.99 -99999.99 -99999.99 -99999.99
12/22/2021 7:00:00 PM -99999.99 -179968 -99999.99 -99999.99 -99999.99 -99999.99
12/22/2021 7:15:00 PM -99999.99 -179968 -99999.99 -99999.99 -99999.99 -99999.99
12/22/2021 7:30:00 PM -99999.99 -179968 -99999.99 -99999.99 -99999.99 -99999.99
12/22/2021 7:45:00 PM -99999.99 -179968 -99999.99 -99999.99 -99999.99 -99999.99
12/22/2021 8:00:00 PM -99999.99 -179968 -99999.99 -99999.99 -99999.99 -99999.99
12/22/2021 8:15:00 PM -99999.99 -179968 -99999.99 -99999.99 -99999.99 -99999.99
12/22/2021 8:30:00 PM -99999.99 -179968 -99999.99 -99999.99 -99999.99 -99999.99
12/22/2021 8:45:00 PM -99999.99 -179968 -99999.99 -99999.99 -99999.99 -99999.99
12/22/2021 9:00:00 PM -99999.99 -179968 -99999.99 -99999.99 -99999.99 -99999.99
12/22/2021 9:15:00 PM -99999.99 -179968 -99999.99 -99999.99 -99999.99 -99999.99
12/22/2021 9:30:00 PM -99999.99 -179968 -99999.99 -99999.99 -99999.99 -99999.99
12/22/2021 9:45:00 PM -99999.99 -179968 -99999.99 -99999.99 -99999.99 -99999.99
12/22/2021 10:00:00 PM -99999.99 -179968 -99999.99 -99999.99 -99999.99 -99999.99
12/22/2021 10:15:00 PM -99999.99 -179968 -99999.99 -99999.99 -99999.99 -99999.99
12/22/2021 10:30:00 PM -99999.99 -179968 -99999.99 -99999.99 -99999.99 -99999.99
12/22/2021 10:45:00 PM -99999.99 -179968 -99999.99 -99999.99 -99999.99 -99999.99
12/22/2021 11:00:00 PM -99999.99 -179968 -99999.99 -99999.99 -99999.99 -99999.99
12/22/2021 11:15:00 PM -99999.99 -179968 -99999.99 -99999.99 -99999.99 -99999.99
12/22/2021 11:30:00 PM -99999.99 -179968 -99999.99 -99999.99 -99999.99 -99999.99
12/22/2021 11:45:00 PM -99999.99 -179968 -99999.99 -99999.99 -99999.99 -99999.99
12/23/2021 12:00:00 AM -99999.99 -179968 -99999.99 -99999.99 -99999.99 -99999.99
12/23/2021 12:15:00 AM -99999.99 -179968 -99999.99 -99999.99 -99999.99 -99999.99
12/23/2021 12:30:00 AM -99999.99 -179968 -99999.99 -99999.99 -99999.99 -99999.99
12/23/2021 12:45:00 AM -99999.99 -179968 -99999.99 -99999.99 -99999.99 -99999.99
12/23/2021 1:00:00 AM -99999.99 -179968 -99999.99 -99999.99 -99999.99 -99999.99
12/23/2021 1:15:00 AM -99999.99 -179968 -99999.99 -99999.99 -99999.99 -99999.99
12/23/2021 1:30:00 AM -99999.99 -179968 -99999.99 -99999.99 -99999.99 -99999.99
12/23/2021 1:45:00 AM -99999.99 -179968 -99999.99 -99999.99 -99999.99 -99999.99
12/23/2021 2:00:00 AM -99999.99 -179968 -99999.99 -99999.99 -99999.99 -99999.99
12/23/2021 2:15:00 AM -99999.99 -179968 -99999.99 -99999.99 -99999.99 -99999.99
12/23/2021 2:30:00 AM -99999.99 -179968 -99999.99 -99999.99 -99999.99 -99999.99
12/23/2021 2:45:00 AM -99999.99 -179968 -99999.99 -99999.99 -99999.99 -99999.99
12/23/2021 3:00:00 AM -99999.99 -179968 -99999.99 -99999.99 -99999.99 -99999.99
12/23/2021 3:15:00 AM -99999.99 -179968 -99999.99 -99999.99 -99999.99 -99999.99
12/23/2021 3:30:00 AM -99999.99 -179968 -99999.99 -99999.99 -99999.99 -99999.99
12/23/2021 3:45:00 AM -99999.99 -179968 -99999.99 -99999.99 -99999.99 -99999.99
12/23/2021 4:00:00 AM -99999.99 -179968 -99999.99 -99999.99 -99999.99 -99999.99
12/23/2021 4:15:00 AM -99999.99 -179968 -99999.99 -99999.99 -99999.99 -99999.99
12/23/2021 4:30:00 AM -99999.99 -179968 -99999.99 -99999.99 -99999.99 -99999.99
12/23/2021 4:45:00 AM -99999.99 -179968 -99999.99 -99999.99 -99999.99 -99999.99
12/23/2021 5:00:00 AM -99999.99 -179968 -99999.99 -99999.99 -99999.99 -99999.99
12/23/2021 5:15:00 AM -99999.99 -179968 -99999.99 -99999.99 -99999.99 -99999.99
12/23/2021 5:30:00 AM -99999.99 -179968 -99999.99 -99999.99 -99999.99 -99999.99
12/23/2021 5:45:00 AM -99999.99 -179968 -99999.99 -99999.99 -99999.99 -99999.99
12/23/2021 6:00:00 AM -99999.99 -179968 -99999.99 -99999.99 -99999.99 -99999.99
12/23/2021 6:15:00 AM -99999.99 -179968 -99999.99 -99999.99 -99999.99 -99999.99
12/23/2021 6:30:00 AM -99999.99 -179968 -99999.99 -99999.99 -99999.99 -99999.99
12/23/2021 6:45:00 AM -99999.99 -179968 -99999.99 -99999.99 -99999.99 -99999.99
12/23/2021 7:00:00 AM -99999.99 -179968 -99999.99 -99999.99 -99999.99 -99999.99
12/23/2021 7:15:00 AM -99999.99 -179968 -99999.99 -99999.99 -99999.99 -99999.99
12/23/2021 7:30:00 AM -99999.99 -179968 -99999.99 -99999.99 -99999.99 -99999.99
12/23/2021 7:45:00 AM -99999.99 -179968 -99999.99 -99999.99 -99999.99 -99999.99
12/23/2021 8:00:00 AM -99999.99 -179968 -99999.99 -99999.99 -99999.99 -99999.99
12/23/2021 8:15:00 AM -99999.99 -179968 -99999.99 -99999.99 -99999.99 -99999.99
12/23/2021 8:30:00 AM -99999.99 -179968 -99999.99 -99999.99 -99999.99 -99999.99
12/23/2021 8:45:00 AM -99999.99 -179968 -99999.99 -99999.99 -99999.99 -99999.99
12/23/2021 9:00:00 AM 0.83 33.494 0.061 6.7 4.18 14.18
12/23/2021 9:15:00 AM 0.87 33.566 0.061 6.67 4.08 14.18
12/23/2021 9:30:00 AM 0.87 33.566 0.061 6.66 3.99 14.19
12/23/2021 9:45:00 AM 0.89 33.602 0.061 6.67 4.11 14.18
12/23/2021 10:00:00 AM 0.92 33.656 0.06 6.68 4.15 14.18
12/23/2021 10:15:00 AM 0.93 33.674 0.06 6.69 4.08 14.18
12/23/2021 10:30:00 AM 0.93 33.674 0.06 6.66 4.17 14.16
12/23/2021 10:45:00 AM 0.98 33.764 0.06 6.68 4.07 14.17
12/23/2021 11:00:00 AM 1.03 33.854 0.06 6.69 4.16 14.17
12/23/2021 11:15:00 AM 1.09 33.962 0.06 6.68 3.99 14.14
12/23/2021 11:30:00 AM 1.12 34.016 0.06 6.7 4.05 14.12
12/23/2021 11:45:00 AM 1.12 34.016 0.06 6.71 4.07 14.1
12/23/2021 12:00:00 PM 1.12 34.016 0.06 6.7 4.15 14.09
12/23/2021 12:15:00 PM 1.16 34.088 0.06 6.71 4.21 14.09
12/23/2021 12:30:00 PM 1.11 33.998 0.06 6.67 3.91 14.03
12/23/2021 12:45:00 PM 1.07 33.926 0.06 6.67 4.08 14.02
12/23/2021 1:00:00 PM 1.03 33.854 0.06 6.66 3.94 14.02
12/23/2021 1:15:00 PM 1.02 33.836 0.06 6.65 4.15 14.03
12/23/2021 1:30:00 PM 1.03 33.854 0.06 6.65 4.22 14.04
12/23/2021 1:45:00 PM 1.06 33.908 0.06 6.66 4.22 14.04
12/23/2021 2:00:00 PM 1.1 33.98 0.06 6.68 4.15 14.05
12/23/2021 2:15:00 PM 1.16 34.088 0.06 6.68 4.44 14.03
12/23/2021 2:30:00 PM 1.19 34.142 0.06 6.69 4.37 14.02
12/23/2021 2:45:00 PM 1.22 34.196 0.06 6.67 4.1 13.99
12/23/2021 3:00:00 PM 1.25 34.25 0.06 6.67 4.22 13.95
12/23/2021 3:15:00 PM 1.26 34.268 0.06 6.67 4.51 13.95
12/23/2021 3:30:00 PM 1.28 34.304 0.06 6.67 4.39 13.94
12/23/2021 3:45:00 PM 1.28 34.304 0.06 6.66 4.23 13.91
12/23/2021 4:00:00 PM 1.27 34.286 0.061 6.66 4.35 13.87
12/23/2021 4:15:00 PM 1.25 34.25 0.061 6.63 4.49 13.82
12/23/2021 4:30:00 PM 1.24 34.232 0.061 6.62 4.14 13.77
12/23/2021 4:45:00 PM 1.25 34.25 0.061 6.6 5.09 13.74
12/23/2021 5:00:00 PM 1.25 34.25 0.061 6.58 4.25 13.72
12/23/2021 5:15:00 PM 1.26 34.268 0.061 6.58 4.41 13.71
12/23/2021 5:30:00 PM -99999.99 -179968 -99999.99 -99999.99 -99999.99 -99999.99
12/23/2021 5:45:00 PM -99999.99 -179968 -99999.99 -99999.99 -99999.99 -99999.99
12/23/2021 6:00:00 PM -99999.99 -179968 -99999.99 -99999.99 -99999.99 -99999.99
12/23/2021 6:15:00 PM -99999.99 -179968 -99999.99 -99999.99 -99999.99 -99999.99
12/23/2021 6:30:00 PM -99999.99 -179968 -99999.99 -99999.99 -99999.99 -99999.99
12/23/2021 6:45:00 PM -99999.99 -179968 -99999.99 -99999.99 -99999.99 -99999.99
12/23/2021 7:00:00 PM -99999.99 -179968 -99999.99 -99999.99 -99999.99 -99999.99
12/23/2021 7:15:00 PM -99999.99 -179968 -99999.99 -99999.99 -99999.99 -99999.99
12/23/2021 7:30:00 PM -99999.99 -179968 -99999.99 -99999.99 -99999.99 -99999.99
12/23/2021 7:45:00 PM -99999.99 -179968 -99999.99 -99999.99 -99999.99 -99999.99
12/23/2021 8:00:00 PM -99999.99 -179968 -99999.99 -99999.99 -99999.99 -99999.99
12/23/2021 8:15:00 PM -99999.99 -179968 -99999.99 -99999.99 -99999.99 -99999.99
12/23/2021 8:30:00 PM -99999.99 -179968 -99999.99 -99999.99 -99999.99 -99999.99
12/23/2021 8:45:00 PM -99999.99 -179968 -99999.99 -99999.99 -99999.99 -99999.99
12/23/2021 9:00:00 PM -99999.99 -179968 -99999.99 -99999.99 -99999.99 -99999.99
12/23/2021 9:15:00 PM -99999.99 -179968 -99999.99 -99999.99 -99999.99 -99999.99
12/23/2021 9:30:00 PM -99999.99 -179968 -99999.99 -99999.99 -99999.99 -99999.99
12/23/2021 9:45:00 PM -99999.99 -179968 -99999.99 -99999.99 -99999.99 -99999.99
12/23/2021 10:00:00 PM -99999.99 -179968 -99999.99 -99999.99 -99999.99 -99999.99
12/23/2021 10:15:00 PM -99999.99 -179968 -99999.99 -99999.99 -99999.99 -99999.99
12/23/2021 10:30:00 PM -99999.99 -179968 -99999.99 -99999.99 -99999.99 -99999.99
12/23/2021 10:45:00 PM -99999.99 -179968 -99999.99 -99999.99 -99999.99 -99999.99
12/23/2021 11:00:00 PM -99999.99 -179968 -99999.99 -99999.99 -99999.99 -99999.99
12/23/2021 11:15:00 PM -99999.99 -179968 -99999.99 -99999.99 -99999.99 -99999.99
12/23/2021 11:30:00 PM -99999.99 -179968 -99999.99 -99999.99 -99999.99 -99999.99
12/23/2021 11:45:00 PM -99999.99 -179968 -99999.99 -99999.99 -99999.99 -99999.99
12/24/2021 12:00:00 AM -99999.99 -179968 -99999.99 -99999.99 -99999.99 -99999.99
12/24/2021 12:15:00 AM -99999.99 -179968 -99999.99 -99999.99 -99999.99 -99999.99
12/24/2021 12:30:00 AM -99999.99 -179968 -99999.99 -99999.99 -99999.99 -99999.99
12/24/2021 12:45:00 AM -99999.99 -179968 -99999.99 -99999.99 -99999.99 -99999.99
12/24/2021 1:00:00 AM -99999.99 -179968 -99999.99 -99999.99 -99999.99 -99999.99
12/24/2021 1:15:00 AM -99999.99 -179968 -99999.99 -99999.99 -99999.99 -99999.99
12/24/2021 1:30:00 AM -99999.99 -179968 -99999.99 -99999.99 -99999.99 -99999.99
12/24/2021 1:45:00 AM -99999.99 -179968 -99999.99 -99999.99 -99999.99 -99999.99
12/24/2021 2:00:00 AM -99999.99 -179968 -99999.99 -99999.99 -99999.99 -99999.99
12/24/2021 2:15:00 AM -99999.99 -179968 -99999.99 -99999.99 -99999.99 -99999.99
12/24/2021 2:30:00 AM -99999.99 -179968 -99999.99 -99999.99 -99999.99 -99999.99
12/24/2021 2:45:00 AM -99999.99 -179968 -99999.99 -99999.99 -99999.99 -99999.99
12/24/2021 3:00:00 AM -99999.99 -179968 -99999.99 -99999.99 -99999.99 -99999.99
12/24/2021 3:15:00 AM -99999.99 -179968 -99999.99 -99999.99 -99999.99 -99999.99
12/24/2021 3:30:00 AM -99999.99 -179968 -99999.99 -99999.99 -99999.99 -99999.99
12/24/2021 3:45:00 AM -99999.99 -179968 -99999.99 -99999.99 -99999.99 -99999.99
12/24/2021 4:00:00 AM -99999.99 -179968 -99999.99 -99999.99 -99999.99 -99999.99
12/24/2021 4:15:00 AM -99999.99 -179968 -99999.99 -99999.99 -99999.99 -99999.99
12/24/2021 4:30:00 AM -99999.99 -179968 -99999.99 -99999.99 -99999.99 -99999.99
12/24/2021 4:45:00 AM -99999.99 -179968 -99999.99 -99999.99 -99999.99 -99999.99
12/24/2021 5:00:00 AM -99999.99 -179968 -99999.99 -99999.99 -99999.99 -99999.99
12/24/2021 5:15:00 AM -99999.99 -179968 -99999.99 -99999.99 -99999.99 -99999.99
12/24/2021 5:30:00 AM -99999.99 -179968 -99999.99 -99999.99 -99999.99 -99999.99
12/24/2021 5:45:00 AM -99999.99 -179968 -99999.99 -99999.99 -99999.99 -99999.99
12/24/2021 6:00:00 AM -99999.99 -179968 -99999.99 -99999.99 -99999.99 -99999.99
12/24/2021 6:15:00 AM -99999.99 -179968 -99999.99 -99999.99 -99999.99 -99999.99
12/24/2021 6:30:00 AM -99999.99 -179968 -99999.99 -99999.99 -99999.99 -99999.99
12/24/2021 6:45:00 AM -99999.99 -179968 -99999.99 -99999.99 -99999.99 -99999.99
12/24/2021 7:00:00 AM -99999.99 -179968 -99999.99 -99999.99 -99999.99 -99999.99
12/24/2021 7:15:00 AM -99999.99 -179968 -99999.99 -99999.99 -99999.99 -99999.99
12/24/2021 7:30:00 AM -99999.99 -179968 -99999.99 -99999.99 -99999.99 -99999.99
12/24/2021 7:45:00 AM -99999.99 -179968 -99999.99 -99999.99 -99999.99 -99999.99
12/24/2021 8:00:00 AM -99999.99 -179968 -99999.99 -99999.99 -99999.99 -99999.99
12/24/2021 8:15:00 AM -99999.99 -179968 -99999.99 -99999.99 -99999.99 -99999.99
12/24/2021 8:30:00 AM -99999.99 -179968 -99999.99 -99999.99 -99999.99 -99999.99
12/24/2021 8:45:00 AM -99999.99 -179968 -99999.99 -99999.99 -99999.99 -99999.99
12/24/2021 9:00:00 AM -99999.99 -179968 -99999.99 -99999.99 -99999.99 -99999.99
12/24/2021 9:15:00 AM -99999.99 -179968 -99999.99 -99999.99 -99999.99 -99999.99
12/24/2021 9:30:00 AM -99999.99 -179968 -99999.99 -99999.99 -99999.99 -99999.99
12/24/2021 9:45:00 AM -99999.99 -179968 -99999.99 -99999.99 -99999.99 -99999.99
12/24/2021 10:00:00 AM -99999.99 -179968 -99999.99 -99999.99 -99999.99 -99999.99
12/24/2021 10:15:00 AM -99999.99 -179968 -99999.99 -99999.99 -99999.99 -99999.99
12/24/2021 10:30:00 AM -99999.99 -179968 -99999.99 -99999.99 -99999.99 -99999.99
12/24/2021 10:45:00 AM -99999.99 -179968 -99999.99 -99999.99 -99999.99 -99999.99
12/24/2021 11:00:00 AM -99999.99 -179968 -99999.99 -99999.99 -99999.99 -99999.99
12/24/2021 11:15:00 AM 1.74 35.132 0.061 6.72 5.13 13.82
12/24/2021 11:30:00 AM 1.82 35.276 0.061 6.73 4.43 13.79
12/24/2021 11:45:00 AM 1.85 35.33 0.061 6.74 4.1 13.75
12/24/2021 12:00:00 PM 1.82 35.276 0.061 6.72 4.37 13.7
12/24/2021 12:15:00 PM 1.81 35.258 0.061 6.73 4.42 13.69
12/24/2021 12:30:00 PM -99999.99 -179968 -99999.99 -99999.99 -99999.99 -99999.99
12/24/2021 12:45:00 PM -99999.99 -179968 -99999.99 -99999.99 -99999.99 -99999.99
12/24/2021 1:00:00 PM 1.96 35.528 0.061 6.72 4.36 13.65
12/24/2021 1:15:00 PM 2.05 35.69 0.061 6.73 4.64 13.63
12/24/2021 1:30:00 PM 2.07 35.726 0.061 6.73 4.78 13.57
12/24/2021 1:45:00 PM 2.08 35.744 0.061 6.71 4.6 13.54
12/24/2021 2:00:00 PM 2.1 35.78 0.061 6.71 4.48 13.54
12/24/2021 2:15:00 PM 2.13 35.834 0.061 6.7 4.92 13.54
12/24/2021 2:30:00 PM 2.18 35.924 0.061 6.71 4.84 13.53
12/24/2021 2:45:00 PM 2.24 36.032 0.061 6.72 4.47 13.52
12/24/2021 3:00:00 PM 2.27 36.086 0.061 6.71 4.85 13.48
12/24/2021 3:15:00 PM 2.27 36.086 0.061 6.69 4.58 13.44
12/24/2021 3:30:00 PM 2.28 36.104 0.061 6.7 4.62 13.41
12/24/2021 3:45:00 PM 2.3 36.14 0.061 6.67 4.84 13.41
12/24/2021 4:00:00 PM 2.31 36.158 0.061 6.67 4.87 13.38
12/24/2021 4:15:00 PM 2.31 36.158 0.061 6.67 4.94 13.35
12/24/2021 4:30:00 PM 2.32 36.176 0.061 6.65 5.11 13.29
12/24/2021 4:45:00 PM 2.31 36.158 0.061 6.63 5.11 13.24
12/24/2021 5:00:00 PM -99999.99 -179968 -99999.99 -99999.99 -99999.99 -99999.99
12/24/2021 5:15:00 PM -99999.99 -179968 -99999.99 -99999.99 -99999.99 -99999.99
12/24/2021 5:30:00 PM -99999.99 -179968 -99999.99 -99999.99 -99999.99 -99999.99
12/24/2021 5:45:00 PM -99999.99 -179968 -99999.99 -99999.99 -99999.99 -99999.99
12/24/2021 6:00:00 PM -99999.99 -179968 -99999.99 -99999.99 -99999.99 -99999.99
12/24/2021 6:15:00 PM -99999.99 -179968 -99999.99 -99999.99 -99999.99 -99999.99
12/24/2021 6:30:00 PM -99999.99 -179968 -99999.99 -99999.99 -99999.99 -99999.99
12/24/2021 6:45:00 PM -99999.99 -179968 -99999.99 -99999.99 -99999.99 -99999.99
12/24/2021 7:00:00 PM -99999.99 -179968 -99999.99 -99999.99 -99999.99 -99999.99
12/24/2021 7:15:00 PM -99999.99 -179968 -99999.99 -99999.99 -99999.99 -99999.99
12/24/2021 7:30:00 PM -99999.99 -179968 -99999.99 -99999.99 -99999.99 -99999.99
12/24/2021 7:45:00 PM -99999.99 -179968 -99999.99 -99999.99 -99999.99 -99999.99
12/24/2021 8:00:00 PM -99999.99 -179968 -99999.99 -99999.99 -99999.99 -99999.99
12/24/2021 8:15:00 PM -99999.99 -179968 -99999.99 -99999.99 -99999.99 -99999.99
12/24/2021 8:30:00 PM -99999.99 -179968 -99999.99 -99999.99 -99999.99 -99999.99
12/24/2021 8:45:00 PM -99999.99 -179968 -99999.99 -99999.99 -99999.99 -99999.99
12/24/2021 9:00:00 PM -99999.99 -179968 -99999.99 -99999.99 -99999.99 -99999.99
12/24/2021 9:15:00 PM -99999.99 -179968 -99999.99 -99999.99 -99999.99 -99999.99
12/24/2021 9:30:00 PM -99999.99 -179968 -99999.99 -99999.99 -99999.99 -99999.99
12/24/2021 9:45:00 PM -99999.99 -179968 -99999.99 -99999.99 -99999.99 -99999.99
12/24/2021 10:00:00 PM -99999.99 -179968 -99999.99 -99999.99 -99999.99 -99999.99
12/24/2021 10:15:00 PM -99999.99 -179968 -99999.99 -99999.99 -99999.99 -99999.99
12/24/2021 10:30:00 PM -99999.99 -179968 -99999.99 -99999.99 -99999.99 -99999.99
12/24/2021 10:45:00 PM -99999.99 -179968 -99999.99 -99999.99 -99999.99 -99999.99
12/24/2021 11:00:00 PM -99999.99 -179968 -99999.99 -99999.99 -99999.99 -99999.99
12/24/2021 11:15:00 PM -99999.99 -179968 -99999.99 -99999.99 -99999.99 -99999.99
12/24/2021 11:30:00 PM -99999.99 -179968 -99999.99 -99999.99 -99999.99 -99999.99
12/24/2021 11:45:00 PM -99999.99 -179968 -99999.99 -99999.99 -99999.99 -99999.99
12/25/2021 12:00:00 AM -99999.99 -179968 -99999.99 -99999.99 -99999.99 -99999.99
12/25/2021 12:15:00 AM -99999.99 -179968 -99999.99 -99999.99 -99999.99 -99999.99
12/25/2021 12:30:00 AM -99999.99 -179968 -99999.99 -99999.99 -99999.99 -99999.99
12/25/2021 12:45:00 AM -99999.99 -179968 -99999.99 -99999.99 -99999.99 -99999.99
12/25/2021 1:00:00 AM -99999.99 -179968 -99999.99 -99999.99 -99999.99 -99999.99
12/25/2021 1:15:00 AM -99999.99 -179968 -99999.99 -99999.99 -99999.99 -99999.99
12/25/2021 1:30:00 AM -99999.99 -179968 -99999.99 -99999.99 -99999.99 -99999.99
12/25/2021 1:45:00 AM -99999.99 -179968 -99999.99 -99999.99 -99999.99 -99999.99
12/25/2021 2:00:00 AM -99999.99 -179968 -99999.99 -99999.99 -99999.99 -99999.99
12/25/2021 2:15:00 AM -99999.99 -179968 -99999.99 -99999.99 -99999.99 -99999.99
12/25/2021 2:30:00 AM -99999.99 -179968 -99999.99 -99999.99 -99999.99 -99999.99
12/25/2021 2:45:00 AM -99999.99 -179968 -99999.99 -99999.99 -99999.99 -99999.99
12/25/2021 3:00:00 AM -99999.99 -179968 -99999.99 -99999.99 -99999.99 -99999.99
12/25/2021 3:15:00 AM -99999.99 -179968 -99999.99 -99999.99 -99999.99 -99999.99
12/25/2021 3:30:00 AM -99999.99 -179968 -99999.99 -99999.99 -99999.99 -99999.99
12/25/2021 3:45:00 AM -99999.99 -179968 -99999.99 -99999.99 -99999.99 -99999.99
12/25/2021 4:00:00 AM -99999.99 -179968 -99999.99 -99999.99 -99999.99 -99999.99
12/25/2021 4:15:00 AM -99999.99 -179968 -99999.99 -99999.99 -99999.99 -99999.99
12/25/2021 4:30:00 AM -99999.99 -179968 -99999.99 -99999.99 -99999.99 -99999.99
12/25/2021 4:45:00 AM -99999.99 -179968 -99999.99 -99999.99 -99999.99 -99999.99
12/25/2021 5:00:00 AM -99999.99 -179968 -99999.99 -99999.99 -99999.99 -99999.99
12/25/2021 5:15:00 AM -99999.99 -179968 -99999.99 -99999.99 -99999.99 -99999.99
12/25/2021 5:30:00 AM -99999.99 -179968 -99999.99 -99999.99 -99999.99 -99999.99
12/25/2021 5:45:00 AM -99999.99 -179968 -99999.99 -99999.99 -99999.99 -99999.99
12/25/2021 6:00:00 AM -99999.99 -179968 -99999.99 -99999.99 -99999.99 -99999.99
12/25/2021 6:15:00 AM -99999.99 -179968 -99999.99 -99999.99 -99999.99 -99999.99
12/25/2021 6:30:00 AM -99999.99 -179968 -99999.99 -99999.99 -99999.99 -99999.99
12/25/2021 6:45:00 AM -99999.99 -179968 -99999.99 -99999.99 -99999.99 -99999.99
12/25/2021 7:00:00 AM -99999.99 -179968 -99999.99 -99999.99 -99999.99 -99999.99
12/25/2021 7:15:00 AM -99999.99 -179968 -99999.99 -99999.99 -99999.99 -99999.99
12/25/2021 7:30:00 AM -99999.99 -179968 -99999.99 -99999.99 -99999.99 -99999.99
12/25/2021 7:45:00 AM -99999.99 -179968 -99999.99 -99999.99 -99999.99 -99999.99
12/25/2021 8:00:00 AM -99999.99 -179968 -99999.99 -99999.99 -99999.99 -99999.99
12/25/2021 8:15:00 AM -99999.99 -179968 -99999.99 -99999.99 -99999.99 -99999.99
12/25/2021 8:30:00 AM -99999.99 -179968 -99999.99 -99999.99 -99999.99 -99999.99
12/25/2021 8:45:00 AM -99999.99 -179968 -99999.99 -99999.99 -99999.99 -99999.99
12/25/2021 9:00:00 AM -99999.99 -179968 -99999.99 -99999.99 -99999.99 -99999.99
12/25/2021 9:15:00 AM -99999.99 -179968 -99999.99 -99999.99 -99999.99 -99999.99
12/25/2021 9:30:00 AM -99999.99 -179968 -99999.99 -99999.99 -99999.99 -99999.99
12/25/2021 9:45:00 AM -99999.99 -179968 -99999.99 -99999.99 -99999.99 -99999.99
12/25/2021 10:00:00 AM -99999.99 -179968 -99999.99 -99999.99 -99999.99 -99999.99
12/25/2021 10:15:00 AM -99999.99 -179968 -99999.99 -99999.99 -99999.99 -99999.99
12/25/2021 10:30:00 AM 3.39 38.102 0.062 6.74 6.89 12.94
12/25/2021 10:45:00 AM -99999.99 -179968 -99999.99 -99999.99 -99999.99 -99999.99
12/25/2021 11:00:00 AM -99999.99 -179968 -99999.99 -99999.99 -99999.99 -99999.99
12/25/2021 11:15:00 AM -99999.99 -179968 -99999.99 -99999.99 -99999.99 -99999.99
12/25/2021 11:30:00 AM -99999.99 -179968 -99999.99 -99999.99 -99999.99 -99999.99
12/25/2021 11:45:00 AM 3.61 38.498 0.061 6.77 7.3 12.86
12/25/2021 12:00:00 PM 3.65 38.57 0.061 6.79 6.82 12.85
12/25/2021 12:15:00 PM 3.69 38.642 0.061 6.79 8.99 12.8
12/25/2021 12:30:00 PM 3.73 38.714 0.061 6.79 7.69 12.8
12/25/2021 12:45:00 PM 3.78 38.804 0.061 6.79 7.47 12.8
12/25/2021 1:00:00 PM 3.84 38.912 0.061 6.79 7.92 12.79
12/25/2021 1:15:00 PM 3.88 38.984 0.061 6.8 6.91 12.73
12/25/2021 1:30:00 PM 3.94 39.092 0.061 6.8 7.39 12.75
12/25/2021 1:45:00 PM 4.04 39.272 0.061 6.82 7.07 12.74
12/25/2021 2:00:00 PM 4.05 39.29 0.061 6.78 6.49 12.66
12/25/2021 2:15:00 PM 4.07 39.326 0.061 6.8 6.86 12.69
12/25/2021 2:30:00 PM 4.1 39.38 0.061 6.8 7 12.68
12/25/2021 2:45:00 PM 4.12 39.416 0.061 6.75 7.18 12.56
12/25/2021 3:00:00 PM 4.11 39.398 0.061 6.71 7.56 12.47
12/25/2021 3:15:00 PM 4.11 39.398 0.061 6.68 7.21 12.49
12/25/2021 3:30:00 PM 4.12 39.416 0.061 6.69 8.77 12.48
12/25/2021 3:45:00 PM 4.13 39.434 0.061 6.68 8.09 12.49
12/25/2021 4:00:00 PM 4.14 39.452 0.061 6.67 6.79 12.44
12/25/2021 4:15:00 PM -99999.99 -179968 -99999.99 -99999.99 -99999.99 -99999.99
12/25/2021 4:30:00 PM -99999.99 -179968 -99999.99 -99999.99 -99999.99 -99999.99
12/25/2021 4:45:00 PM -99999.99 -179968 -99999.99 -99999.99 -99999.99 -99999.99
12/25/2021 5:00:00 PM -99999.99 -179968 -99999.99 -99999.99 -99999.99 -99999.99
12/25/2021 5:15:00 PM -99999.99 -179968 -99999.99 -99999.99 -99999.99 -99999.99
12/25/2021 5:30:00 PM -99999.99 -179968 -99999.99 -99999.99 -99999.99 -99999.99
12/25/2021 5:45:00 PM -99999.99 -179968 -99999.99 -99999.99 -99999.99 -99999.99
12/25/2021 6:00:00 PM -99999.99 -179968 -99999.99 -99999.99 -99999.99 -99999.99
12/25/2021 6:15:00 PM -99999.99 -179968 -99999.99 -99999.99 -99999.99 -99999.99
12/25/2021 6:30:00 PM -99999.99 -179968 -99999.99 -99999.99 -99999.99 -99999.99
12/25/2021 6:45:00 PM -99999.99 -179968 -99999.99 -99999.99 -99999.99 -99999.99
12/25/2021 7:00:00 PM -99999.99 -179968 -99999.99 -99999.99 -99999.99 -99999.99
12/25/2021 7:15:00 PM -99999.99 -179968 -99999.99 -99999.99 -99999.99 -99999.99
12/25/2021 7:30:00 PM -99999.99 -179968 -99999.99 -99999.99 -99999.99 -99999.99
12/25/2021 7:45:00 PM -99999.99 -179968 -99999.99 -99999.99 -99999.99 -99999.99
12/25/2021 8:00:00 PM -99999.99 -179968 -99999.99 -99999.99 -99999.99 -99999.99
12/25/2021 8:15:00 PM -99999.99 -179968 -99999.99 -99999.99 -99999.99 -99999.99
12/25/2021 8:30:00 PM -99999.99 -179968 -99999.99 -99999.99 -99999.99 -99999.99
12/25/2021 8:45:00 PM -99999.99 -179968 -99999.99 -99999.99 -99999.99 -99999.99
12/25/2021 9:00:00 PM -99999.99 -179968 -99999.99 -99999.99 -99999.99 -99999.99
12/25/2021 9:15:00 PM -99999.99 -179968 -99999.99 -99999.99 -99999.99 -99999.99
12/25/2021 9:30:00 PM -99999.99 -179968 -99999.99 -99999.99 -99999.99 -99999.99
12/25/2021 9:45:00 PM -99999.99 -179968 -99999.99 -99999.99 -99999.99 -99999.99
12/25/2021 10:00:00 PM -99999.99 -179968 -99999.99 -99999.99 -99999.99 -99999.99
12/25/2021 10:15:00 PM -99999.99 -179968 -99999.99 -99999.99 -99999.99 -99999.99
12/25/2021 10:30:00 PM -99999.99 -179968 -99999.99 -99999.99 -99999.99 -99999.99
12/25/2021 10:45:00 PM -99999.99 -179968 -99999.99 -99999.99 -99999.99 -99999.99
12/25/2021 11:00:00 PM -99999.99 -179968 -99999.99 -99999.99 -99999.99 -99999.99
12/25/2021 11:15:00 PM -99999.99 -179968 -99999.99 -99999.99 -99999.99 -99999.99
12/25/2021 11:30:00 PM -99999.99 -179968 -99999.99 -99999.99 -99999.99 -99999.99
12/25/2021 11:45:00 PM -99999.99 -179968 -99999.99 -99999.99 -99999.99 -99999.99
12/26/2021 12:00:00 AM -99999.99 -179968 -99999.99 -99999.99 -99999.99 -99999.99
12/26/2021 12:15:00 AM -99999.99 -179968 -99999.99 -99999.99 -99999.99 -99999.99
12/26/2021 12:30:00 AM -99999.99 -179968 -99999.99 -99999.99 -99999.99 -99999.99
12/26/2021 12:45:00 AM -99999.99 -179968 -99999.99 -99999.99 -99999.99 -99999.99
12/26/2021 1:00:00 AM -99999.99 -179968 -99999.99 -99999.99 -99999.99 -99999.99
12/26/2021 1:15:00 AM -99999.99 -179968 -99999.99 -99999.99 -99999.99 -99999.99
12/26/2021 1:30:00 AM -99999.99 -179968 -99999.99 -99999.99 -99999.99 -99999.99
12/26/2021 1:45:00 AM -99999.99 -179968 -99999.99 -99999.99 -99999.99 -99999.99
12/26/2021 2:00:00 AM -99999.99 -179968 -99999.99 -99999.99 -99999.99 -99999.99
12/26/2021 2:15:00 AM -99999.99 -179968 -99999.99 -99999.99 -99999.99 -99999.99
12/26/2021 2:30:00 AM -99999.99 -179968 -99999.99 -99999.99 -99999.99 -99999.99
12/26/2021 2:45:00 AM -99999.99 -179968 -99999.99 -99999.99 -99999.99 -99999.99
12/26/2021 3:00:00 AM -99999.99 -179968 -99999.99 -99999.99 -99999.99 -99999.99
12/26/2021 3:15:00 AM -99999.99 -179968 -99999.99 -99999.99 -99999.99 -99999.99
12/26/2021 3:30:00 AM -99999.99 -179968 -99999.99 -99999.99 -99999.99 -99999.99
12/26/2021 3:45:00 AM -99999.99 -179968 -99999.99 -99999.99 -99999.99 -99999.99
12/26/2021 4:00:00 AM -99999.99 -179968 -99999.99 -99999.99 -99999.99 -99999.99
12/26/2021 4:15:00 AM -99999.99 -179968 -99999.99 -99999.99 -99999.99 -99999.99
12/26/2021 4:30:00 AM -99999.99 -179968 -99999.99 -99999.99 -99999.99 -99999.99
12/26/2021 4:45:00 AM -99999.99 -179968 -99999.99 -99999.99 -99999.99 -99999.99
12/26/2021 5:00:00 AM -99999.99 -179968 -99999.99 -99999.99 -99999.99 -99999.99
12/26/2021 5:15:00 AM -99999.99 -179968 -99999.99 -99999.99 -99999.99 -99999.99
12/26/2021 5:30:00 AM -99999.99 -179968 -99999.99 -99999.99 -99999.99 -99999.99
12/26/2021 5:45:00 AM -99999.99 -179968 -99999.99 -99999.99 -99999.99 -99999.99
12/26/2021 6:00:00 AM -99999.99 -179968 -99999.99 -99999.99 -99999.99 -99999.99
12/26/2021 6:15:00 AM -99999.99 -179968 -99999.99 -99999.99 -99999.99 -99999.99
12/26/2021 6:30:00 AM -99999.99 -179968 -99999.99 -99999.99 -99999.99 -99999.99
12/26/2021 6:45:00 AM -99999.99 -179968 -99999.99 -99999.99 -99999.99 -99999.99
12/26/2021 7:00:00 AM -99999.99 -179968 -99999.99 -99999.99 -99999.99 -99999.99
12/26/2021 7:15:00 AM -99999.99 -179968 -99999.99 -99999.99 -99999.99 -99999.99
12/26/2021 7:30:00 AM -99999.99 -179968 -99999.99 -99999.99 -99999.99 -99999.99
12/26/2021 7:45:00 AM -99999.99 -179968 -99999.99 -99999.99 -99999.99 -99999.99
12/26/2021 8:00:00 AM -99999.99 -179968 -99999.99 -99999.99 -99999.99 -99999.99
12/26/2021 8:15:00 AM -99999.99 -179968 -99999.99 -99999.99 -99999.99 -99999.99
12/26/2021 8:30:00 AM -99999.99 -179968 -99999.99 -99999.99 -99999.99 -99999.99
12/26/2021 8:45:00 AM -99999.99 -179968 -99999.99 -99999.99 -99999.99 -99999.99
12/26/2021 9:00:00 AM -99999.99 -179968 -99999.99 -99999.99 -99999.99 -99999.99
12/26/2021 9:15:00 AM -99999.99 -179968 -99999.99 -99999.99 -99999.99 -99999.99
12/26/2021 9:30:00 AM -99999.99 -179968 -99999.99 -99999.99 -99999.99 -99999.99
12/26/2021 9:45:00 AM -99999.99 -179968 -99999.99 -99999.99 -99999.99 -99999.99
12/26/2021 10:00:00 AM -99999.99 -179968 -99999.99 -99999.99 -99999.99 -99999.99
12/26/2021 10:15:00 AM -99999.99 -179968 -99999.99 -99999.99 -99999.99 -99999.99
12/26/2021 10:30:00 AM -99999.99 -179968 -99999.99 -99999.99 -99999.99 -99999.99
12/26/2021 10:45:00 AM -99999.99 -179968 -99999.99 -99999.99 -99999.99 -99999.99
12/26/2021 11:00:00 AM -99999.99 -179968 -99999.99 -99999.99 -99999.99 -99999.99
12/26/2021 11:15:00 AM -99999.99 -179968 -99999.99 -99999.99 -99999.99 -99999.99
12/26/2021 11:30:00 AM -99999.99 -179968 -99999.99 -99999.99 -99999.99 -99999.99
12/26/2021 11:45:00 AM -99999.99 -179968 -99999.99 -99999.99 -99999.99 -99999.99
12/26/2021 12:00:00 PM -99999.99 -179968 -99999.99 -99999.99 -99999.99 -99999.99
12/26/2021 12:15:00 PM -99999.99 -179968 -99999.99 -99999.99 -99999.99 -99999.99
12/26/2021 12:30:00 PM 4.06 39.308 0.062 6.83 6.33 12.91
12/26/2021 12:45:00 PM 4.16 39.488 0.061 6.85 5.97 12.91
12/26/2021 1:00:00 PM 4.25 39.65 0.061 6.87 6.24 12.89
12/26/2021 1:15:00 PM 4.29 39.722 0.061 6.87 5.63 12.87
12/26/2021 1:30:00 PM 4.3 39.74 0.061 6.83 6.62 12.86
12/26/2021 1:45:00 PM 4.28 39.704 0.061 6.85 6.38 12.85
12/26/2021 2:00:00 PM 4.25 39.65 0.061 6.85 6.05 12.84
12/26/2021 2:15:00 PM 4.21 39.578 0.061 6.85 5.99 12.83
12/26/2021 2:30:00 PM 4.14 39.452 0.062 6.77 6.06 12.78
12/26/2021 2:45:00 PM 4.1 39.38 0.062 6.8 5.58 12.81
12/26/2021 3:00:00 PM 4.04 39.272 0.062 6.79 5.8 12.76
12/26/2021 3:15:00 PM 3.99 39.182 0.062 6.77 6.16 12.78
12/26/2021 3:30:00 PM 3.97 39.146 0.062 6.73 5.77 12.81
12/26/2021 3:45:00 PM 3.95 39.11 0.062 6.75 6.28 12.8
12/26/2021 4:00:00 PM 3.92 39.056 0.062 6.73 5.94 12.78
12/26/2021 4:15:00 PM 3.88 38.984 0.062 6.72 5.96 12.75
12/26/2021 4:30:00 PM 3.84 38.912 0.062 6.7 6.13 12.73
12/26/2021 4:45:00 PM -99999.99 -179968 -99999.99 -99999.99 -99999.99 -99999.99
12/26/2021 5:00:00 PM -99999.99 -179968 -99999.99 -99999.99 -99999.99 -99999.99
12/26/2021 5:15:00 PM -99999.99 -179968 -99999.99 -99999.99 -99999.99 -99999.99
12/26/2021 5:30:00 PM -99999.99 -179968 -99999.99 -99999.99 -99999.99 -99999.99
12/26/2021 5:45:00 PM -99999.99 -179968 -99999.99 -99999.99 -99999.99 -99999.99
12/26/2021 6:00:00 PM -99999.99 -179968 -99999.99 -99999.99 -99999.99 -99999.99
12/26/2021 6:15:00 PM -99999.99 -179968 -99999.99 -99999.99 -99999.99 -99999.99
12/26/2021 6:30:00 PM -99999.99 -179968 -99999.99 -99999.99 -99999.99 -99999.99
12/26/2021 6:45:00 PM -99999.99 -179968 -99999.99 -99999.99 -99999.99 -99999.99
12/26/2021 7:00:00 PM -99999.99 -179968 -99999.99 -99999.99 -99999.99 -99999.99
12/26/2021 7:15:00 PM -99999.99 -179968 -99999.99 -99999.99 -99999.99 -99999.99
12/26/2021 7:30:00 PM -99999.99 -179968 -99999.99 -99999.99 -99999.99 -99999.99
12/26/2021 7:45:00 PM -99999.99 -179968 -99999.99 -99999.99 -99999.99 -99999.99
12/26/2021 8:00:00 PM -99999.99 -179968 -99999.99 -99999.99 -99999.99 -99999.99
12/26/2021 8:15:00 PM -99999.99 -179968 -99999.99 -99999.99 -99999.99 -99999.99
12/26/2021 8:30:00 PM -99999.99 -179968 -99999.99 -99999.99 -99999.99 -99999.99
12/26/2021 8:45:00 PM -99999.99 -179968 -99999.99 -99999.99 -99999.99 -99999.99
12/26/2021 9:00:00 PM -99999.99 -179968 -99999.99 -99999.99 -99999.99 -99999.99
12/26/2021 9:15:00 PM -99999.99 -179968 -99999.99 -99999.99 -99999.99 -99999.99
12/26/2021 9:30:00 PM -99999.99 -179968 -99999.99 -99999.99 -99999.99 -99999.99
12/26/2021 9:45:00 PM -99999.99 -179968 -99999.99 -99999.99 -99999.99 -99999.99
12/26/2021 10:00:00 PM -99999.99 -179968 -99999.99 -99999.99 -99999.99 -99999.99
12/26/2021 10:15:00 PM -99999.99 -179968 -99999.99 -99999.99 -99999.99 -99999.99
12/26/2021 10:30:00 PM -99999.99 -179968 -99999.99 -99999.99 -99999.99 -99999.99
12/26/2021 10:45:00 PM -99999.99 -179968 -99999.99 -99999.99 -99999.99 -99999.99
12/26/2021 11:00:00 PM -99999.99 -179968 -99999.99 -99999.99 -99999.99 -99999.99
12/26/2021 11:15:00 PM -99999.99 -179968 -99999.99 -99999.99 -99999.99 -99999.99
12/26/2021 11:30:00 PM -99999.99 -179968 -99999.99 -99999.99 -99999.99 -99999.99
12/26/2021 11:45:00 PM -99999.99 -179968 -99999.99 -99999.99 -99999.99 -99999.99
12/27/2021 12:00:00 AM -99999.99 -179968 -99999.99 -99999.99 -99999.99 -99999.99
12/27/2021 12:15:00 AM -99999.99 -179968 -99999.99 -99999.99 -99999.99 -99999.99
12/27/2021 12:30:00 AM -99999.99 -179968 -99999.99 -99999.99 -99999.99 -99999.99
12/27/2021 12:45:00 AM -99999.99 -179968 -99999.99 -99999.99 -99999.99 -99999.99
12/27/2021 1:00:00 AM -99999.99 -179968 -99999.99 -99999.99 -99999.99 -99999.99
12/27/2021 1:15:00 AM -99999.99 -179968 -99999.99 -99999.99 -99999.99 -99999.99
12/27/2021 1:30:00 AM -99999.99 -179968 -99999.99 -99999.99 -99999.99 -99999.99
12/27/2021 1:45:00 AM -99999.99 -179968 -99999.99 -99999.99 -99999.99 -99999.99
12/27/2021 2:00:00 AM -99999.99 -179968 -99999.99 -99999.99 -99999.99 -99999.99
12/27/2021 2:15:00 AM -99999.99 -179968 -99999.99 -99999.99 -99999.99 -99999.99
12/27/2021 2:30:00 AM -99999.99 -179968 -99999.99 -99999.99 -99999.99 -99999.99
12/27/2021 2:45:00 AM -99999.99 -179968 -99999.99 -99999.99 -99999.99 -99999.99
12/27/2021 3:00:00 AM -99999.99 -179968 -99999.99 -99999.99 -99999.99 -99999.99
12/27/2021 3:15:00 AM -99999.99 -179968 -99999.99 -99999.99 -99999.99 -99999.99
12/27/2021 3:30:00 AM -99999.99 -179968 -99999.99 -99999.99 -99999.99 -99999.99
12/27/2021 3:45:00 AM -99999.99 -179968 -99999.99 -99999.99 -99999.99 -99999.99
12/27/2021 4:00:00 AM -99999.99 -179968 -99999.99 -99999.99 -99999.99 -99999.99
12/27/2021 4:15:00 AM -99999.99 -179968 -99999.99 -99999.99 -99999.99 -99999.99
12/27/2021 4:30:00 AM -99999.99 -179968 -99999.99 -99999.99 -99999.99 -99999.99
12/27/2021 4:45:00 AM -99999.99 -179968 -99999.99 -99999.99 -99999.99 -99999.99
12/27/2021 5:00:00 AM -99999.99 -179968 -99999.99 -99999.99 -99999.99 -99999.99
12/27/2021 5:15:00 AM -99999.99 -179968 -99999.99 -99999.99 -99999.99 -99999.99
12/27/2021 5:30:00 AM -99999.99 -179968 -99999.99 -99999.99 -99999.99 -99999.99
12/27/2021 5:45:00 AM -99999.99 -179968 -99999.99 -99999.99 -99999.99 -99999.99
12/27/2021 6:00:00 AM -99999.99 -179968 -99999.99 -99999.99 -99999.99 -99999.99
12/27/2021 6:15:00 AM -99999.99 -179968 -99999.99 -99999.99 -99999.99 -99999.99
12/27/2021 6:30:00 AM -99999.99 -179968 -99999.99 -99999.99 -99999.99 -99999.99
12/27/2021 6:45:00 AM -99999.99 -179968 -99999.99 -99999.99 -99999.99 -99999.99
12/27/2021 7:00:00 AM -99999.99 -179968 -99999.99 -99999.99 -99999.99 -99999.99
12/27/2021 7:15:00 AM -99999.99 -179968 -99999.99 -99999.99 -99999.99 -99999.99
12/27/2021 7:30:00 AM -99999.99 -179968 -99999.99 -99999.99 -99999.99 -99999.99
12/27/2021 7:45:00 AM -99999.99 -179968 -99999.99 -99999.99 -99999.99 -99999.99
12/27/2021 8:00:00 AM -99999.99 -179968 -99999.99 -99999.99 -99999.99 -99999.99
12/27/2021 8:15:00 AM -99999.99 -179968 -99999.99 -99999.99 -99999.99 -99999.99
12/27/2021 8:30:00 AM -99999.99 -179968 -99999.99 -99999.99 -99999.99 -99999.99
12/27/2021 8:45:00 AM -99999.99 -179968 -99999.99 -99999.99 -99999.99 -99999.99
12/27/2021 9:00:00 AM -99999.99 -179968 -99999.99 -99999.99 -99999.99 -99999.99
12/27/2021 9:15:00 AM -99999.99 -179968 -99999.99 -99999.99 -99999.99 -99999.99
12/27/2021 9:30:00 AM -99999.99 -179968 -99999.99 -99999.99 -99999.99 -99999.99
12/27/2021 9:45:00 AM -99999.99 -179968 -99999.99 -99999.99 -99999.99 -99999.99
12/27/2021 10:00:00 AM -99999.99 -179968 -99999.99 -99999.99 -99999.99 -99999.99
12/27/2021 10:15:00 AM -99999.99 -179968 -99999.99 -99999.99 -99999.99 -99999.99
12/27/2021 10:30:00 AM -99999.99 -179968 -99999.99 -99999.99 -99999.99 -99999.99
12/27/2021 10:45:00 AM -99999.99 -179968 -99999.99 -99999.99 -99999.99 -99999.99
12/27/2021 11:00:00 AM -99999.99 -179968 -99999.99 -99999.99 -99999.99 -99999.99
12/27/2021 11:15:00 AM -99999.99 -179968 -99999.99 -99999.99 -99999.99 -99999.99
12/27/2021 11:30:00 AM -99999.99 -179968 -99999.99 -99999.99 -99999.99 -99999.99
12/27/2021 11:45:00 AM -99999.99 -179968 -99999.99 -99999.99 -99999.99 -99999.99
12/27/2021 12:00:00 PM -99999.99 -179968 -99999.99 -99999.99 -99999.99 -99999.99
12/27/2021 12:15:00 PM -99999.99 -179968 -99999.99 -99999.99 -99999.99 -99999.99
12/27/2021 12:30:00 PM -99999.99 -179968 -99999.99 -99999.99 -99999.99 -99999.99
12/27/2021 12:45:00 PM -99999.99 -179968 -99999.99 -99999.99 -99999.99 -99999.99
12/27/2021 1:00:00 PM -99999.99 -179968 -99999.99 -99999.99 -99999.99 -99999.99
12/27/2021 1:15:00 PM -99999.99 -179968 -99999.99 -99999.99 -99999.99 -99999.99
12/27/2021 1:30:00 PM -99999.99 -179968 -99999.99 -99999.99 -99999.99 -99999.99
12/27/2021 1:45:00 PM -99999.99 -179968 -99999.99 -99999.99 -99999.99 -99999.99
12/27/2021 2:00:00 PM -99999.99 -179968 -99999.99 -99999.99 -99999.99 -99999.99
12/27/2021 2:15:00 PM -99999.99 -179968 -99999.99 -99999.99 -99999.99 -99999.99
12/27/2021 2:30:00 PM -99999.99 -179968 -99999.99 -99999.99 -99999.99 -99999.99
12/27/2021 2:45:00 PM -99999.99 -179968 -99999.99 -99999.99 -99999.99 -99999.99
12/27/2021 3:00:00 PM -99999.99 -179968 -99999.99 -99999.99 -99999.99 -99999.99
12/27/2021 3:15:00 PM -99999.99 -179968 -99999.99 -99999.99 -99999.99 -99999.99
12/27/2021 3:30:00 PM -99999.99 -179968 -99999.99 -99999.99 -99999.99 -99999.99
12/27/2021 3:45:00 PM -99999.99 -179968 -99999.99 -99999.99 -99999.99 -99999.99
12/27/2021 4:00:00 PM -99999.99 -179968 -99999.99 -99999.99 -99999.99 -99999.99
12/27/2021 4:15:00 PM -99999.99 -179968 -99999.99 -99999.99 -99999.99 -99999.99
12/27/2021 4:30:00 PM -99999.99 -179968 -99999.99 -99999.99 -99999.99 -99999.99
12/27/2021 4:45:00 PM -99999.99 -179968 -99999.99 -99999.99 -99999.99 -99999.99
12/27/2021 5:00:00 PM -99999.99 -179968 -99999.99 -99999.99 -99999.99 -99999.99
12/27/2021 5:15:00 PM -99999.99 -179968 -99999.99 -99999.99 -99999.99 -99999.99
12/27/2021 5:30:00 PM -99999.99 -179968 -99999.99 -99999.99 -99999.99 -99999.99
12/27/2021 5:45:00 PM -99999.99 -179968 -99999.99 -99999.99 -99999.99 -99999.99
12/27/2021 6:00:00 PM -99999.99 -179968 -99999.99 -99999.99 -99999.99 -99999.99
12/27/2021 6:15:00 PM -99999.99 -179968 -99999.99 -99999.99 -99999.99 -99999.99
12/27/2021 6:30:00 PM -99999.99 -179968 -99999.99 -99999.99 -99999.99 -99999.99
12/27/2021 6:45:00 PM -99999.99 -179968 -99999.99 -99999.99 -99999.99 -99999.99
12/27/2021 7:00:00 PM -99999.99 -179968 -99999.99 -99999.99 -99999.99 -99999.99
12/27/2021 7:15:00 PM -99999.99 -179968 -99999.99 -99999.99 -99999.99 -99999.99
12/27/2021 7:30:00 PM -99999.99 -179968 -99999.99 -99999.99 -99999.99 -99999.99
12/27/2021 7:45:00 PM -99999.99 -179968 -99999.99 -99999.99 -99999.99 -99999.99
12/27/2021 8:00:00 PM -99999.99 -179968 -99999.99 -99999.99 -99999.99 -99999.99
12/27/2021 9:00:00 PM -99999.99 -179968 -99999.99 -99999.99 -99999.99 -99999.99
12/27/2021 9:15:00 PM -99999.99 -179968 -99999.99 -99999.99 -99999.99 -99999.99
12/27/2021 9:30:00 PM -99999.99 -179968 -99999.99 -99999.99 -99999.99 -99999.99
12/27/2021 9:45:00 PM -99999.99 -179968 -99999.99 -99999.99 -99999.99 -99999.99
12/27/2021 10:00:00 PM -99999.99 -179968 -99999.99 -99999.99 -99999.99 -99999.99
12/27/2021 10:15:00 PM -99999.99 -179968 -99999.99 -99999.99 -99999.99 -99999.99
12/27/2021 10:30:00 PM -99999.99 -179968 -99999.99 -99999.99 -99999.99 -99999.99
12/27/2021 10:45:00 PM -99999.99 -179968 -99999.99 -99999.99 -99999.99 -99999.99
12/27/2021 11:00:00 PM -99999.99 -179968 -99999.99 -99999.99 -99999.99 -99999.99
12/27/2021 11:15:00 PM -99999.99 -179968 -99999.99 -99999.99 -99999.99 -99999.99
12/27/2021 11:30:00 PM -99999.99 -179968 -99999.99 -99999.99 -99999.99 -99999.99
12/27/2021 11:45:00 PM -99999.99 -179968 -99999.99 -99999.99 -99999.99 -99999.99
12/28/2021 10:15:00 AM -99999.99 -179968 -99999.99 -99999.99 -99999.99 -99999.99
12/28/2021 10:30:00 AM 2.44 36.392 0.063 6.83 4.58 13.52
12/28/2021 10:45:00 AM 2.52 36.536 0.063 6.84 4.7 13.47
12/28/2021 11:00:00 AM 2.55 36.59 0.063 6.84 4.52 13.43
12/28/2021 11:15:00 AM 2.63 36.734 0.062 6.82 4.46 13.43
12/28/2021 11:30:00 AM 2.74 36.932 0.062 6.84 4.93 13.42
12/28/2021 11:45:00 AM 2.85 37.13 0.062 6.85 4.77 13.38
12/28/2021 12:00:00 PM 2.93 37.274 0.062 6.87 4.53 13.35
12/28/2021 12:15:00 PM 3 37.4 0.062 6.86 4.38 13.32
12/28/2021 12:30:00 PM 3.04 37.472 0.062 6.85 4.53 13.27
12/28/2021 12:45:00 PM 3.05 37.49 0.062 6.83 4.38 13.22
12/28/2021 1:00:00 PM 3.05 37.49 0.062 6.84 4.42 13.21
12/28/2021 1:15:00 PM 3.08 37.544 0.062 6.81 4.5 13.2
12/28/2021 1:30:00 PM 3.1 37.58 0.063 6.79 4.75 13.14
12/28/2021 1:45:00 PM 3.11 37.598 0.063 6.8 4.66 13.11
12/28/2021 2:00:00 PM 3.12 37.616 0.063 6.78 5.03 13.08
12/28/2021 2:15:00 PM 3.16 37.688 0.063 6.77 4.91 13.13
12/28/2021 2:30:00 PM 3.2 37.76 0.063 6.79 4.56 13.12
12/28/2021 2:45:00 PM 3.21 37.778 0.063 6.77 4.88 13.04
12/28/2021 3:00:00 PM 3.22 37.796 0.063 6.75 5.09 13
12/28/2021 3:15:00 PM 3.21 37.778 0.063 6.72 4.95 12.97
12/28/2021 3:30:00 PM 3.21 37.778 0.063 6.71 4.79 12.94
12/28/2021 3:45:00 PM 3.2 37.76 0.063 6.69 5.23 12.94
12/28/2021 4:00:00 PM 3.2 37.76 0.063 6.7 5 12.95
12/28/2021 4:15:00 PM 3.2 37.76 0.063 6.68 5.16 12.91
12/28/2021 4:30:00 PM 3.19 37.742 0.063 6.66 4.77 12.89
12/28/2021 4:45:00 PM -99999.99 -179968 -99999.99 -99999.99 -99999.99 -99999.99
12/28/2021 5:00:00 PM -99999.99 -179968 -99999.99 -99999.99 -99999.99 -99999.99
12/28/2021 5:15:00 PM -99999.99 -179968 -99999.99 -99999.99 -99999.99 -99999.99
12/28/2021 5:30:00 PM -99999.99 -179968 -99999.99 -99999.99 -99999.99 -99999.99
12/28/2021 5:45:00 PM -99999.99 -179968 -99999.99 -99999.99 -99999.99 -99999.99
12/28/2021 6:00:00 PM -99999.99 -179968 -99999.99 -99999.99 -99999.99 -99999.99
12/28/2021 6:15:00 PM -99999.99 -179968 -99999.99 -99999.99 -99999.99 -99999.99
12/28/2021 6:30:00 PM -99999.99 -179968 -99999.99 -99999.99 -99999.99 -99999.99
12/28/2021 6:45:00 PM -99999.99 -179968 -99999.99 -99999.99 -99999.99 -99999.99
12/28/2021 7:00:00 PM -99999.99 -179968 -99999.99 -99999.99 -99999.99 -99999.99
12/28/2021 7:15:00 PM -99999.99 -179968 -99999.99 -99999.99 -99999.99 -99999.99
12/28/2021 7:30:00 PM -99999.99 -179968 -99999.99 -99999.99 -99999.99 -99999.99
12/28/2021 7:45:00 PM -99999.99 -179968 -99999.99 -99999.99 -99999.99 -99999.99
12/28/2021 8:00:00 PM -99999.99 -179968 -99999.99 -99999.99 -99999.99 -99999.99
12/28/2021 8:15:00 PM -99999.99 -179968 -99999.99 -99999.99 -99999.99 -99999.99
12/28/2021 8:30:00 PM -99999.99 -179968 -99999.99 -99999.99 -99999.99 -99999.99
12/28/2021 8:45:00 PM -99999.99 -179968 -99999.99 -99999.99 -99999.99 -99999.99
12/28/2021 9:00:00 PM -99999.99 -179968 -99999.99 -99999.99 -99999.99 -99999.99
12/28/2021 9:15:00 PM -99999.99 -179968 -99999.99 -99999.99 -99999.99 -99999.99
12/28/2021 9:30:00 PM -99999.99 -179968 -99999.99 -99999.99 -99999.99 -99999.99
12/28/2021 9:45:00 PM -99999.99 -179968 -99999.99 -99999.99 -99999.99 -99999.99
12/28/2021 10:00:00 PM -99999.99 -179968 -99999.99 -99999.99 -99999.99 -99999.99
12/28/2021 10:15:00 PM -99999.99 -179968 -99999.99 -99999.99 -99999.99 -99999.99
12/28/2021 10:30:00 PM -99999.99 -179968 -99999.99 -99999.99 -99999.99 -99999.99
12/28/2021 10:45:00 PM -99999.99 -179968 -99999.99 -99999.99 -99999.99 -99999.99
12/28/2021 11:00:00 PM -99999.99 -179968 -99999.99 -99999.99 -99999.99 -99999.99
12/28/2021 11:15:00 PM -99999.99 -179968 -99999.99 -99999.99 -99999.99 -99999.99
12/28/2021 11:30:00 PM -99999.99 -179968 -99999.99 -99999.99 -99999.99 -99999.99
12/28/2021 11:45:00 PM -99999.99 -179968 -99999.99 -99999.99 -99999.99 -99999.99
12/29/2021 12:00:00 AM -99999.99 -179968 -99999.99 -99999.99 -99999.99 -99999.99
12/29/2021 12:15:00 AM -99999.99 -179968 -99999.99 -99999.99 -99999.99 -99999.99
12/29/2021 12:30:00 AM -99999.99 -179968 -99999.99 -99999.99 -99999.99 -99999.99
12/29/2021 12:45:00 AM -99999.99 -179968 -99999.99 -99999.99 -99999.99 -99999.99
12/29/2021 1:00:00 AM -99999.99 -179968 -99999.99 -99999.99 -99999.99 -99999.99
12/29/2021 1:15:00 AM -99999.99 -179968 -99999.99 -99999.99 -99999.99 -99999.99
12/29/2021 1:30:00 AM -99999.99 -179968 -99999.99 -99999.99 -99999.99 -99999.99
12/29/2021 1:30:00 PM -99999.99 -179968 -99999.99 -99999.99 -99999.99 -99999.99
12/29/2021 1:45:00 PM -99999.99 -179968 -99999.99 -99999.99 -99999.99 -99999.99
12/29/2021 2:00:00 PM -99999.99 -179968 -99999.99 -99999.99 -99999.99 -99999.99
12/29/2021 2:15:00 PM -99999.99 -179968 -99999.99 -99999.99 -99999.99 -99999.99
12/29/2021 2:30:00 PM -99999.99 -179968 -99999.99 -99999.99 -99999.99 -99999.99
12/29/2021 2:45:00 PM -99999.99 -179968 -99999.99 -99999.99 -99999.99 -99999.99
12/29/2021 3:00:00 PM -99999.99 -179968 -99999.99 -99999.99 -99999.99 -99999.99
12/29/2021 3:15:00 PM -99999.99 -179968 -99999.99 -99999.99 -99999.99 -99999.99
12/29/2021 3:30:00 PM -99999.99 -179968 -99999.99 -99999.99 -99999.99 -99999.99
12/29/2021 3:45:00 PM -99999.99 -179968 -99999.99 -99999.99 -99999.99 -99999.99
12/29/2021 4:00:00 PM -99999.99 -179968 -99999.99 -99999.99 -99999.99 -99999.99
12/29/2021 4:15:00 PM -99999.99 -179968 -99999.99 -99999.99 -99999.99 -99999.99
12/29/2021 4:30:00 PM -99999.99 -179968 -99999.99 -99999.99 -99999.99 -99999.99
12/29/2021 4:45:00 PM -99999.99 -179968 -99999.99 -99999.99 -99999.99 -99999.99
12/29/2021 5:00:00 PM -99999.99 -179968 -99999.99 -99999.99 -99999.99 -99999.99
12/29/2021 5:15:00 PM -99999.99 -179968 -99999.99 -99999.99 -99999.99 -99999.99
12/29/2021 5:30:00 PM -99999.99 -179968 -99999.99 -99999.99 -99999.99 -99999.99
12/29/2021 5:45:00 PM -99999.99 -179968 -99999.99 -99999.99 -99999.99 -99999.99
12/29/2021 6:00:00 PM -99999.99 -179968 -99999.99 -99999.99 -99999.99 -99999.99
12/29/2021 6:15:00 PM -99999.99 -179968 -99999.99 -99999.99 -99999.99 -99999.99
12/29/2021 6:30:00 PM -99999.99 -179968 -99999.99 -99999.99 -99999.99 -99999.99
12/29/2021 6:45:00 PM -99999.99 -179968 -99999.99 -99999.99 -99999.99 -99999.99
12/30/2021 11:15:00 AM -99999.99 -179968 -99999.99 -99999.99 -99999.99 -99999.99
12/30/2021 11:30:00 AM -99999.99 -179968 -99999.99 -99999.99 -99999.99 -99999.99
12/30/2021 11:45:00 AM -99999.99 -179968 -99999.99 -99999.99 -99999.99 -99999.99
12/30/2021 12:00:00 PM -99999.99 -179968 -99999.99 -99999.99 -99999.99 -99999.99
12/30/2021 12:15:00 PM -99999.99 -179968 -99999.99 -99999.99 -99999.99 -99999.99
12/30/2021 12:30:00 PM -99999.99 -179968 -99999.99 -99999.99 -99999.99 -99999.99
12/30/2021 12:45:00 PM -99999.99 -179968 -99999.99 -99999.99 -99999.99 -99999.99
12/30/2021 1:00:00 PM -99999.99 -179968 -99999.99 -99999.99 -99999.99 -99999.99
12/30/2021 1:15:00 PM -99999.99 -179968 -99999.99 -99999.99 -99999.99 -99999.99
12/30/2021 1:30:00 PM -99999.99 -179968 -99999.99 -99999.99 -99999.99 -99999.99
12/30/2021 1:45:00 PM -99999.99 -179968 -99999.99 -99999.99 -99999.99 -99999.99
12/30/2021 2:00:00 PM -99999.99 -179968 -99999.99 -99999.99 -99999.99 -99999.99
12/30/2021 2:15:00 PM -99999.99 -179968 -99999.99 -99999.99 -99999.99 -99999.99
12/30/2021 2:30:00 PM -99999.99 -179968 -99999.99 -99999.99 -99999.99 -99999.99
12/30/2021 2:45:00 PM -99999.99 -179968 -99999.99 -99999.99 -99999.99 -99999.99
12/30/2021 3:00:00 PM -99999.99 -179968 -99999.99 -99999.99 -99999.99 -99999.99
12/30/2021 3:15:00 PM -99999.99 -179968 -99999.99 -99999.99 -99999.99 -99999.99
12/30/2021 3:30:00 PM -99999.99 -179968 -99999.99 -99999.99 -99999.99 -99999.99
12/30/2021 3:45:00 PM -99999.99 -179968 -99999.99 -99999.99 -99999.99 -99999.99
12/30/2021 4:00:00 PM -99999.99 -179968 -99999.99 -99999.99 -99999.99 -99999.99
12/30/2021 4:15:00 PM -99999.99 -179968 -99999.99 -99999.99 -99999.99 -99999.99
12/30/2021 4:30:00 PM -99999.99 -179968 -99999.99 -99999.99 -99999.99 -99999.99
12/30/2021 4:45:00 PM -99999.99 -179968 -99999.99 -99999.99 -99999.99 -99999.99
12/30/2021 5:00:00 PM -99999.99 -179968 -99999.99 -99999.99 -99999.99 -99999.99
12/30/2021 5:15:00 PM -99999.99 -179968 -99999.99 -99999.99 -99999.99 -99999.99
12/30/2021 5:30:00 PM -99999.99 -179968 -99999.99 -99999.99 -99999.99 -99999.99
12/30/2021 5:45:00 PM -99999.99 -179968 -99999.99 -99999.99 -99999.99 -99999.99
12/30/2021 6:00:00 PM -99999.99 -179968 -99999.99 -99999.99 -99999.99 -99999.99
12/30/2021 6:15:00 PM -99999.99 -179968 -99999.99 -99999.99 -99999.99 -99999.99
12/30/2021 6:30:00 PM -99999.99 -179968 -99999.99 -99999.99 -99999.99 -99999.99
12/30/2021 6:45:00 PM -99999.99 -179968 -99999.99 -99999.99 -99999.99 -99999.99
12/30/2021 7:00:00 PM -99999.99 -179968 -99999.99 -99999.99 -99999.99 -99999.99
12/30/2021 7:15:00 PM -99999.99 -179968 -99999.99 -99999.99 -99999.99 -99999.99
12/30/2021 7:30:00 PM -99999.99 -179968 -99999.99 -99999.99 -99999.99 -99999.99
12/30/2021 7:45:00 PM -99999.99 -179968 -99999.99 -99999.99 -99999.99 -99999.99
12/30/2021 8:00:00 PM -99999.99 -179968 -99999.99 -99999.99 -99999.99 -99999.99
12/30/2021 8:15:00 PM -99999.99 -179968 -99999.99 -99999.99 -99999.99 -99999.99
12/30/2021 8:30:00 PM -99999.99 -179968 -99999.99 -99999.99 -99999.99 -99999.99
12/30/2021 8:45:00 PM -99999.99 -179968 -99999.99 -99999.99 -99999.99 -99999.99
12/31/2021 9:45:00 AM -99999.99 -179968 -99999.99 -99999.99 -99999.99 -99999.99
12/31/2021 10:00:00 AM -99999.99 -179968 -99999.99 -99999.99 -99999.99 -99999.99
12/31/2021 10:15:00 AM -99999.99 -179968 -99999.99 -99999.99 -99999.99 -99999.99
12/31/2021 10:30:00 AM -99999.99 -179968 -99999.99 -99999.99 -99999.99 -99999.99
12/31/2021 10:45:00 AM 5.13 41.234 0.064 6.92 5.24 12.61
12/31/2021 11:00:00 AM -99999.99 -179968 -99999.99 -99999.99 -99999.99 -99999.99
12/31/2021 11:15:00 AM 5.23 41.414 0.064 6.98 5.02 12.55
12/31/2021 11:30:00 AM -99999.99 -179968 -99999.99 -99999.99 -99999.99 -99999.99
12/31/2021 11:45:00 AM -99999.99 -179968 -99999.99 -99999.99 -99999.99 -99999.99
12/31/2021 12:00:00 PM -99999.99 -179968 -99999.99 -99999.99 -99999.99 -99999.99
12/31/2021 12:15:00 PM -99999.99 -179968 -99999.99 -99999.99 -99999.99 -99999.99
12/31/2021 12:30:00 PM -99999.99 -179968 -99999.99 -99999.99 -99999.99 -99999.99
12/31/2021 12:45:00 PM 5.32 41.576 0.063 6.95 5.38 12.48
12/31/2021 1:00:00 PM 5.4 41.72 0.063 6.97 5.51 12.49
12/31/2021 1:15:00 PM 5.47 41.846 0.063 6.98 5.35 12.46
12/31/2021 1:30:00 PM 5.5 41.9 0.063 6.97 5.5 12.43
12/31/2021 1:45:00 PM 5.54 41.972 0.063 6.96 5.45 12.43
12/31/2021 2:00:00 PM 5.63 42.134 0.063 6.98 5.63 12.43
12/31/2021 2:15:00 PM 5.67 42.206 0.063 6.98 5.22 12.39
12/31/2021 2:30:00 PM 5.7 42.26 0.063 6.98 5.67 12.37
12/31/2021 2:45:00 PM 5.71 42.278 0.063 6.96 5.88 12.35
12/31/2021 3:00:00 PM 5.71 42.278 0.063 6.94 5.57 12.32
12/31/2021 3:15:00 PM 5.7 42.26 0.063 6.92 6.09 12.28
12/31/2021 3:30:00 PM 5.69 42.242 0.063 6.93 5.54 12.24
12/31/2021 3:45:00 PM 5.68 42.224 0.064 6.92 5.9 12.17
12/31/2021 4:00:00 PM 5.67 42.206 0.064 6.9 6.03 12.14
12/31/2021 4:15:00 PM -99999.99 -179968 -99999.99 -99999.99 -99999.99 -99999.99
12/31/2021 4:30:00 PM -99999.99 -179968 -99999.99 -99999.99 -99999.99 -99999.99
12/31/2021 4:45:00 PM -99999.99 -179968 -99999.99 -99999.99 -99999.99 -99999.99
12/31/2021 5:00:00 PM -99999.99 -179968 -99999.99 -99999.99 -99999.99 -99999.99
12/31/2021 5:15:00 PM -99999.99 -179968 -99999.99 -99999.99 -99999.99 -99999.99
12/31/2021 5:30:00 PM -99999.99 -179968 -99999.99 -99999.99 -99999.99 -99999.99
12/31/2021 5:45:00 PM -99999.99 -179968 -99999.99 -99999.99 -99999.99 -99999.99
12/31/2021 6:00:00 PM -99999.99 -179968 -99999.99 -99999.99 -99999.99 -99999.99
12/31/2021 6:15:00 PM -99999.99 -179968 -99999.99 -99999.99 -99999.99 -99999.99
12/31/2021 6:30:00 PM -99999.99 -179968 -99999.99 -99999.99 -99999.99 -99999.99
12/31/2021 6:45:00 PM -99999.99 -179968 -99999.99 -99999.99 -99999.99 -99999.99
12/31/2021 7:00:00 PM -99999.99 -179968 -99999.99 -99999.99 -99999.99 -99999.99
12/31/2021 7:15:00 PM -99999.99 -179968 -99999.99 -99999.99 -99999.99 -99999.99
12/31/2021 7:30:00 PM -99999.99 -179968 -99999.99 -99999.99 -99999.99 -99999.99
12/31/2021 7:45:00 PM -99999.99 -179968 -99999.99 -99999.99 -99999.99 -99999.99
12/31/2021 8:00:00 PM -99999.99 -179968 -99999.99 -99999.99 -99999.99 -99999.99
12/31/2021 8:15:00 PM -99999.99 -179968 -99999.99 -99999.99 -99999.99 -99999.99
12/31/2021 8:30:00 PM -99999.99 -179968 -99999.99 -99999.99 -99999.99 -99999.99
12/31/2021 8:45:00 PM -99999.99 -179968 -99999.99 -99999.99 -99999.99 -99999.99
12/31/2021 9:00:00 PM -99999.99 -179968 -99999.99 -99999.99 -99999.99 -99999.99
12/31/2021 9:15:00 PM -99999.99 -179968 -99999.99 -99999.99 -99999.99 -99999.99
12/31/2021 9:30:00 PM -99999.99 -179968 -99999.99 -99999.99 -99999.99 -99999.99
12/31/2021 9:45:00 PM -99999.99 -179968 -99999.99 -99999.99 -99999.99 -99999.99
12/31/2021 10:00:00 PM -99999.99 -179968 -99999.99 -99999.99 -99999.99 -99999.99
12/31/2021 10:15:00 PM -99999.99 -179968 -99999.99 -99999.99 -99999.99 -99999.99
12/31/2021 10:30:00 PM -99999.99 -179968 -99999.99 -99999.99 -99999.99 -99999.99
12/31/2021 10:45:00 PM -99999.99 -179968 -99999.99 -99999.99 -99999.99 -99999.99
12/31/2021 11:00:00 PM -99999.99 -179968 -99999.99 -99999.99 -99999.99 -99999.99
12/31/2021 11:15:00 PM -99999.99 -179968 -99999.99 -99999.99 -99999.99 -99999.99
12/31/2021 11:30:00 PM -99999.99 -179968 -99999.99 -99999.99 -99999.99 -99999.99
12/31/2021 11:45:00 PM -99999.99 -179968 -99999.99 -99999.99 -99999.99 -99999.99
1/1/2022 12:00:00 AM -99999.99 -179968 -99999.99 -99999.99 -99999.99 -99999.99
1/1/2022 12:15:00 AM -99999.99 -179968 -99999.99 -99999.99 -99999.99 -99999.99
1/1/2022 12:30:00 AM -99999.99 -179968 -99999.99 -99999.99 -99999.99 -99999.99
1/1/2022 12:45:00 AM -99999.99 -179968 -99999.99 -99999.99 -99999.99 -99999.99
1/1/2022 1:00:00 AM -99999.99 -179968 -99999.99 -99999.99 -99999.99 -99999.99
1/1/2022 1:15:00 AM -99999.99 -179968 -99999.99 -99999.99 -99999.99 -99999.99
1/1/2022 1:30:00 AM -99999.99 -179968 -99999.99 -99999.99 -99999.99 -99999.99
1/1/2022 1:45:00 AM -99999.99 -179968 -99999.99 -99999.99 -99999.99 -99999.99
1/1/2022 2:00:00 AM -99999.99 -179968 -99999.99 -99999.99 -99999.99 -99999.99
1/1/2022 2:15:00 AM -99999.99 -179968 -99999.99 -99999.99 -99999.99 -99999.99
1/1/2022 2:30:00 AM -99999.99 -179968 -99999.99 -99999.99 -99999.99 -99999.99
1/1/2022 2:45:00 AM -99999.99 -179968 -99999.99 -99999.99 -99999.99 -99999.99
1/1/2022 3:00:00 AM -99999.99 -179968 -99999.99 -99999.99 -99999.99 -99999.99
1/1/2022 3:15:00 AM -99999.99 -179968 -99999.99 -99999.99 -99999.99 -99999.99
1/1/2022 3:30:00 AM -99999.99 -179968 -99999.99 -99999.99 -99999.99 -99999.99
1/1/2022 3:45:00 AM -99999.99 -179968 -99999.99 -99999.99 -99999.99 -99999.99
1/1/2022 4:00:00 AM -99999.99 -179968 -99999.99 -99999.99 -99999.99 -99999.99
1/1/2022 4:15:00 AM -99999.99 -179968 -99999.99 -99999.99 -99999.99 -99999.99
1/1/2022 4:30:00 AM -99999.99 -179968 -99999.99 -99999.99 -99999.99 -99999.99
1/1/2022 4:45:00 AM -99999.99 -179968 -99999.99 -99999.99 -99999.99 -99999.99
1/1/2022 5:00:00 AM -99999.99 -179968 -99999.99 -99999.99 -99999.99 -99999.99
1/1/2022 5:15:00 AM -99999.99 -179968 -99999.99 -99999.99 -99999.99 -99999.99
1/1/2022 5:30:00 AM -99999.99 -179968 -99999.99 -99999.99 -99999.99 -99999.99
1/1/2022 5:45:00 AM -99999.99 -179968 -99999.99 -99999.99 -99999.99 -99999.99
1/1/2022 6:00:00 AM -99999.99 -179968 -99999.99 -99999.99 -99999.99 -99999.99
1/1/2022 6:15:00 AM -99999.99 -179968 -99999.99 -99999.99 -99999.99 -99999.99
1/1/2022 6:30:00 AM -99999.99 -179968 -99999.99 -99999.99 -99999.99 -99999.99
1/1/2022 6:45:00 AM -99999.99 -179968 -99999.99 -99999.99 -99999.99 -99999.99
1/1/2022 7:00:00 AM -99999.99 -179968 -99999.99 -99999.99 -99999.99 -99999.99
1/1/2022 7:15:00 AM -99999.99 -179968 -99999.99 -99999.99 -99999.99 -99999.99
1/1/2022 7:30:00 AM -99999.99 -179968 -99999.99 -99999.99 -99999.99 -99999.99
1/1/2022 7:45:00 AM -99999.99 -179968 -99999.99 -99999.99 -99999.99 -99999.99
1/1/2022 12:45:00 PM -99999.99 -179968 -99999.99 -99999.99 -99999.99 -99999.99
1/1/2022 1:00:00 PM -99999.99 -179968 -99999.99 -99999.99 -99999.99 -99999.99
1/1/2022 1:15:00 PM -99999.99 -179968 -99999.99 -99999.99 -99999.99 -99999.99
1/1/2022 1:30:00 PM -99999.99 -179968 -99999.99 -99999.99 -99999.99 -99999.99
1/1/2022 1:45:00 PM -99999.99 -179968 -99999.99 -99999.99 -99999.99 -99999.99
1/1/2022 2:00:00 PM -99999.99 -179968 -99999.99 -99999.99 -99999.99 -99999.99
1/1/2022 2:15:00 PM -99999.99 -179968 -99999.99 -99999.99 -99999.99 -99999.99
1/1/2022 2:30:00 PM -99999.99 -179968 -99999.99 -99999.99 -99999.99 -99999.99
1/1/2022 2:45:00 PM -99999.99 -179968 -99999.99 -99999.99 -99999.99 -99999.99
1/1/2022 3:00:00 PM -99999.99 -179968 -99999.99 -99999.99 -99999.99 -99999.99
1/1/2022 3:15:00 PM -99999.99 -179968 -99999.99 -99999.99 -99999.99 -99999.99
1/1/2022 3:30:00 PM -99999.99 -179968 -99999.99 -99999.99 -99999.99 -99999.99
1/1/2022 3:45:00 PM -99999.99 -179968 -99999.99 -99999.99 -99999.99 -99999.99
1/1/2022 4:00:00 PM -99999.99 -179968 -99999.99 -99999.99 -99999.99 -99999.99
1/1/2022 4:15:00 PM -99999.99 -179968 -99999.99 -99999.99 -99999.99 -99999.99
1/1/2022 4:30:00 PM -99999.99 -179968 -99999.99 -99999.99 -99999.99 -99999.99
1/3/2022 10:00:00 AM -99999.99 -179968 -99999.99 -99999.99 -99999.99 -99999.99
1/3/2022 10:15:00 AM -99999.99 -179968 -99999.99 -99999.99 -99999.99 -99999.99
1/3/2022 10:30:00 AM -99999.99 -179968 -99999.99 -99999.99 -99999.99 -99999.99
1/3/2022 10:45:00 AM -99999.99 -179968 -99999.99 -99999.99 -99999.99 -99999.99
1/3/2022 11:00:00 AM -99999.99 -179968 -99999.99 -99999.99 -99999.99 -99999.99
1/3/2022 11:15:00 AM 0.69 33.242 0.063 6.88 4.93 14.31
1/3/2022 11:30:00 AM 0.67 33.206 0.063 6.87 4.49 14.31
1/3/2022 11:45:00 AM -99999.99 -179968 -99999.99 -99999.99 -99999.99 -99999.99
1/3/2022 12:00:00 PM 0.62 33.116 0.063 6.85 4.64 14.33
1/3/2022 12:15:00 PM 0.63 33.134 0.063 6.86 4.52 14.34
1/3/2022 12:30:00 PM 0.66 33.188 0.062 6.84 4.96 14.33
1/3/2022 12:45:00 PM 0.67 33.206 0.062 6.84 4.48 14.32
1/3/2022 1:00:00 PM 0.63 33.134 0.062 6.83 4.49 14.3
1/3/2022 1:15:00 PM 0.56 33.008 0.063 6.81 4.66 14.3
1/3/2022 1:30:00 PM 0.52 32.936 0.063 6.8 4.69 14.28
1/3/2022 1:45:00 PM 0.48 32.864 0.063 6.78 4.72 14.29
1/3/2022 2:00:00 PM 0.43 32.774 0.063 6.77 4.46 14.3
1/3/2022 2:15:00 PM 0.4 32.72 0.063 6.77 4.37 14.3
1/3/2022 2:30:00 PM 0.35 32.63 0.063 6.74 4.41 14.3
1/3/2022 2:45:00 PM 0.32 32.576 0.063 6.75 4.57 14.3
1/3/2022 3:00:00 PM 0.31 32.558 0.063 6.74 4.66 14.29
1/3/2022 3:15:00 PM 0.28 32.504 0.063 6.73 4.66 14.3
1/3/2022 3:30:00 PM 0.25 32.45 0.063 6.73 4.52 14.31
1/3/2022 3:45:00 PM 0.23 32.414 0.063 6.72 4.58 14.34
1/3/2022 4:00:00 PM 0.24 32.432 0.063 6.72 4.56 14.34
1/3/2022 4:15:00 PM 0.24 32.432 0.063 6.74 4.6 14.34
1/3/2022 4:30:00 PM -99999.99 -179968 -99999.99 -99999.99 -99999.99 -99999.99
1/3/2022 4:45:00 PM -99999.99 -179968 -99999.99 -99999.99 -99999.99 -99999.99
1/3/2022 5:00:00 PM -99999.99 -179968 -99999.99 -99999.99 -99999.99 -99999.99
1/3/2022 5:15:00 PM -99999.99 -179968 -99999.99 -99999.99 -99999.99 -99999.99
1/3/2022 5:30:00 PM -99999.99 -179968 -99999.99 -99999.99 -99999.99 -99999.99
1/3/2022 5:45:00 PM -99999.99 -179968 -99999.99 -99999.99 -99999.99 -99999.99
1/3/2022 6:00:00 PM -99999.99 -179968 -99999.99 -99999.99 -99999.99 -99999.99
1/3/2022 6:15:00 PM -99999.99 -179968 -99999.99 -99999.99 -99999.99 -99999.99
1/3/2022 6:30:00 PM -99999.99 -179968 -99999.99 -99999.99 -99999.99 -99999.99
1/3/2022 6:45:00 PM -99999.99 -179968 -99999.99 -99999.99 -99999.99 -99999.99
1/3/2022 7:00:00 PM -99999.99 -179968 -99999.99 -99999.99 -99999.99 -99999.99
1/3/2022 7:15:00 PM -99999.99 -179968 -99999.99 -99999.99 -99999.99 -99999.99
1/5/2022 2:30:00 PM -99999.99 -179968 -99999.99 -99999.99 -99999.99 -99999.99
1/5/2022 2:45:00 PM -99999.99 -179968 -99999.99 -99999.99 -99999.99 -99999.99
1/5/2022 3:00:00 PM -99999.99 -179968 -99999.99 -99999.99 -99999.99 -99999.99
1/5/2022 3:15:00 PM -99999.99 -179968 -99999.99 -99999.99 -99999.99 -99999.99
1/5/2022 3:30:00 PM -99999.99 -179968 -99999.99 -99999.99 -99999.99 -99999.99
1/5/2022 3:45:00 PM -99999.99 -179968 -99999.99 -99999.99 -99999.99 -99999.99
1/5/2022 4:00:00 PM -99999.99 -179968 -99999.99 -99999.99 -99999.99 -99999.99
1/5/2022 4:15:00 PM -99999.99 -179968 -99999.99 -99999.99 -99999.99 -99999.99
1/5/2022 4:30:00 PM -99999.99 -179968 -99999.99 -99999.99 -99999.99 -99999.99

These are provisional data and have not been subject to a quality assurance process, but rather are the raw data reported by the instrument.
H: value is above sensor operating range
L: value is below sensor operating range
Offline: station is not reporting data
NC: parameter is not collected at site

Data Availability & Limitations

Uncertainty and potential for error can be associated with environmental monitoring data. Provisional data have not been subject to a quality assurance process, but rather are the raw data reported by the instrument. Data users are cautioned to consider carefully the provisional nature of the information before using it for decisions that concern personal or public safety or the conduct of business that involves substantial monetary or operational consequences.

Approved data are currently available by request by emailing: srbc@srbc.net. Approved data have been subject to a quality assurance process to correct for equipment or fouling drift. Data recorded during equipment malfunctions have been removed.

View Historical Stations that have been discontinued.